Darstellungsparameter: Aktuell verwendete Einstellungen:
Skalierung der Graphiken ... ?
xyx+y,   Skalierungsfaktor:      Skalierung: Modus: x, Faktor: 1
Darstellungszeitraum ... ?
Vom - - bis: - -   Zeitraum: 09.08.2018 - 08.02.2019
Min/Max/Avg-Anzeige ... ?
Zeige MMA aktuell
Zeige MMA Monat
Zeige MMA alles
Zeige --A aktuell
Zeige --A Monat
Zeige --A alles
Keine MMA-Anzeige
MMA:
Keine MMA-Graphiken
MMA-Basis: 09.08.2018 - 08.02.2019
Quicknavigation für Darstellung... ?
Tage:      1T, 2T, 3T, 5T -1T -2T -3T -5T +1T +2T +3T +5T
Wochen: 1W, 2W, 3W -1W -2W -3W +1W +2W +3W
Monate: 1M, 3M, 6M -1M -3M -6M +1M +3M +6M
Jahre:    1J, 3J, 5J, 10J -1J -3J -5J -10J +1J +3J +5J +10J
Nutze für die Darstellung ... ?
Originaldaten oder Mittelwerte auf ...
Stundenbasis Tagesbasis Wochenbasis
Monatsbasis Jahresbasis      Datenbasis: Original-Daten
Darstellen als:
Statistik (Auto) Statistik J:M      Darstellung:
Zur Graphik,    zurück zur Übersicht aller Sensoren.
 
Tabellarische Datenbersicht: ?
 
Sensor: Nr:Datum:Temp:Feuchte:Taupunkt:
Aussen-T/F 1 09-08-2018 00:00:00 20.4 C 76 % 16.03 C
2 09-08-2018 00:05:00 20.3 C 76 % 15.93 C
3 09-08-2018 00:10:00 20.3 C 76 % 15.93 C
4 09-08-2018 00:15:00 20.2 C 77 % 16.04 C
5 09-08-2018 00:20:00 20.1 C 77 % 15.94 C
6 09-08-2018 00:25:00 19.9 C 77 % 15.75 C
7 09-08-2018 00:30:00 19.8 C 78 % 15.85 C
8 09-08-2018 00:35:00 19.7 C 78 % 15.76 C
9 09-08-2018 00:40:00 19.7 C 78 % 15.76 C
10 09-08-2018 00:45:00 19.6 C 78 % 15.66 C
11 09-08-2018 00:50:00 19.5 C 79 % 15.76 C
12 09-08-2018 00:55:00 19.4 C 79 % 15.66 C
13 09-08-2018 01:00:00 19.3 C 78 % 15.37 C
14 09-08-2018 01:05:00 19.4 C 78 % 15.47 C
15 09-08-2018 01:10:00 19.4 C 78 % 15.47 C
16 09-08-2018 01:15:00 19.4 C 77 % 15.27 C
17 09-08-2018 01:20:00 19.3 C 77 % 15.17 C
18 09-08-2018 01:25:00 19.3 C 78 % 15.37 C
19 09-08-2018 01:30:00 19.2 C 78 % 15.27 C
20 09-08-2018 01:35:00 19.1 C 78 % 15.18 C
21 09-08-2018 01:40:00 18.9 C 78 % 14.98 C
22 09-08-2018 01:45:00 18.9 C 79 % 15.18 C
23 09-08-2018 01:50:00 18.8 C 79 % 15.08 C
24 09-08-2018 01:55:00 18.9 C 79 % 15.18 C
25 09-08-2018 02:00:00 18.9 C 79 % 15.18 C
Sensor: Nr:Datum:Temp:Feuchte:Taupunkt:
Aussen-T/F 26 09-08-2018 02:05:00 18.8 C 79 % 15.08 C
27 09-08-2018 02:10:00 18.8 C 79 % 15.08 C
28 09-08-2018 02:15:00 18.7 C 79 % 14.99 C
29 09-08-2018 02:20:00 18.6 C 79 % 14.89 C
30 09-08-2018 02:25:00 18.6 C 79 % 14.89 C
31 09-08-2018 02:30:00 18.5 C 79 % 14.79 C
32 09-08-2018 02:35:00 18.4 C 79 % 14.69 C
33 09-08-2018 02:40:00 18.4 C 79 % 14.69 C
34 09-08-2018 02:45:00 18.3 C 79 % 14.6 C
35 09-08-2018 02:50:00 18.3 C 80 % 14.79 C
36 09-08-2018 02:55:00 18.3 C 79 % 14.6 C
37 09-08-2018 03:00:00 18.3 C 80 % 14.79 C
38 09-08-2018 03:05:00 18.3 C 80 % 14.79 C
39 09-08-2018 03:10:00 18.4 C 80 % 14.89 C
40 09-08-2018 03:15:00 18.4 C 80 % 14.89 C
41 09-08-2018 03:20:00 18.4 C 80 % 14.89 C
42 09-08-2018 03:25:00 18.5 C 80 % 14.99 C
43 09-08-2018 03:30:00 18.6 C 80 % 15.08 C
44 09-08-2018 03:35:00 18.6 C 80 % 15.08 C
45 09-08-2018 03:40:00 18.7 C 79 % 14.99 C
46 09-08-2018 03:45:00 18.7 C 79 % 14.99 C
47 09-08-2018 03:50:00 18.6 C 79 % 14.89 C
48 09-08-2018 03:55:00 18.6 C 79 % 14.89 C
49 09-08-2018 04:00:00 18.6 C 79 % 14.89 C
50 09-08-2018 04:05:00 18.6 C 80 % 15.08 C
Sensor: Nr:Datum:Temp:Feuchte:Taupunkt:
Aussen-T/F 51 09-08-2018 04:10:00 18.6 C 79 % 14.89 C
52 09-08-2018 04:15:00 18.6 C 80 % 15.08 C
53 09-08-2018 04:20:00 18.6 C 80 % 15.08 C
54 09-08-2018 04:25:00 18.6 C 80 % 15.08 C
55 09-08-2018 04:30:00 18.6 C 80 % 15.08 C
56 09-08-2018 04:35:00 18.6 C 79 % 14.89 C
57 09-08-2018 04:40:00 18.6 C 79 % 14.89 C
58 09-08-2018 04:45:00 18.5 C 79 % 14.79 C
59 09-08-2018 04:50:00 18.4 C 79 % 14.69 C
60 09-08-2018 04:55:00 18.4 C 79 % 14.69 C
61 09-08-2018 05:00:00 18.3 C 79 % 14.6 C
62 09-08-2018 05:05:00 18.3 C 79 % 14.6 C
63 09-08-2018 05:10:00 18.3 C 79 % 14.6 C
64 09-08-2018 05:15:00 18.3 C 79 % 14.6 C
65 09-08-2018 05:20:00 18.2 C 79 % 14.5 C
66 09-08-2018 05:25:00 18.2 C 80 % 14.69 C
67 09-08-2018 05:30:00 18.1 C 80 % 14.6 C
68 09-08-2018 05:35:00 18.1 C 80 % 14.6 C
69 09-08-2018 05:40:00 18.1 C 80 % 14.6 C
70 09-08-2018 05:45:00 18.1 C 80 % 14.6 C
71 09-08-2018 05:50:00 18.1 C 80 % 14.6 C
72 09-08-2018 05:55:00 18.1 C 81 % 14.79 C
73 09-08-2018 06:00:00 18.1 C 81 % 14.79 C
74 09-08-2018 06:05:00 18.1 C 81 % 14.79 C
75 09-08-2018 06:10:00 18.1 C 81 % 14.79 C
Sensor: Nr:Datum:Temp:Feuchte:Taupunkt:
Aussen-T/F 76 09-08-2018 06:15:00 18.1 C 81 % 14.79 C
77 09-08-2018 06:20:00 18.2 C 81 % 14.89 C
78 09-08-2018 06:25:00 18.2 C 82 % 15.08 C
79 09-08-2018 06:30:00 18.3 C 84 % 15.55 C
80 09-08-2018 06:35:00 18.4 C 86 % 16.02 C
81 09-08-2018 06:40:00 18.3 C 86 % 15.92 C
82 09-08-2018 06:45:00 18.2 C 87 % 16 C
83 09-08-2018 06:50:00 18.1 C 87 % 15.9 C
84 09-08-2018 06:55:00 17.9 C 87 % 15.71 C
85 09-08-2018 07:00:00 17.8 C 88 % 15.79 C
86 09-08-2018 07:05:00 17.7 C 88 % 15.69 C
87 09-08-2018 07:10:00 17.6 C 89 % 15.77 C
88 09-08-2018 07:15:00 17.6 C 89 % 15.77 C
89 09-08-2018 07:20:00 17.6 C 89 % 15.77 C
90 09-08-2018 07:25:00 17.6 C 90 % 15.94 C
91 09-08-2018 07:30:00 17.5 C 90 % 15.84 C
92 09-08-2018 07:35:00 17.4 C 90 % 15.74 C
93 09-08-2018 07:40:00 17.4 C 90 % 15.74 C
94 09-08-2018 07:45:00 17.4 C 90 % 15.74 C
95 09-08-2018 07:50:00 17.5 C 91 % 16.01 C
96 09-08-2018 07:55:00 17.6 C 91 % 16.11 C
97 09-08-2018 08:00:00 17.6 C 91 % 16.11 C
98 09-08-2018 08:05:00 17.6 C 91 % 16.11 C
99 09-08-2018 08:10:00 17.6 C 92 % 16.28 C
100 09-08-2018 08:15:00 17.6 C 92 % 16.28 C
Sensor: Nr:Datum:Temp:Feuchte:Taupunkt:
Aussen-T/F 101 09-08-2018 08:20:00 17.5 C 92 % 16.19 C
102 09-08-2018 08:25:00 17.6 C 92 % 16.28 C
103 09-08-2018 08:30:00 17.6 C 92 % 16.28 C
104 09-08-2018 08:35:00 17.7 C 92 % 16.38 C
105 09-08-2018 08:40:00 17.7 C 92 % 16.38 C
106 09-08-2018 08:45:00 17.8 C 92 % 16.48 C
107 09-08-2018 08:50:00 17.9 C 93 % 16.75 C
108 09-08-2018 08:55:00 18.1 C 93 % 16.95 C
109 09-08-2018 09:00:00 18.2 C 93 % 17.05 C
110 09-08-2018 09:05:00 18.2 C 93 % 17.05 C
111 09-08-2018 09:10:00 18.3 C 93 % 17.15 C
112 09-08-2018 09:15:00 18.3 C 93 % 17.15 C
113 09-08-2018 09:20:00 18.4 C 93 % 17.25 C
114 09-08-2018 09:25:00 18.6 C 93 % 17.45 C
115 09-08-2018 09:30:00 18.7 C 93 % 17.54 C
116 09-08-2018 09:35:00 18.9 C 94 % 17.91 C
117 09-08-2018 09:40:00 19.1 C 93 % 17.94 C
118 09-08-2018 09:45:00 19.2 C 93 % 18.04 C
119 09-08-2018 09:50:00 19.3 C 94 % 18.31 C
120 09-08-2018 09:55:00 19.5 C 94 % 18.51 C
121 09-08-2018 10:00:00 19.7 C 94 % 18.71 C
122 09-08-2018 10:05:00 19.7 C 94 % 18.71 C
123 09-08-2018 10:10:00 19.7 C 93 % 18.54 C
124 09-08-2018 10:15:00 19.4 C 93 % 18.24 C
125 09-08-2018 10:20:00 19.4 C 93 % 18.24 C
Sensor: Nr:Datum:Temp:Feuchte:Taupunkt:
Aussen-T/F 126 09-08-2018 10:25:00 19.6 C 93 % 18.44 C
127 09-08-2018 10:30:00 19.6 C 93 % 18.44 C
128 09-08-2018 10:35:00 19.6 C 93 % 18.44 C
129 09-08-2018 10:40:00 19.7 C 93 % 18.54 C
130 09-08-2018 10:45:00 19.8 C 93 % 18.63 C
131 09-08-2018 10:50:00 19.8 C 93 % 18.63 C
132 09-08-2018 10:55:00 19.9 C 93 % 18.73 C
133 09-08-2018 11:00:00 20 C 93 % 18.83 C
134 09-08-2018 11:05:00 20.2 C 94 % 19.2 C
135 09-08-2018 11:10:00 20.3 C 94 % 19.3 C
136 09-08-2018 11:15:00 20.3 C 94 % 19.3 C
137 09-08-2018 11:20:00 20.4 C 94 % 19.4 C
138 09-08-2018 11:25:00 20.5 C 94 % 19.5 C
139 09-08-2018 11:30:00 20.8 C 94 % 19.8 C
140 09-08-2018 11:35:00 21 C 94 % 20 C
141 09-08-2018 11:40:00 21.1 C 94 % 20.1 C
142 09-08-2018 11:45:00 21.3 C 94 % 20.29 C
143 09-08-2018 11:50:00 21.4 C 94 % 20.39 C
144 09-08-2018 11:55:00 21.6 C 94 % 20.59 C
145 09-08-2018 12:00:00 21.8 C 94 % 20.79 C
146 09-08-2018 12:05:00 21.9 C 94 % 20.89 C
147 09-08-2018 12:10:00 22 C 94 % 20.99 C
148 09-08-2018 12:15:00 22 C 92 % 20.64 C
149 09-08-2018 12:20:00 22.2 C 87 % 19.93 C
150 09-08-2018 12:25:00 22.8 C 86 % 20.33 C
Sensor: Nr:Datum:Temp:Feuchte:Taupunkt:
Aussen-T/F 151 09-08-2018 12:30:00 23.6 C 76 % 19.12 C
152 09-08-2018 12:35:00 24.7 C 71 % 19.09 C
153 09-08-2018 12:40:00 25.5 C 69 % 19.39 C
154 09-08-2018 12:45:00 26.1 C 65 % 19 C
155 09-08-2018 12:50:00 26.8 C 63 % 19.16 C
156 09-08-2018 12:55:00 27.3 C 62 % 19.38 C
157 09-08-2018 13:00:00 27.7 C 59 % 18.96 C
158 09-08-2018 13:05:00 28.2 C 58 % 19.15 C
159 09-08-2018 13:10:00 28.6 C 57 % 19.24 C
160 09-08-2018 13:15:00 28.9 C 56 % 19.24 C
161 09-08-2018 13:20:00 29.1 C 55 % 19.13 C
162 09-08-2018 13:25:00 29.3 C 55 % 19.32 C
163 09-08-2018 13:30:00 29.7 C 54 % 19.39 C
164 09-08-2018 13:35:00 30 C 51 % 18.75 C
165 09-08-2018 13:40:00 30.2 C 53 % 19.56 C
166 09-08-2018 13:45:00 30.4 C 52 % 19.43 C
167 09-08-2018 13:50:00 30.4 C 52 % 19.43 C
168 09-08-2018 13:55:00 30.4 C 53 % 19.74 C
169 09-08-2018 14:00:00 30.4 C 51 % 19.12 C
170 09-08-2018 14:05:00 30.3 C 52 % 19.34 C
171 09-08-2018 14:10:00 30.1 C 51 % 18.85 C
172 09-08-2018 14:15:00 29.9 C 59 % 21.01 C
173 09-08-2018 14:20:00 29.6 C 61 % 21.28 C
174 09-08-2018 14:25:00 29.1 C 62 % 21.07 C
175 09-08-2018 14:30:00 28.4 C 64 % 20.93 C
Sensor: Nr:Datum:Temp:Feuchte:Taupunkt:
Aussen-T/F 176 09-08-2018 14:35:00 27.9 C 65 % 20.71 C
177 09-08-2018 14:40:00 27.3 C 61 % 19.12 C
178 09-08-2018 14:45:00 25.6 C 69 % 19.49 C
179 09-08-2018 14:50:00 23.4 C 75 % 18.71 C
180 09-08-2018 14:55:00 21.9 C 81 % 18.49 C
181 09-08-2018 15:00:00 20.8 C 84 % 18 C
182 09-08-2018 15:05:00 20.3 C 86 % 17.88 C
183 09-08-2018 15:10:00 20.1 C 88 % 18.05 C
184 09-08-2018 15:15:00 19.9 C 88 % 17.85 C
185 09-08-2018 15:20:00 19.8 C 89 % 17.93 C
186 09-08-2018 15:25:00 19.8 C 90 % 18.11 C
187 09-08-2018 15:30:00 19.8 C 90 % 18.11 C
188 09-08-2018 15:35:00 19.8 C 90 % 18.11 C
189 09-08-2018 15:40:00 19.8 C 91 % 18.29 C
190 09-08-2018 15:45:00 19.8 C 91 % 18.29 C
191 09-08-2018 15:50:00 19.8 C 92 % 18.46 C
192 09-08-2018 15:55:00 20 C 92 % 18.66 C
193 09-08-2018 16:00:00 20.2 C 93 % 19.03 C
194 09-08-2018 16:05:00 20.6 C 93 % 19.43 C
195 09-08-2018 16:10:00 20.8 C 93 % 19.63 C
196 09-08-2018 16:15:00 21 C 93 % 19.82 C
197 09-08-2018 16:20:00 21.1 C 93 % 19.92 C
198 09-08-2018 16:25:00 21.3 C 93 % 20.12 C
199 09-08-2018 16:30:00 21.5 C 93 % 20.32 C
200 09-08-2018 16:35:00 21.6 C 93 % 20.42 C
Sensor: Nr:Datum:Temp:Feuchte:Taupunkt:
Aussen-T/F 201 09-08-2018 16:40:00 21.8 C 93 % 20.62 C
202 09-08-2018 16:45:00 21.9 C 93 % 20.72 C
203 09-08-2018 16:50:00 21.9 C 93 % 20.72 C
204 09-08-2018 16:55:00 21.9 C 93 % 20.72 C
205 09-08-2018 17:00:00 21.8 C 92 % 20.44 C
206 09-08-2018 17:05:00 21.7 C 92 % 20.34 C
207 09-08-2018 17:10:00 21.6 C 92 % 20.24 C
208 09-08-2018 17:15:00 21.6 C 92 % 20.24 C
209 09-08-2018 17:20:00 21.5 C 92 % 20.14 C
210 09-08-2018 17:25:00 21.4 C 92 % 20.05 C
211 09-08-2018 17:30:00 21.4 C 92 % 20.05 C
212 09-08-2018 17:35:00 21.4 C 92 % 20.05 C
213 09-08-2018 17:40:00 21.4 C 92 % 20.05 C
214 09-08-2018 17:45:00 21.3 C 92 % 19.95 C
215 09-08-2018 17:50:00 21.3 C 92 % 19.95 C
216 09-08-2018 17:55:00 21.2 C 92 % 19.85 C
217 09-08-2018 18:00:00 21.1 C 92 % 19.75 C
218 09-08-2018 18:05:00 21 C 92 % 19.65 C
219 09-08-2018 18:10:00 20.8 C 92 % 19.45 C
220 09-08-2018 18:15:00 20.7 C 92 % 19.35 C
221 09-08-2018 18:20:00 20.7 C 92 % 19.35 C
222 09-08-2018 18:25:00 20.7 C 92 % 19.35 C
223 09-08-2018 18:30:00 20.8 C 93 % 19.63 C
224 09-08-2018 18:35:00 20.8 C 93 % 19.63 C
225 09-08-2018 18:40:00 20.8 C 93 % 19.63 C
Sensor: Nr:Datum:Temp:Feuchte:Taupunkt:
Aussen-T/F 226 09-08-2018 18:45:00 20.9 C 93 % 19.72 C
227 09-08-2018 18:50:00 20.9 C 93 % 19.72 C
228 09-08-2018 18:55:00 21.2 C 93 % 20.02 C
229 09-08-2018 19:00:00 21.4 C 93 % 20.22 C
230 09-08-2018 19:05:00 21.7 C 93 % 20.52 C
231 09-08-2018 19:10:00 21.9 C 89 % 20 C
232 09-08-2018 19:15:00 22.5 C 89 % 20.59 C
233 09-08-2018 19:20:00 22.9 C 84 % 20.05 C
234 09-08-2018 19:25:00 23.2 C 86 % 20.73 C
235 09-08-2018 19:30:00 23 C 82 % 19.76 C
236 09-08-2018 19:35:00 22.8 C 83 % 19.76 C
237 09-08-2018 19:40:00 22.6 C 84 % 19.76 C
238 09-08-2018 19:45:00 22.3 C 84 % 19.46 C
239 09-08-2018 19:50:00 22 C 85 % 19.36 C
240 09-08-2018 19:55:00 21.8 C 86 % 19.35 C
241 09-08-2018 20:00:00 21.7 C 86 % 19.25 C
242 09-08-2018 20:05:00 21.5 C 82 % 18.3 C
243 09-08-2018 20:10:00 21.4 C 83 % 18.39 C
244 09-08-2018 20:15:00 21.3 C 80 % 17.71 C
245 09-08-2018 20:20:00 21.4 C 82 % 18.2 C
246 09-08-2018 20:25:00 21.2 C 81 % 17.81 C
247 09-08-2018 20:30:00 21.2 C 81 % 17.81 C
248 09-08-2018 20:35:00 21.1 C 81 % 17.71 C
249 09-08-2018 20:40:00 21.1 C 81 % 17.71 C
250 09-08-2018 20:45:00 21.1 C 81 % 17.71 C
Sensor: Nr:Datum:Temp:Feuchte:Taupunkt:
Aussen-T/F 251 09-08-2018 20:50:00 21.1 C 79 % 17.32 C
252 09-08-2018 20:55:00 21.1 C 80 % 17.51 C
253 09-08-2018 21:00:00 21 C 78 % 17.02 C
254 09-08-2018 21:05:00 21 C 78 % 17.02 C
255 09-08-2018 21:10:00 21 C 77 % 16.81 C
256 09-08-2018 21:15:00 21 C 76 % 16.61 C
257 09-08-2018 21:20:00 21 C 75 % 16.4 C
258 09-08-2018 21:25:00 20.9 C 77 % 16.72 C
259 09-08-2018 21:30:00 20.8 C 77 % 16.62 C
260 09-08-2018 21:35:00 20.7 C 76 % 16.32 C
261 09-08-2018 21:40:00 20.6 C 76 % 16.22 C
262 09-08-2018 21:45:00 20.6 C 78 % 16.63 C
263 09-08-2018 21:50:00 20.4 C 79 % 16.64 C
264 09-08-2018 21:55:00 20.2 C 79 % 16.44 C
265 09-08-2018 22:00:00 20.1 C 80 % 16.54 C
266 09-08-2018 22:05:00 19.9 C 81 % 16.54 C
267 09-08-2018 22:10:00 19.9 C 80 % 16.35 C
268 09-08-2018 22:15:00 19.9 C 79 % 16.15 C
269 09-08-2018 22:20:00 20.1 C 79 % 16.34 C
270 09-08-2018 22:25:00 20 C 79 % 16.25 C
271 09-08-2018 22:30:00 19.9 C 80 % 16.35 C
272 09-08-2018 22:35:00 19.8 C 81 % 16.45 C
273 09-08-2018 22:40:00 19.7 C 81 % 16.35 C
274 09-08-2018 22:45:00 19.6 C 80 % 16.06 C
275 09-08-2018 22:50:00 19.5 C 80 % 15.96 C
Sensor: Nr:Datum:Temp:Feuchte:Taupunkt:
Aussen-T/F 276 09-08-2018 22:55:00 19.5 C 80 % 15.96 C
277 09-08-2018 23:00:00 19.6 C 79 % 15.86 C
278 09-08-2018 23:05:00 19.6 C 80 % 16.06 C
279 09-08-2018 23:10:00 19.6 C 79 % 15.86 C
280 09-08-2018 23:15:00 19.5 C 78 % 15.56 C
281 09-08-2018 23:20:00 19.5 C 77 % 15.36 C
282 09-08-2018 23:25:00 19.6 C 79 % 15.86 C
283 09-08-2018 23:30:00 19.5 C 78 % 15.56 C
284 09-08-2018 23:35:00 19.5 C 79 % 15.76 C
285 09-08-2018 23:40:00 19.5 C 78 % 15.56 C
286 09-08-2018 23:45:00 19.6 C 78 % 15.66 C
287 09-08-2018 23:50:00 19.6 C 81 % 16.25 C
288 09-08-2018 23:55:00 19.2 C 82 % 16.05 C
289 10-08-2018 00:00:00 18.8 C 84 % 16.04 C
290 10-08-2018 00:05:00 18.5 C 85 % 15.93 C
291 10-08-2018 00:10:00 18.3 C 86 % 15.92 C
292 10-08-2018 00:15:00 18.1 C 86 % 15.72 C
293 10-08-2018 00:20:00 17.8 C 86 % 15.43 C
294 10-08-2018 00:25:00 17.6 C 87 % 15.41 C
295 10-08-2018 00:30:00 17.5 C 87 % 15.31 C
296 10-08-2018 00:35:00 17.5 C 87 % 15.31 C
297 10-08-2018 00:40:00 17.4 C 84 % 14.67 C
298 10-08-2018 00:45:00 17.3 C 82 % 14.2 C
299 10-08-2018 00:50:00 17.3 C 82 % 14.2 C
300 10-08-2018 00:55:00 17.3 C 82 % 14.2 C
Sensor: Nr:Datum:Temp:Feuchte:Taupunkt:
Aussen-T/F 301 10-08-2018 01:00:00 17.2 C 82 % 14.1 C
302 10-08-2018 01:05:00 17.2 C 81 % 13.91 C
303 10-08-2018 01:10:00 17.2 C 81 % 13.91 C
304 10-08-2018 01:15:00 17.1 C 81 % 13.82 C
305 10-08-2018 01:20:00 17.2 C 81 % 13.91 C
306 10-08-2018 01:25:00 17.1 C 80 % 13.62 C
307 10-08-2018 01:30:00 17.1 C 81 % 13.82 C
308 10-08-2018 01:35:00 17.1 C 82 % 14 C
309 10-08-2018 01:40:00 17.1 C 81 % 13.82 C
310 10-08-2018 01:45:00 17 C 80 % 13.53 C
311 10-08-2018 01:50:00 16.9 C 80 % 13.43 C
312 10-08-2018 01:55:00 16.9 C 80 % 13.43 C
313 10-08-2018 02:00:00 16.9 C 80 % 13.43 C
314 10-08-2018 02:05:00 16.8 C 81 % 13.52 C
315 10-08-2018 02:10:00 16.7 C 80 % 13.23 C
316 10-08-2018 02:15:00 16.6 C 80 % 13.14 C
317 10-08-2018 02:20:00 16.4 C 80 % 12.94 C
318 10-08-2018 02:25:00 16.3 C 81 % 13.04 C
319 10-08-2018 02:30:00 16.2 C 82 % 13.13 C
320 10-08-2018 02:35:00 16 C 82 % 12.93 C
321 10-08-2018 02:40:00 15.8 C 81 % 12.55 C
322 10-08-2018 02:45:00 15.7 C 82 % 12.64 C
323 10-08-2018 02:50:00 15.6 C 82 % 12.54 C
324 10-08-2018 02:55:00 15.5 C 82 % 12.44 C
325 10-08-2018 03:00:00 15.4 C 83 % 12.53 C
Sensor: Nr:Datum:Temp:Feuchte:Taupunkt:
Aussen-T/F 326 10-08-2018 03:05:00 15.3 C 83 % 12.43 C
327 10-08-2018 03:10:00 15.2 C 83 % 12.33 C
328 10-08-2018 03:15:00 15.2 C 83 % 12.33 C
329 10-08-2018 03:20:00 15.1 C 83 % 12.24 C
330 10-08-2018 03:25:00 15.1 C 83 % 12.24 C
331 10-08-2018 03:30:00 15.1 C 82 % 12.05 C
332 10-08-2018 03:35:00 15 C 82 % 11.95 C
333 10-08-2018 03:40:00 15 C 82 % 11.95 C
334 10-08-2018 03:45:00 14.9 C 82 % 11.86 C
335 10-08-2018 03:50:00 14.9 C 83 % 12.04 C
336 10-08-2018 03:55:00 14.9 C 83 % 12.04 C
337 10-08-2018 04:00:00 14.8 C 83 % 11.94 C
338 10-08-2018 04:05:00 14.7 C 83 % 11.85 C
339 10-08-2018 04:10:00 14.6 C 83 % 11.75 C
340 10-08-2018 04:15:00 14.6 C 83 % 11.75 C
341 10-08-2018 04:20:00 14.6 C 83 % 11.75 C
342 10-08-2018 04:25:00 14.6 C 83 % 11.75 C
343 10-08-2018 04:30:00 14.6 C 83 % 11.75 C
344 10-08-2018 04:35:00 14.5 C 83 % 11.65 C
345 10-08-2018 04:40:00 14.4 C 83 % 11.55 C
346 10-08-2018 04:45:00 14.4 C 84 % 11.73 C
347 10-08-2018 04:50:00 14.3 C 84 % 11.64 C
348 10-08-2018 04:55:00 14.2 C 85 % 11.72 C
349 10-08-2018 05:00:00 14.1 C 85 % 11.62 C
350 10-08-2018 05:05:00 13.9 C 85 % 11.42 C
Sensor: Nr:Datum:Temp:Feuchte:Taupunkt:
Aussen-T/F 351 10-08-2018 05:10:00 13.9 C 85 % 11.42 C
352 10-08-2018 05:15:00 13.8 C 86 % 11.5 C
353 10-08-2018 05:20:00 13.8 C 86 % 11.5 C
354 10-08-2018 05:25:00 13.7 C 86 % 11.4 C
355 10-08-2018 05:30:00 13.7 C 86 % 11.4 C
356 10-08-2018 05:35:00 13.7 C 86 % 11.4 C
357 10-08-2018 05:40:00 13.6 C 86 % 11.3 C
358 10-08-2018 05:45:00 13.5 C 87 % 11.38 C
359 10-08-2018 05:50:00 13.4 C 87 % 11.28 C
360 10-08-2018 05:55:00 13.4 C 87 % 11.28 C
361 10-08-2018 06:00:00 13.3 C 87 % 11.18 C
362 10-08-2018 06:05:00 13.3 C 87 % 11.18 C
363 10-08-2018 06:10:00 13.2 C 88 % 11.26 C
364 10-08-2018 06:15:00 13.2 C 88 % 11.26 C
365 10-08-2018 06:20:00 13.1 C 88 % 11.16 C
366 10-08-2018 06:25:00 13.1 C 88 % 11.16 C
367 10-08-2018 06:30:00 13.1 C 89 % 11.33 C
368 10-08-2018 06:35:00 13.2 C 88 % 11.26 C
369 10-08-2018 06:40:00 13.3 C 88 % 11.36 C
370 10-08-2018 06:45:00 13.4 C 88 % 11.45 C
371 10-08-2018 06:50:00 13.6 C 87 % 11.48 C
372 10-08-2018 06:55:00 13.7 C 87 % 11.58 C
373 10-08-2018 07:00:00 13.7 C 87 % 11.58 C
374 10-08-2018 07:05:00 13.7 C 87 % 11.58 C
375 10-08-2018 07:10:00 13.7 C 87 % 11.58 C
Sensor: Nr:Datum:Temp:Feuchte:Taupunkt:
Aussen-T/F 376 10-08-2018 07:15:00 13.7 C 87 % 11.58 C
377 10-08-2018 07:20:00 13.7 C 87 % 11.58 C
378 10-08-2018 07:25:00 13.7 C 87 % 11.58 C
379 10-08-2018 07:30:00 13.7 C 87 % 11.58 C
380 10-08-2018 07:35:00 13.7 C 87 % 11.58 C
381 10-08-2018 07:40:00 13.7 C 87 % 11.58 C
382 10-08-2018 07:45:00 13.7 C 87 % 11.58 C
383 10-08-2018 07:50:00 13.8 C 87 % 11.68 C
384 10-08-2018 07:55:00 13.9 C 87 % 11.77 C
385 10-08-2018 08:00:00 13.9 C 87 % 11.77 C
386 10-08-2018 08:05:00 14.1 C 87 % 11.97 C
387 10-08-2018 08:10:00 14.2 C 87 % 12.07 C
388 10-08-2018 08:15:00 14.3 C 86 % 11.99 C
389 10-08-2018 08:20:00 14.4 C 86 % 12.09 C
390 10-08-2018 08:25:00 14.5 C 85 % 12.01 C
391 10-08-2018 08:30:00 14.6 C 85 % 12.11 C
392 10-08-2018 08:35:00 14.7 C 85 % 12.21 C
393 10-08-2018 08:40:00 14.8 C 84 % 12.12 C
394 10-08-2018 08:45:00 14.9 C 85 % 12.4 C
395 10-08-2018 08:50:00 14.9 C 83 % 12.04 C
396 10-08-2018 08:55:00 15.1 C 82 % 12.05 C
397 10-08-2018 09:00:00 15.2 C 83 % 12.33 C
398 10-08-2018 09:05:00 15.3 C 81 % 12.06 C
399 10-08-2018 09:10:00 15.6 C 81 % 12.35 C
400 10-08-2018 09:15:00 15.7 C 80 % 12.26 C
Sensor: Nr:Datum:Temp:Feuchte:Taupunkt:
Aussen-T/F 401 10-08-2018 09:20:00 15.8 C 79 % 12.17 C
402 10-08-2018 09:25:00 15.9 C 79 % 12.27 C
403 10-08-2018 09:30:00 16.1 C 78 % 12.27 C
404 10-08-2018 09:35:00 16.1 C 78 % 12.27 C
405 10-08-2018 09:40:00 16.2 C 78 % 12.36 C
406 10-08-2018 09:45:00 16.3 C 77 % 12.26 C
407 10-08-2018 09:50:00 16.4 C 76 % 12.16 C
408 10-08-2018 09:55:00 16.6 C 75 % 12.15 C
409 10-08-2018 10:00:00 16.6 C 74 % 11.95 C
410 10-08-2018 10:05:00 16.8 C 73 % 11.94 C
411 10-08-2018 10:10:00 16.9 C 74 % 12.24 C
412 10-08-2018 10:15:00 17.1 C 73 % 12.23 C
413 10-08-2018 10:20:00 17.2 C 72 % 12.11 C
414 10-08-2018 10:25:00 17.4 C 71 % 12.09 C
415 10-08-2018 10:30:00 17.5 C 71 % 12.19 C
416 10-08-2018 10:35:00 17.6 C 71 % 12.28 C
417 10-08-2018 10:40:00 17.7 C 70 % 12.16 C
418 10-08-2018 10:45:00 17.9 C 67 % 11.69 C
419 10-08-2018 10:50:00 18.1 C 68 % 12.11 C
420 10-08-2018 10:55:00 18.1 C 67 % 11.88 C
421 10-08-2018 11:00:00 18.1 C 66 % 11.65 C
422 10-08-2018 11:05:00 18.2 C 66 % 11.75 C
423 10-08-2018 11:10:00 18.4 C 65 % 11.71 C
424 10-08-2018 11:15:00 18.6 C 67 % 12.36 C
425 10-08-2018 11:20:00 18.7 C 63 % 11.52 C
Sensor: Nr:Datum:Temp:Feuchte:Taupunkt:
Aussen-T/F 426 10-08-2018 11:25:00 18.8 C 63 % 11.61 C
427 10-08-2018 11:30:00 19 C 61 % 11.31 C
428 10-08-2018 11:35:00 19.1 C 61 % 11.41 C
429 10-08-2018 11:40:00 19.2 C 59 % 11 C
430 10-08-2018 11:45:00 19.3 C 58 % 10.84 C
431 10-08-2018 11:50:00 19.6 C 59 % 11.37 C
432 10-08-2018 11:55:00 19.8 C 58 % 11.3 C
433 10-08-2018 12:00:00 20 C 56 % 10.96 C
434 10-08-2018 12:05:00 20.2 C 56 % 11.15 C
435 10-08-2018 12:10:00 20.3 C 55 % 10.97 C
436 10-08-2018 12:15:00 20.4 C 56 % 11.33 C
437 10-08-2018 12:20:00 20.5 C 53 % 10.6 C
438 10-08-2018 12:25:00 20.5 C 52 % 10.31 C
439 10-08-2018 12:30:00 20.6 C 51 % 10.12 C
440 10-08-2018 12:35:00 20.6 C 51 % 10.12 C
441 10-08-2018 12:40:00 20.6 C 51 % 10.12 C
442 10-08-2018 12:45:00 20.6 C 52 % 10.41 C
443 10-08-2018 12:50:00 20.6 C 51 % 10.12 C
444 10-08-2018 12:55:00 20.6 C 50 % 9.82 C
445 10-08-2018 13:00:00 20.6 C 51 % 10.12 C
446 10-08-2018 13:05:00 20.7 C 51 % 10.21 C
447 10-08-2018 13:10:00 20.7 C 50 % 9.91 C
448 10-08-2018 13:15:00 20.7 C 52 % 10.5 C
449 10-08-2018 13:20:00 20.8 C 49 % 9.7 C
450 10-08-2018 13:25:00 20.9 C 47 % 9.17 C
Sensor: Nr:Datum:Temp:Feuchte:Taupunkt:
Aussen-T/F 451 10-08-2018 13:30:00 20.9 C 47 % 9.17 C
452 10-08-2018 13:35:00 21.1 C 47 % 9.36 C
453 10-08-2018 13:40:00 21.2 C 45 % 8.8 C
454 10-08-2018 13:45:00 21.2 C 46 % 9.13 C
455 10-08-2018 13:50:00 21.2 C 46 % 9.13 C
456 10-08-2018 13:55:00 21.3 C 46 % 9.22 C
457 10-08-2018 14:00:00 21.4 C 46 % 9.31 C
458 10-08-2018 14:05:00 21.6 C 47 % 9.81 C
459 10-08-2018 14:10:00 21.6 C 46 % 9.49 C
460 10-08-2018 14:15:00 21.7 C 46 % 9.58 C
461 10-08-2018 14:20:00 21.8 C 46 % 9.67 C
462 10-08-2018 14:25:00 21.9 C 48 % 10.4 C
463 10-08-2018 14:30:00 22 C 45 % 9.53 C
464 10-08-2018 14:35:00 21.9 C 46 % 9.77 C
465 10-08-2018 14:40:00 21.8 C 48 % 10.31 C
466 10-08-2018 14:45:00 21.8 C 48 % 10.31 C
467 10-08-2018 14:50:00 21.9 C 47 % 10.09 C
468 10-08-2018 14:55:00 22.2 C 44 % 9.38 C
469 10-08-2018 15:00:00 22.3 C 47 % 10.45 C
470 10-08-2018 15:05:00 22.4 C 47 % 10.54 C
471 10-08-2018 15:10:00 22.6 C 44 % 9.74 C
472 10-08-2018 15:15:00 22.9 C 44 % 10.01 C
473 10-08-2018 15:20:00 23.1 C 43 % 9.85 C
474 10-08-2018 15:25:00 22.9 C 43 % 9.67 C
475 10-08-2018 15:30:00 22.8 C 44 % 9.92 C
Sensor: Nr:Datum:Temp:Feuchte:Taupunkt:
Aussen-T/F 476 10-08-2018 15:35:00 22.7 C 45 % 10.16 C
477 10-08-2018 15:40:00 22.7 C 43 % 9.49 C
478 10-08-2018 15:45:00 23 C 43 % 9.76 C
479 10-08-2018 15:50:00 23.6 C 41 % 9.59 C
480 10-08-2018 15:55:00 23.9 C 40 % 9.49 C
481 10-08-2018 16:00:00 24.3 C 40 % 9.84 C
482 10-08-2018 16:05:00 24.7 C 39 % 9.82 C
483 10-08-2018 16:10:00 24.6 C 39 % 9.73 C
484 10-08-2018 16:15:00 24.8 C 39 % 9.91 C
485 10-08-2018 16:20:00 25.1 C 37 % 9.39 C
486 10-08-2018 16:25:00 25.3 C 39 % 10.36 C
487 10-08-2018 16:30:00 25.3 C 37 % 9.57 C
488 10-08-2018 16:35:00 25.2 C 37 % 9.48 C
489 10-08-2018 16:40:00 25.2 C 40 % 10.65 C
490 10-08-2018 16:45:00 25.6 C 39 % 10.62 C
491 10-08-2018 16:50:00 25.6 C 38 % 10.23 C
492 10-08-2018 16:55:00 25.6 C 36 % 9.43 C
493 10-08-2018 17:00:00 25.6 C 37 % 9.84 C
494 10-08-2018 17:05:00 25.6 C 36 % 9.43 C
495 10-08-2018 17:10:00 25.6 C 36 % 9.43 C
496 10-08-2018 17:15:00 25.4 C 36 % 9.25 C
497 10-08-2018 17:20:00 24.9 C 36 % 8.81 C
498 10-08-2018 17:25:00 24.3 C 36 % 8.28 C
499 10-08-2018 17:30:00 23.7 C 38 % 8.55 C
500 10-08-2018 17:35:00 23.8 C 39 % 9.02 C
Sensor: Nr:Datum:Temp:Feuchte:Taupunkt:
Aussen-T/F 501 10-08-2018 17:40:00 24.5 C 37 % 8.86 C
502 10-08-2018 17:45:00 24.9 C 34 % 7.97 C
503 10-08-2018 17:50:00 24.8 C 35 % 8.31 C
504 10-08-2018 17:55:00 24.4 C 36 % 8.37 C
505 10-08-2018 18:00:00 24.1 C 38 % 8.9 C
506 10-08-2018 18:05:00 24 C 39 % 9.2 C
507 10-08-2018 18:10:00 24 C 40 % 9.58 C
508 10-08-2018 18:15:00 23.7 C 39 % 8.93 C
509 10-08-2018 18:20:00 23.4 C 41 % 9.41 C
510 10-08-2018 18:25:00 23.2 C 42 % 9.59 C
511 10-08-2018 18:30:00 22.9 C 39 % 8.22 C
512 10-08-2018 18:35:00 22.9 C 40 % 8.59 C
513 10-08-2018 18:40:00 23.4 C 37 % 7.89 C
514 10-08-2018 18:45:00 23.7 C 37 % 8.16 C
515 10-08-2018 18:50:00 23.6 C 37 % 8.07 C
516 10-08-2018 18:55:00 23.2 C 40 % 8.86 C
517 10-08-2018 19:00:00 22.9 C 41 % 8.96 C
518 10-08-2018 19:05:00 22.8 C 41 % 8.87 C
519 10-08-2018 19:10:00 22.7 C 42 % 9.14 C
520 10-08-2018 19:15:00 22.6 C 45 % 10.07 C
521 10-08-2018 19:20:00 22.5 C 45 % 9.98 C
522 10-08-2018 19:25:00 22.4 C 45 % 9.89 C
523 10-08-2018 19:30:00 22.4 C 47 % 10.54 C
524 10-08-2018 19:35:00 22.4 C 49 % 11.17 C
525 10-08-2018 19:40:00 22.3 C 49 % 11.08 C
Sensor: Nr:Datum:Temp:Feuchte:Taupunkt:
Aussen-T/F 526 10-08-2018 19:45:00 22.1 C 43 % 8.95 C
527 10-08-2018 19:50:00 21.9 C 48 % 10.4 C
528 10-08-2018 19:55:00 21.8 C 43 % 8.67 C
529 10-08-2018 20:00:00 21.7 C 48 % 10.22 C
530 10-08-2018 20:05:00 21.4 C 44 % 8.65 C
531 10-08-2018 20:10:00 21.3 C 47 % 9.54 C
532 10-08-2018 20:15:00 21.4 C 50 % 10.55 C
533 10-08-2018 20:20:00 21.4 C 48 % 9.94 C
534 10-08-2018 20:25:00 21.4 C 53 % 11.43 C
535 10-08-2018 20:30:00 21.3 C 54 % 11.62 C
536 10-08-2018 20:35:00 21 C 52 % 10.78 C
537 10-08-2018 20:40:00 20.6 C 53 % 10.69 C
538 10-08-2018 20:45:00 20.2 C 56 % 11.15 C
539 10-08-2018 20:50:00 19.8 C 57 % 11.04 C
540 10-08-2018 20:55:00 19.5 C 58 % 11.02 C
541 10-08-2018 21:00:00 19.2 C 56 % 10.22 C
542 10-08-2018 21:05:00 18.9 C 57 % 10.2 C
543 10-08-2018 21:10:00 18.7 C 57 % 10.02 C
544 10-08-2018 21:15:00 18.6 C 59 % 10.44 C
545 10-08-2018 21:20:00 18.3 C 58 % 9.9 C
546 10-08-2018 21:25:00 18.1 C 61 % 10.47 C
547 10-08-2018 21:30:00 17.9 C 60 % 10.03 C
548 10-08-2018 21:35:00 17.8 C 61 % 10.18 C
549 10-08-2018 21:40:00 17.6 C 60 % 9.75 C
550 10-08-2018 21:45:00 17.5 C 62 % 10.15 C
Sensor: Nr:Datum:Temp:Feuchte:Taupunkt:
Aussen-T/F 551 10-08-2018 21:50:00 17.4 C 63 % 10.29 C
552 10-08-2018 21:55:00 17.2 C 62 % 9.86 C
553 10-08-2018 22:00:00 17.1 C 62 % 9.77 C
554 10-08-2018 22:05:00 17 C 63 % 9.91 C
555 10-08-2018 22:10:00 16.9 C 63 % 9.82 C
556 10-08-2018 22:15:00 16.8 C 64 % 9.96 C
557 10-08-2018 22:20:00 16.7 C 64 % 9.86 C
558 10-08-2018 22:25:00 16.6 C 66 % 10.23 C
559 10-08-2018 22:30:00 16.4 C 65 % 9.81 C
560 10-08-2018 22:35:00 16.2 C 66 % 9.85 C
561 10-08-2018 22:40:00 16.1 C 66 % 9.75 C
562 10-08-2018 22:45:00 16 C 68 % 10.1 C
563 10-08-2018 22:50:00 15.8 C 68 % 9.91 C
564 10-08-2018 22:55:00 15.7 C 69 % 10.03 C
565 10-08-2018 23:00:00 15.5 C 68 % 9.63 C
566 10-08-2018 23:05:00 15.3 C 68 % 9.43 C
567 10-08-2018 23:10:00 15.2 C 70 % 9.77 C
568 10-08-2018 23:15:00 15.2 C 72 % 10.19 C
569 10-08-2018 23:20:00 15.1 C 73 % 10.3 C
570 10-08-2018 23:25:00 14.9 C 73 % 10.11 C
571 10-08-2018 23:30:00 14.8 C 75 % 10.42 C
572 10-08-2018 23:35:00 14.8 C 74 % 10.22 C
573 10-08-2018 23:40:00 14.8 C 73 % 10.01 C
574 10-08-2018 23:45:00 14.7 C 75 % 10.32 C
575 10-08-2018 23:50:00 14.6 C 74 % 10.02 C
Sensor: Nr:Datum:Temp:Feuchte:Taupunkt:
Aussen-T/F 576 10-08-2018 23:55:00 14.4 C 77 % 10.42 C
577 11-08-2018 00:00:00 14.3 C 77 % 10.33 C
578 11-08-2018 00:05:00 14.2 C 76 % 10.03 C
579 11-08-2018 00:10:00 14.1 C 76 % 9.94 C
580 11-08-2018 00:15:00 13.9 C 77 % 9.94 C
581 11-08-2018 00:20:00 13.8 C 77 % 9.84 C
582 11-08-2018 00:25:00 13.7 C 77 % 9.75 C
583 11-08-2018 00:30:00 13.7 C 78 % 9.94 C
584 11-08-2018 00:35:00 13.6 C 77 % 9.65 C
585 11-08-2018 00:40:00 13.6 C 77 % 9.65 C
586 11-08-2018 00:45:00 13.5 C 78 % 9.74 C
587 11-08-2018 00:50:00 13.4 C 78 % 9.65 C
588 11-08-2018 00:55:00 13.4 C 79 % 9.84 C
589 11-08-2018 01:00:00 13.3 C 79 % 9.74 C
590 11-08-2018 01:05:00 13.3 C 79 % 9.74 C
591 11-08-2018 01:10:00 13.2 C 79 % 9.64 C
592 11-08-2018 01:15:00 13.3 C 80 % 9.93 C
593 11-08-2018 01:20:00 13.3 C 80 % 9.93 C
594 11-08-2018 01:25:00 13.3 C 80 % 9.93 C
595 11-08-2018 01:30:00 13.4 C 80 % 10.02 C
596 11-08-2018 01:35:00 13.4 C 80 % 10.02 C
597 11-08-2018 01:40:00 13.4 C 80 % 10.02 C
598 11-08-2018 01:45:00 13.5 C 79 % 9.93 C
599 11-08-2018 01:50:00 13.5 C 79 % 9.93 C
600 11-08-2018 01:55:00 13.6 C 79 % 10.03 C
Sensor: Nr:Datum:Temp:Feuchte:Taupunkt:
Aussen-T/F 601 11-08-2018 02:00:00 13.6 C 80 % 10.22 C
602 11-08-2018 02:05:00 13.5 C 79 % 9.93 C
603 11-08-2018 02:10:00 13.4 C 79 % 9.84 C
604 11-08-2018 02:15:00 13.4 C 80 % 10.02 C
605 11-08-2018 02:20:00 13.3 C 80 % 9.93 C
606 11-08-2018 02:25:00 13.2 C 80 % 9.83 C
607 11-08-2018 02:30:00 13.2 C 80 % 9.83 C
608 11-08-2018 02:35:00 13.1 C 80 % 9.73 C
609 11-08-2018 02:40:00 13.1 C 80 % 9.73 C
610 11-08-2018 02:45:00 13.1 C 80 % 9.73 C
611 11-08-2018 02:50:00 13.1 C 79 % 9.54 C
612 11-08-2018 02:55:00 13.1 C 79 % 9.54 C
613 11-08-2018 03:00:00 13.1 C 80 % 9.73 C
614 11-08-2018 03:05:00 13.1 C 79 % 9.54 C
615 11-08-2018 03:10:00 13.2 C 79 % 9.64 C
616 11-08-2018 03:15:00 13.2 C 79 % 9.64 C
617 11-08-2018 03:20:00 13.2 C 80 % 9.83 C
618 11-08-2018 03:25:00 13.3 C 80 % 9.93 C
619 11-08-2018 03:30:00 13.3 C 80 % 9.93 C
620 11-08-2018 03:35:00 13.4 C 80 % 10.02 C
621 11-08-2018 03:40:00 13.4 C 79 % 9.84 C
622 11-08-2018 03:45:00 13.4 C 79 % 9.84 C
623 11-08-2018 03:50:00 13.5 C 79 % 9.93 C
624 11-08-2018 03:55:00 13.6 C 79 % 10.03 C
625 11-08-2018 04:00:00 13.7 C 79 % 10.13 C
Sensor: Nr:Datum:Temp:Feuchte:Taupunkt:
Aussen-T/F 626 11-08-2018 04:05:00 13.7 C 79 % 10.13 C
627 11-08-2018 04:10:00 13.8 C 79 % 10.22 C
628 11-08-2018 04:15:00 13.8 C 79 % 10.22 C
629 11-08-2018 04:20:00 13.9 C 79 % 10.32 C
630 11-08-2018 04:25:00 13.9 C 79 % 10.32 C
631 11-08-2018 04:30:00 13.9 C 78 % 10.13 C
632 11-08-2018 04:35:00 13.9 C 79 % 10.32 C
633 11-08-2018 04:40:00 14 C 79 % 10.42 C
634 11-08-2018 04:45:00 14 C 79 % 10.42 C
635 11-08-2018 04:50:00 14 C 79 % 10.42 C
636 11-08-2018 04:55:00 14 C 79 % 10.42 C
637 11-08-2018 05:00:00 14 C 79 % 10.42 C
638 11-08-2018 05:05:00 14.1 C 80 % 10.71 C
639 11-08-2018 05:10:00 14.1 C 79 % 10.52 C
640 11-08-2018 05:15:00 14.1 C 79 % 10.52 C
641 11-08-2018 05:20:00 14.1 C 79 % 10.52 C
642 11-08-2018 05:25:00 14.1 C 79 % 10.52 C
643 11-08-2018 05:30:00 14.1 C 79 % 10.52 C
644 11-08-2018 05:35:00 14.1 C 79 % 10.52 C
645 11-08-2018 05:40:00 14.1 C 79 % 10.52 C
646 11-08-2018 05:45:00 14.1 C 79 % 10.52 C
647 11-08-2018 05:50:00 14.1 C 79 % 10.52 C
648 11-08-2018 05:55:00 14.1 C 79 % 10.52 C
649 11-08-2018 06:00:00 14.1 C 79 % 10.52 C
650 11-08-2018 06:05:00 14.1 C 79 % 10.52 C
Sensor: Nr:Datum:Temp:Feuchte:Taupunkt:
Aussen-T/F 651 11-08-2018 06:10:00 14.1 C 79 % 10.52 C
652 11-08-2018 06:15:00 14.2 C 80 % 10.8 C
653 11-08-2018 06:20:00 14.2 C 80 % 10.8 C
654 11-08-2018 06:25:00 14.3 C 80 % 10.9 C
655 11-08-2018 06:30:00 14.3 C 80 % 10.9 C
656 11-08-2018 06:35:00 14.4 C 80 % 11 C
657 11-08-2018 06:40:00 14.4 C 79 % 10.81 C
658 11-08-2018 06:45:00 14.4 C 79 % 10.81 C
659 11-08-2018 06:50:00 14.6 C 79 % 11 C
660 11-08-2018 06:55:00 14.6 C 78 % 10.81 C
661 11-08-2018 07:00:00 14.7 C 77 % 10.71 C
662 11-08-2018 07:05:00 14.8 C 77 % 10.81 C
663 11-08-2018 07:10:00 14.9 C 78 % 11.1 C
664 11-08-2018 07:15:00 15.1 C 77 % 11.1 C
665 11-08-2018 07:20:00 15.1 C 77 % 11.1 C
666 11-08-2018 07:25:00 15.2 C 76 % 11 C
667 11-08-2018 07:30:00 15.3 C 76 % 11.1 C
668 11-08-2018 07:35:00 15.3 C 77 % 11.3 C
669 11-08-2018 07:40:00 15.3 C 77 % 11.3 C
670 11-08-2018 07:45:00 15.4 C 77 % 11.39 C
671 11-08-2018 07:50:00 15.5 C 75 % 11.09 C
672 11-08-2018 07:55:00 15.6 C 74 % 10.99 C
673 11-08-2018 08:00:00 15.6 C 76 % 11.39 C
674 11-08-2018 08:05:00 15.6 C 75 % 11.19 C
675 11-08-2018 08:10:00 15.6 C 76 % 11.39 C
Sensor: Nr:Datum:Temp:Feuchte:Taupunkt:
Aussen-T/F 676 11-08-2018 08:15:00 15.6 C 76 % 11.39 C
677 11-08-2018 08:20:00 15.6 C 76 % 11.39 C
678 11-08-2018 08:25:00 15.6 C 77 % 11.59 C
679 11-08-2018 08:30:00 15.6 C 76 % 11.39 C
680 11-08-2018 08:35:00 15.7 C 75 % 11.28 C
681 11-08-2018 08:40:00 15.7 C 75 % 11.28 C
682 11-08-2018 08:45:00 15.8 C 74 % 11.18 C
683 11-08-2018 08:50:00 15.9 C 74 % 11.28 C
684 11-08-2018 08:55:00 16 C 74 % 11.37 C
685 11-08-2018 09:00:00 16.1 C 73 % 11.26 C
686 11-08-2018 09:05:00 16.2 C 72 % 11.15 C
687 11-08-2018 09:10:00 16.4 C 71 % 11.13 C
688 11-08-2018 09:15:00 16.6 C 71 % 11.32 C
689 11-08-2018 09:20:00 16.7 C 70 % 11.21 C
690 11-08-2018 09:25:00 16.8 C 70 % 11.3 C
691 11-08-2018 09:30:00 16.8 C 70 % 11.3 C
692 11-08-2018 09:35:00 16.9 C 70 % 11.4 C
693 11-08-2018 09:40:00 17.1 C 69 % 11.37 C
694 11-08-2018 09:45:00 17.3 C 69 % 11.56 C
695 11-08-2018 09:50:00 17.3 C 69 % 11.56 C
696 11-08-2018 09:55:00 17.4 C 69 % 11.66 C
697 11-08-2018 10:00:00 17.6 C 67 % 11.4 C
698 11-08-2018 10:05:00 17.8 C 67 % 11.6 C
699 11-08-2018 10:10:00 18.1 C 66 % 11.65 C
700 11-08-2018 10:15:00 18.3 C 65 % 11.61 C
Sensor: Nr:Datum:Temp:Feuchte:Taupunkt:
Aussen-T/F 701 11-08-2018 10:20:00 18.5 C 63 % 11.33 C
702 11-08-2018 10:25:00 18.7 C 62 % 11.28 C
703 11-08-2018 10:30:00 18.7 C 62 % 11.28 C
704 11-08-2018 10:35:00 18.6 C 62 % 11.18 C
705 11-08-2018 10:40:00 18.7 C 62 % 11.28 C
706 11-08-2018 10:45:00 18.9 C 62 % 11.47 C
707 11-08-2018 10:50:00 19.1 C 60 % 11.16 C
708 11-08-2018 10:55:00 19.3 C 61 % 11.6 C
709 11-08-2018 11:00:00 19.3 C 60 % 11.35 C
710 11-08-2018 11:05:00 19.1 C 59 % 10.91 C
711 11-08-2018 11:10:00 19.1 C 58 % 10.65 C
712 11-08-2018 11:15:00 19.2 C 57 % 10.48 C
713 11-08-2018 11:20:00 19.5 C 57 % 10.76 C
714 11-08-2018 11:25:00 19.7 C 57 % 10.95 C
715 11-08-2018 11:30:00 19.9 C 54 % 10.32 C
716 11-08-2018 11:35:00 20 C 55 % 10.69 C
717 11-08-2018 11:40:00 20.1 C 55 % 10.78 C
718 11-08-2018 11:45:00 20.2 C 52 % 10.04 C
719 11-08-2018 11:50:00 20.2 C 53 % 10.32 C
720 11-08-2018 11:55:00 20.3 C 52 % 10.13 C
721 11-08-2018 12:00:00 20.4 C 51 % 9.93 C
722 11-08-2018 12:05:00 20.4 C 51 % 9.93 C
723 11-08-2018 12:10:00 20.3 C 50 % 9.54 C
724 11-08-2018 12:15:00 20.3 C 52 % 10.13 C
725 11-08-2018 12:20:00 20.5 C 51 % 10.02 C
Sensor: Nr:Datum:Temp:Feuchte:Taupunkt:
Aussen-T/F 726 11-08-2018 12:25:00 20.6 C 50 % 9.82 C
727 11-08-2018 12:30:00 20.6 C 51 % 10.12 C
728 11-08-2018 12:35:00 20.4 C 50 % 9.64 C
729 11-08-2018 12:40:00 20.3 C 49 % 9.24 C
730 11-08-2018 12:45:00 20.3 C 48 % 8.94 C
731 11-08-2018 12:50:00 20.6 C 49 % 9.52 C
732 11-08-2018 12:55:00 20.8 C 48 % 9.4 C
733 11-08-2018 13:00:00 21 C 47 % 9.27 C
734 11-08-2018 13:05:00 21.1 C 45 % 8.71 C
735 11-08-2018 13:10:00 20.9 C 46 % 8.86 C
736 11-08-2018 13:15:00 20.9 C 45 % 8.53 C
737 11-08-2018 13:20:00 20.8 C 47 % 9.08 C
738 11-08-2018 13:25:00 20.7 C 46 % 8.67 C
739 11-08-2018 13:30:00 20.7 C 45 % 8.35 C
740 11-08-2018 13:35:00 21 C 44 % 8.29 C
741 11-08-2018 13:40:00 21.2 C 43 % 8.13 C
742 11-08-2018 13:45:00 21.4 C 42 % 7.97 C
743 11-08-2018 13:50:00 21.7 C 41 % 7.88 C
744 11-08-2018 13:55:00 21.9 C 42 % 8.42 C
745 11-08-2018 14:00:00 21.9 C 42 % 8.42 C
746 11-08-2018 14:05:00 22.1 C 41 % 8.24 C
747 11-08-2018 14:10:00 22.3 C 40 % 8.06 C
748 11-08-2018 14:15:00 22.4 C 41 % 8.51 C
749 11-08-2018 14:20:00 22.3 C 40 % 8.06 C
750 11-08-2018 14:25:00 22.2 C 40 % 7.97 C
Sensor: Nr:Datum:Temp:Feuchte:Taupunkt:
Aussen-T/F 751 11-08-2018 14:30:00 22.2 C 41 % 8.33 C
752 11-08-2018 14:35:00 22.3 C 42 % 8.78 C
753 11-08-2018 14:40:00 22.3 C 41 % 8.42 C
754 11-08-2018 14:45:00 22.3 C 39 % 7.69 C
755 11-08-2018 14:50:00 22.4 C 40 % 8.15 C
756 11-08-2018 14:55:00 22.6 C 39 % 7.95 C
757 11-08-2018 15:00:00 22.8 C 40 % 8.5 C
758 11-08-2018 15:05:00 23.1 C 39 % 8.4 C
759 11-08-2018 15:10:00 23.2 C 40 % 8.86 C
760 11-08-2018 15:15:00 23.4 C 38 % 8.28 C
761 11-08-2018 15:20:00 23.5 C 37 % 7.98 C
762 11-08-2018 15:25:00 23.7 C 37 % 8.16 C
763 11-08-2018 15:30:00 23.9 C 37 % 8.33 C
764 11-08-2018 15:35:00 24.3 C 37 % 8.69 C
765 11-08-2018 15:40:00 24.6 C 35 % 8.13 C
766 11-08-2018 15:45:00 24.7 C 34 % 7.8 C
767 11-08-2018 15:50:00 24.9 C 34 % 7.97 C
768 11-08-2018 15:55:00 25.2 C 36 % 9.08 C
769 11-08-2018 16:00:00 25.4 C 33 % 7.97 C
770 11-08-2018 16:05:00 25.7 C 33 % 8.23 C
771 11-08-2018 16:10:00 25.8 C 33 % 8.32 C
772 11-08-2018 16:15:00 26 C 32 % 8.04 C
773 11-08-2018 16:20:00 25.8 C 32 % 7.87 C
774 11-08-2018 16:25:00 25.9 C 34 % 8.85 C
775 11-08-2018 16:30:00 26.2 C 31 % 7.75 C
Sensor: Nr:Datum:Temp:Feuchte:Taupunkt:
Aussen-T/F 776 11-08-2018 16:35:00 26 C 33 % 8.49 C
777 11-08-2018 16:40:00 25.6 C 32 % 7.69 C
778 11-08-2018 16:45:00 25.5 C 32 % 7.6 C
779 11-08-2018 16:50:00 25.6 C 32 % 7.69 C
780 11-08-2018 16:55:00 25.2 C 32 % 7.34 C
781 11-08-2018 17:00:00 24.9 C 32 % 7.08 C
782 11-08-2018 17:05:00 24.7 C 33 % 7.36 C
783 11-08-2018 17:10:00 24.6 C 32 % 6.82 C
784 11-08-2018 17:15:00 24.4 C 35 % 7.96 C
785 11-08-2018 17:20:00 24.8 C 35 % 8.31 C
786 11-08-2018 17:25:00 25.3 C 34 % 8.32 C
787 11-08-2018 17:30:00 25.8 C 32 % 7.87 C
788 11-08-2018 17:35:00 25.9 C 32 % 7.95 C
789 11-08-2018 17:40:00 26.1 C 32 % 8.13 C
790 11-08-2018 17:45:00 26.1 C 31 % 7.66 C
791 11-08-2018 17:50:00 25.9 C 30 % 7.01 C
792 11-08-2018 17:55:00 25.9 C 32 % 7.95 C
793 11-08-2018 18:00:00 25.9 C 32 % 7.95 C
794 11-08-2018 18:05:00 25.8 C 30 % 6.92 C
795 11-08-2018 18:10:00 25.3 C 31 % 6.97 C
796 11-08-2018 18:15:00 24.8 C 32 % 7 C
797 11-08-2018 18:20:00 24.5 C 35 % 8.05 C
798 11-08-2018 18:25:00 24.5 C 34 % 7.62 C
799 11-08-2018 18:30:00 24.6 C 33 % 7.27 C
800 11-08-2018 18:35:00 24.8 C 32 % 7 C
Sensor: Nr:Datum:Temp:Feuchte:Taupunkt:
Aussen-T/F 801 11-08-2018 18:40:00 25 C 34 % 8.06 C
802 11-08-2018 18:45:00 25.2 C 33 % 7.79 C
803 11-08-2018 18:50:00 25.2 C 32 % 7.34 C
804 11-08-2018 18:55:00 24.8 C 33 % 7.45 C
805 11-08-2018 19:00:00 24.7 C 33 % 7.36 C
806 11-08-2018 19:05:00 24.6 C 35 % 8.13 C
807 11-08-2018 19:10:00 24.4 C 34 % 7.53 C
808 11-08-2018 19:15:00 24.2 C 34 % 7.36 C
809 11-08-2018 19:20:00 24 C 37 % 8.42 C
810 11-08-2018 19:25:00 23.7 C 37 % 8.16 C
811 11-08-2018 19:30:00 23.5 C 38 % 8.37 C
812 11-08-2018 19:35:00 23.3 C 40 % 8.95 C
813 11-08-2018 19:40:00 23.2 C 40 % 8.86 C
814 11-08-2018 19:45:00 23.1 C 39 % 8.4 C
815 11-08-2018 19:50:00 22.9 C 40 % 8.59 C
816 11-08-2018 19:55:00 22.8 C 39 % 8.13 C
817 11-08-2018 20:00:00 22.7 C 39 % 8.04 C
818 11-08-2018 20:05:00 22.6 C 46 % 10.4 C
819 11-08-2018 20:10:00 22.4 C 40 % 8.15 C
820 11-08-2018 20:15:00 22.3 C 45 % 9.8 C
821 11-08-2018 20:20:00 22.2 C 43 % 9.04 C
822 11-08-2018 20:25:00 22.1 C 42 % 8.6 C
823 11-08-2018 20:30:00 21.9 C 42 % 8.42 C
824 11-08-2018 20:35:00 21.8 C 43 % 8.67 C
825 11-08-2018 20:40:00 21.7 C 48 % 10.22 C
Sensor: Nr:Datum:Temp:Feuchte:Taupunkt:
Aussen-T/F 826 11-08-2018 20:45:00 21.4 C 50 % 10.55 C
827 11-08-2018 20:50:00 21 C 51 % 10.48 C
828 11-08-2018 20:55:00 20.5 C 50 % 9.73 C
829 11-08-2018 21:00:00 20 C 51 % 9.56 C
830 11-08-2018 21:05:00 19.6 C 54 % 10.05 C
831 11-08-2018 21:10:00 19.2 C 54 % 9.67 C
832 11-08-2018 21:15:00 18.9 C 55 % 9.67 C
833 11-08-2018 21:20:00 18.7 C 55 % 9.48 C
834 11-08-2018 21:25:00 18.4 C 56 % 9.47 C
835 11-08-2018 21:30:00 18.2 C 57 % 9.55 C
836 11-08-2018 21:35:00 18 C 57 % 9.36 C
837 11-08-2018 21:40:00 17.8 C 57 % 9.18 C
838 11-08-2018 21:45:00 17.6 C 58 % 9.25 C
839 11-08-2018 21:50:00 17.5 C 59 % 9.41 C
840 11-08-2018 21:55:00 17.3 C 60 % 9.47 C
841 11-08-2018 22:00:00 17.2 C 61 % 9.62 C
842 11-08-2018 22:05:00 17.1 C 61 % 9.53 C
843 11-08-2018 22:10:00 17 C 62 % 9.67 C
844 11-08-2018 22:15:00 16.8 C 61 % 9.24 C
845 11-08-2018 22:20:00 16.7 C 62 % 9.39 C
846 11-08-2018 22:25:00 16.6 C 62 % 9.3 C
847 11-08-2018 22:30:00 16.4 C 63 % 9.35 C
848 11-08-2018 22:35:00 16.3 C 63 % 9.25 C
849 11-08-2018 22:40:00 16.2 C 64 % 9.39 C
850 11-08-2018 22:45:00 16.1 C 66 % 9.75 C
Sensor: Nr:Datum:Temp:Feuchte:Taupunkt:
Aussen-T/F 851 11-08-2018 22:50:00 15.9 C 66 % 9.56 C
852 11-08-2018 22:55:00 15.7 C 68 % 9.82 C
853 11-08-2018 23:00:00 15.6 C 67 % 9.5 C
854 11-08-2018 23:05:00 15.4 C 69 % 9.75 C
855 11-08-2018 23:10:00 15.2 C 70 % 9.77 C
856 11-08-2018 23:15:00 15 C 70 % 9.58 C
857 11-08-2018 23:20:00 14.7 C 71 % 9.5 C
858 11-08-2018 23:25:00 14.6 C 72 % 9.61 C
859 11-08-2018 23:30:00 14.4 C 73 % 9.63 C
860 11-08-2018 23:35:00 14.3 C 73 % 9.53 C
861 11-08-2018 23:40:00 14.1 C 73 % 9.34 C
862 11-08-2018 23:45:00 13.9 C 74 % 9.35 C
863 11-08-2018 23:50:00 13.8 C 73 % 9.05 C
864 11-08-2018 23:55:00 13.8 C 74 % 9.25 C
865 12-08-2018 00:00:00 13.8 C 74 % 9.25 C
866 12-08-2018 00:05:00 13.7 C 74 % 9.15 C
867 12-08-2018 00:10:00 13.7 C 75 % 9.35 C
868 12-08-2018 00:15:00 13.6 C 75 % 9.26 C
869 12-08-2018 00:20:00 13.4 C 75 % 9.06 C
870 12-08-2018 00:25:00 13.3 C 75 % 8.97 C
871 12-08-2018 00:30:00 13.2 C 76 % 9.07 C
872 12-08-2018 00:35:00 13.1 C 76 % 8.97 C
873 12-08-2018 00:40:00 13 C 77 % 9.07 C
874 12-08-2018 00:45:00 12.9 C 77 % 8.97 C
875 12-08-2018 00:50:00 12.8 C 78 % 9.06 C
Sensor: Nr:Datum:Temp:Feuchte:Taupunkt:
Aussen-T/F 876 12-08-2018 00:55:00 12.7 C 77 % 8.78 C
877 12-08-2018 01:00:00 12.7 C 78 % 8.97 C
878 12-08-2018 01:05:00 12.6 C 77 % 8.68 C
879 12-08-2018 01:10:00 12.6 C 77 % 8.68 C
880 12-08-2018 01:15:00 12.6 C 78 % 8.87 C
881 12-08-2018 01:20:00 12.5 C 78 % 8.77 C
882 12-08-2018 01:25:00 12.5 C 78 % 8.77 C
883 12-08-2018 01:30:00 12.4 C 79 % 8.86 C
884 12-08-2018 01:35:00 12.3 C 78 % 8.58 C
885 12-08-2018 01:40:00 12.2 C 78 % 8.48 C
886 12-08-2018 01:45:00 12.1 C 79 % 8.57 C
887 12-08-2018 01:50:00 12 C 79 % 8.48 C
888 12-08-2018 01:55:00 11.9 C 79 % 8.38 C
889 12-08-2018 02:00:00 11.9 C 79 % 8.38 C
890 12-08-2018 02:05:00 12 C 79 % 8.48 C
891 12-08-2018 02:10:00 11.9 C 79 % 8.38 C
892 12-08-2018 02:15:00 11.9 C 80 % 8.56 C
893 12-08-2018 02:20:00 11.8 C 80 % 8.47 C
894 12-08-2018 02:25:00 11.8 C 80 % 8.47 C
895 12-08-2018 02:30:00 11.7 C 81 % 8.55 C
896 12-08-2018 02:35:00 11.6 C 81 % 8.45 C
897 12-08-2018 02:40:00 11.6 C 81 % 8.45 C
898 12-08-2018 02:45:00 11.4 C 81 % 8.26 C
899 12-08-2018 02:50:00 11.4 C 81 % 8.26 C
900 12-08-2018 02:55:00 11.3 C 81 % 8.16 C
Sensor: Nr:Datum:Temp:Feuchte:Taupunkt:
Aussen-T/F 901 12-08-2018 03:00:00 11.3 C 80 % 7.98 C
902 12-08-2018 03:05:00 11.1 C 81 % 7.97 C
903 12-08-2018 03:10:00 11.1 C 81 % 7.97 C
904 12-08-2018 03:15:00 11.1 C 82 % 8.15 C
905 12-08-2018 03:20:00 11 C 82 % 8.05 C
906 12-08-2018 03:25:00 10.9 C 82 % 7.95 C
907 12-08-2018 03:30:00 10.8 C 82 % 7.85 C
908 12-08-2018 03:35:00 10.8 C 83 % 8.03 C
909 12-08-2018 03:40:00 10.7 C 83 % 7.93 C
910 12-08-2018 03:45:00 10.7 C 83 % 7.93 C
911 12-08-2018 03:50:00 10.7 C 83 % 7.93 C
912 12-08-2018 03:55:00 10.6 C 83 % 7.84 C
913 12-08-2018 04:00:00 10.5 C 83 % 7.74 C
914 12-08-2018 04:05:00 10.4 C 84 % 7.82 C
915 12-08-2018 04:10:00 10.4 C 84 % 7.82 C
916 12-08-2018 04:15:00 10.4 C 84 % 7.82 C
917 12-08-2018 04:20:00 10.3 C 84 % 7.72 C
918 12-08-2018 04:25:00 10.3 C 85 % 7.89 C
919 12-08-2018 04:30:00 10.2 C 85 % 7.79 C
920 12-08-2018 04:35:00 10.2 C 85 % 7.79 C
921 12-08-2018 04:40:00 10.1 C 85 % 7.7 C
922 12-08-2018 04:45:00 10.1 C 85 % 7.7 C
923 12-08-2018 04:50:00 10.1 C 85 % 7.7 C
924 12-08-2018 04:55:00 10 C 86 % 7.77 C
925 12-08-2018 05:00:00 9.9 C 86 % 7.67 C
Sensor: Nr:Datum:Temp:Feuchte:Taupunkt:
Aussen-T/F 926 12-08-2018 05:05:00 9.9 C 86 % 7.67 C
927 12-08-2018 05:10:00 9.9 C 86 % 7.67 C
928 12-08-2018 05:15:00 9.8 C 86 % 7.57 C
929 12-08-2018 05:20:00 9.8 C 86 % 7.57 C
930 12-08-2018 05:25:00 9.8 C 86 % 7.57 C
931 12-08-2018 05:30:00 9.7 C 86 % 7.47 C
932 12-08-2018 05:35:00 9.7 C 86 % 7.47 C
933 12-08-2018 05:40:00 9.6 C 86 % 7.38 C
934 12-08-2018 05:45:00 9.6 C 87 % 7.55 C
935 12-08-2018 05:50:00 9.6 C 87 % 7.55 C
936 12-08-2018 05:55:00 9.5 C 87 % 7.45 C
937 12-08-2018 06:00:00 9.4 C 87 % 7.35 C
938 12-08-2018 06:05:00 9.3 C 87 % 7.25 C
939 12-08-2018 06:10:00 9.3 C 87 % 7.25 C
940 12-08-2018 06:15:00 9.3 C 88 % 7.42 C
941 12-08-2018 06:20:00 9.2 C 88 % 7.32 C
942 12-08-2018 06:25:00 9.3 C 88 % 7.42 C
943 12-08-2018 06:30:00 9.3 C 88 % 7.42 C
944 12-08-2018 06:35:00 9.2 C 88 % 7.32 C
945 12-08-2018 06:40:00 9.3 C 88 % 7.42 C
946 12-08-2018 06:45:00 9.3 C 88 % 7.42 C
947 12-08-2018 06:50:00 9.3 C 89 % 7.58 C
948 12-08-2018 06:55:00 9.3 C 89 % 7.58 C
949 12-08-2018 07:00:00 9.4 C 89 % 7.68 C
950 12-08-2018 07:05:00 9.5 C 89 % 7.78 C
Sensor: Nr:Datum:Temp:Feuchte:Taupunkt:
Aussen-T/F 951 12-08-2018 07:10:00 9.5 C 89 % 7.78 C
952 12-08-2018 07:15:00 9.6 C 89 % 7.88 C
953 12-08-2018 07:20:00 9.6 C 89 % 7.88 C
954 12-08-2018 07:25:00 9.7 C 89 % 7.98 C
955 12-08-2018 07:30:00 9.8 C 89 % 8.08 C
956 12-08-2018 07:35:00 9.8 C 89 % 8.08 C
957 12-08-2018 07:40:00 9.9 C 89 % 8.17 C
958 12-08-2018 07:45:00 10.1 C 89 % 8.37 C
959 12-08-2018 07:50:00 10.2 C 89 % 8.47 C
960 12-08-2018 07:55:00 10.4 C 89 % 8.67 C
961 12-08-2018 08:00:00 10.5 C 89 % 8.77 C
962 12-08-2018 08:05:00 10.6 C 89 % 8.86 C
963 12-08-2018 08:10:00 10.7 C 89 % 8.96 C
964 12-08-2018 08:15:00 10.8 C 88 % 8.89 C
965 12-08-2018 08:20:00 10.8 C 88 % 8.89 C
966 12-08-2018 08:25:00 10.8 C 88 % 8.89 C
967 12-08-2018 08:30:00 10.9 C 88 % 8.99 C
968 12-08-2018 08:35:00 10.9 C 88 % 8.99 C
969 12-08-2018 08:40:00 10.9 C 87 % 8.82 C
970 12-08-2018 08:45:00 10.9 C 87 % 8.82 C
971 12-08-2018 08:50:00 10.9 C 87 % 8.82 C
972 12-08-2018 08:55:00 11 C 87 % 8.92 C
973 12-08-2018 09:00:00 11.1 C 87 % 9.02 C
974 12-08-2018 09:05:00 11.1 C 87 % 9.02 C
975 12-08-2018 09:10:00 11.2 C 88 % 9.29 C
Sensor: Nr:Datum:Temp:Feuchte:Taupunkt:
Aussen-T/F 976 12-08-2018 09:15:00 11.3 C 88 % 9.39 C
977 12-08-2018 09:20:00 11.3 C 88 % 9.39 C
978 12-08-2018 09:25:00 11.4 C 87 % 9.32 C
979 12-08-2018 09:30:00 11.6 C 87 % 9.51 C
980 12-08-2018 09:35:00 11.7 C 88 % 9.78 C
981 12-08-2018 09:40:00 11.8 C 88 % 9.88 C
982 12-08-2018 09:45:00 12 C 88 % 10.08 C
983 12-08-2018 09:50:00 12.2 C 87 % 10.1 C
984 12-08-2018 09:55:00 12.3 C 86 % 10.03 C
985 12-08-2018 10:00:00 12.6 C 85 % 10.15 C
986 12-08-2018 10:05:00 12.8 C 85 % 10.34 C
987 12-08-2018 10:10:00 13.3 C 84 % 10.66 C
988 12-08-2018 10:15:00 13.7 C 84 % 11.05 C
989 12-08-2018 10:20:00 14 C 83 % 11.16 C
990 12-08-2018 10:25:00 14.3 C 82 % 11.27 C
991 12-08-2018 10:30:00 14.7 C 79 % 11.1 C
992 12-08-2018 10:35:00 15.1 C 80 % 11.68 C
993 12-08-2018 10:40:00 15.4 C 78 % 11.59 C
994 12-08-2018 10:45:00 15.8 C 79 % 12.17 C
995 12-08-2018 10:50:00 16.1 C 77 % 12.07 C
996 12-08-2018 10:55:00 16.4 C 76 % 12.16 C
997 12-08-2018 11:00:00 16.7 C 75 % 12.25 C
998 12-08-2018 11:05:00 16.9 C 73 % 12.03 C
999 12-08-2018 11:10:00 17.2 C 70 % 11.68 C
1000 12-08-2018 11:15:00 17.6 C 69 % 11.85 C
Sensor: Nr:Datum:Temp:Feuchte:Taupunkt:
Aussen-T/F 1001 12-08-2018 11:20:00 18.1 C 70 % 12.55 C
1002 12-08-2018 11:25:00 18.4 C 66 % 11.94 C
1003 12-08-2018 11:30:00 18.9 C 64 % 11.95 C
1004 12-08-2018 11:35:00 19.2 C 61 % 11.5 C
1005 12-08-2018 11:40:00 19.5 C 61 % 11.78 C
1006 12-08-2018 11:45:00 19.8 C 57 % 11.04 C
1007 12-08-2018 11:50:00 20.1 C 58 % 11.58 C
1008 12-08-2018 11:55:00 20.4 C 57 % 11.6 C
1009 12-08-2018 12:00:00 20.8 C 55 % 11.43 C
1010 12-08-2018 12:05:00 21.1 C 54 % 11.44 C
1011 12-08-2018 12:10:00 21.4 C 53 % 11.43 C
1012 12-08-2018 12:15:00 21.7 C 52 % 11.42 C
1013 12-08-2018 12:20:00 21.8 C 50 % 10.92 C
1014 12-08-2018 12:25:00 22 C 51 % 11.4 C
1015 12-08-2018 12:30:00 22.2 C 49 % 10.98 C
1016 12-08-2018 12:35:00 22.4 C 49 % 11.17 C
1017 12-08-2018 12:40:00 22.6 C 48 % 11.04 C
1018 12-08-2018 12:45:00 22.7 C 47 % 10.81 C
1019 12-08-2018 12:50:00 22.8 C 47 % 10.91 C
1020 12-08-2018 12:55:00 22.9 C 46 % 10.67 C
1021 12-08-2018 13:00:00 22.9 C 44 % 10.01 C
1022 12-08-2018 13:05:00 23.1 C 44 % 10.19 C
1023 12-08-2018 13:10:00 23.3 C 43 % 10.03 C
1024 12-08-2018 13:15:00 23.6 C 43 % 10.3 C
1025 12-08-2018 13:20:00 23.8 C 41 % 9.76 C
Sensor: Nr:Datum:Temp:Feuchte:Taupunkt:
Aussen-T/F 1026 12-08-2018 13:25:00 23.9 C 41 % 9.85 C
1027 12-08-2018 13:30:00 24.1 C 42 % 10.39 C
1028 12-08-2018 13:35:00 24.1 C 41 % 10.03 C
1029 12-08-2018 13:40:00 24.3 C 40 % 9.84 C
1030 12-08-2018 13:45:00 24.3 C 39 % 9.47 C
1031 12-08-2018 13:50:00 24.4 C 39 % 9.56 C
1032 12-08-2018 13:55:00 24.6 C 39 % 9.73 C
1033 12-08-2018 14:00:00 24.7 C 39 % 9.82 C
1034 12-08-2018 14:05:00 24.7 C 38 % 9.44 C
1035 12-08-2018 14:10:00 24.8 C 38 % 9.53 C
1036 12-08-2018 14:15:00 25 C 37 % 9.31 C
1037 12-08-2018 14:20:00 25.1 C 37 % 9.39 C
1038 12-08-2018 14:25:00 25.1 C 37 % 9.39 C
1039 12-08-2018 14:30:00 25.3 C 37 % 9.57 C
1040 12-08-2018 14:35:00 25.3 C 37 % 9.57 C
1041 12-08-2018 14:40:00 25.4 C 37 % 9.66 C
1042 12-08-2018 14:45:00 25.7 C 36 % 9.52 C
1043 12-08-2018 14:50:00 25.9 C 34 % 8.85 C
1044 12-08-2018 14:55:00 26.1 C 34 % 9.02 C
1045 12-08-2018 15:00:00 26.2 C 33 % 8.67 C
1046 12-08-2018 15:05:00 26.3 C 33 % 8.75 C
1047 12-08-2018 15:10:00 26.4 C 32 % 8.39 C
1048 12-08-2018 15:15:00 26.8 C 32 % 8.73 C
1049 12-08-2018 15:20:00 26.9 C 33 % 9.28 C
1050 12-08-2018 15:25:00 27.2 C 32 % 9.08 C
Sensor: Nr:Datum:Temp:Feuchte:Taupunkt:
Aussen-T/F 1051 12-08-2018 15:30:00 27.4 C 31 % 8.78 C
1052 12-08-2018 15:35:00 27.6 C 29 % 7.97 C
1053 12-08-2018 15:40:00 27.7 C 30 % 8.56 C
1054 12-08-2018 15:45:00 27.9 C 30 % 8.73 C
1055 12-08-2018 15:50:00 28.2 C 32 % 9.95 C
1056 12-08-2018 15:55:00 28.5 C 30 % 9.25 C
1057 12-08-2018 16:00:00 28.8 C 29 % 9 C
1058 12-08-2018 16:05:00 29.1 C 29 % 9.26 C
1059 12-08-2018 16:10:00 29.1 C 30 % 9.76 C
1060 12-08-2018 16:15:00 29.2 C 30 % 9.85 C
1061 12-08-2018 16:20:00 29.3 C 29 % 9.43 C
1062 12-08-2018 16:25:00 29.3 C 29 % 9.43 C
1063 12-08-2018 16:30:00 29.4 C 32 % 10.99 C
1064 12-08-2018 16:35:00 29.7 C 30 % 10.28 C
1065 12-08-2018 16:40:00 29.8 C 28 % 9.34 C
1066 12-08-2018 16:45:00 29.7 C 29 % 9.77 C
1067 12-08-2018 16:50:00 29.4 C 29 % 9.52 C
1068 12-08-2018 16:55:00 29.2 C 30 % 9.85 C
1069 12-08-2018 17:00:00 29.2 C 31 % 10.34 C
1070 12-08-2018 17:05:00 29.4 C 30 % 10.02 C
1071 12-08-2018 17:10:00 29.6 C 30 % 10.19 C
1072 12-08-2018 17:15:00 29.5 C 28 % 9.08 C
1073 12-08-2018 17:20:00 29.4 C 30 % 10.02 C
1074 12-08-2018 17:25:00 29.4 C 28 % 9 C
1075 12-08-2018 17:30:00 29.3 C 29 % 9.43 C
Sensor: Nr:Datum:Temp:Feuchte:Taupunkt:
Aussen-T/F 1076 12-08-2018 17:35:00 29.5 C 29 % 9.6 C
1077 12-08-2018 17:40:00 29.7 C 31 % 10.77 C
1078 12-08-2018 17:45:00 29.6 C 30 % 10.19 C
1079 12-08-2018 17:50:00 29.4 C 30 % 10.02 C
1080 12-08-2018 17:55:00 29.1 C 30 % 9.76 C
1081 12-08-2018 18:00:00 28.9 C 31 % 10.08 C
1082 12-08-2018 18:05:00 28.9 C 32 % 10.55 C
1083 12-08-2018 18:10:00 29 C 29 % 9.17 C
1084 12-08-2018 18:15:00 29 C 35 % 11.99 C
1085 12-08-2018 18:20:00 28.8 C 32 % 10.47 C
1086 12-08-2018 18:25:00 28.5 C 30 % 9.25 C
1087 12-08-2018 18:30:00 28.3 C 40 % 13.41 C
1088 12-08-2018 18:35:00 28.2 C 33 % 10.41 C
1089 12-08-2018 18:40:00 28 C 38 % 12.36 C
1090 12-08-2018 18:45:00 27.8 C 40 % 12.97 C
1091 12-08-2018 18:50:00 27.7 C 43 % 13.99 C
1092 12-08-2018 18:55:00 27.6 C 43 % 13.9 C
1093 12-08-2018 19:00:00 27.4 C 42 % 13.35 C
1094 12-08-2018 19:05:00 27.2 C 45 % 14.24 C
1095 12-08-2018 19:10:00 27.2 C 46 % 14.58 C
1096 12-08-2018 19:15:00 27.4 C 44 % 14.07 C
1097 12-08-2018 19:20:00 27.4 C 44 % 14.07 C
1098 12-08-2018 19:25:00 27.3 C 42 % 13.27 C
1099 12-08-2018 19:30:00 26.9 C 43 % 13.27 C
1100 12-08-2018 19:35:00 26.6 C 43 % 13 C
Sensor: Nr:Datum:Temp:Feuchte:Taupunkt:
Aussen-T/F 1101 12-08-2018 19:40:00 26.3 C 43 % 12.73 C
1102 12-08-2018 19:45:00 25.9 C 44 % 12.72 C
1103 12-08-2018 19:50:00 25.5 C 42 % 11.65 C
1104 12-08-2018 19:55:00 25.2 C 45 % 12.43 C
1105 12-08-2018 20:00:00 24.9 C 44 % 11.81 C
1106 12-08-2018 20:05:00 24.7 C 46 % 12.31 C
1107 12-08-2018 20:10:00 24.7 C 47 % 12.64 C
1108 12-08-2018 20:15:00 24.6 C 47 % 12.54 C
1109 12-08-2018 20:20:00 24.6 C 47 % 12.54 C
1110 12-08-2018 20:25:00 24.5 C 47 % 12.45 C
1111 12-08-2018 20:30:00 24.4 C 47 % 12.36 C
1112 12-08-2018 20:35:00 24.2 C 47 % 12.18 C
1113 12-08-2018 20:40:00 23.9 C 46 % 11.58 C
1114 12-08-2018 20:45:00 23.7 C 47 % 11.73 C
1115 12-08-2018 20:50:00 23.3 C 46 % 11.04 C
1116 12-08-2018 20:55:00 23.1 C 47 % 11.18 C
1117 12-08-2018 21:00:00 22.8 C 48 % 11.22 C
1118 12-08-2018 21:05:00 22.4 C 48 % 10.86 C
1119 12-08-2018 21:10:00 22.2 C 50 % 11.29 C
1120 12-08-2018 21:15:00 21.9 C 51 % 11.31 C
1121 12-08-2018 21:20:00 21.6 C 53 % 11.62 C
1122 12-08-2018 21:25:00 21.3 C 53 % 11.34 C
1123 12-08-2018 21:30:00 21.1 C 55 % 11.71 C
1124 12-08-2018 21:35:00 20.7 C 55 % 11.34 C
1125 12-08-2018 21:40:00 20.4 C 57 % 11.6 C
Sensor: Nr:Datum:Temp:Feuchte:Taupunkt:
Aussen-T/F 1126 12-08-2018 21:45:00 19.9 C 59 % 11.66 C
1127 12-08-2018 21:50:00 19.7 C 59 % 11.47 C
1128 12-08-2018 21:55:00 19.3 C 60 % 11.35 C
1129 12-08-2018 22:00:00 19.1 C 60 % 11.16 C
1130 12-08-2018 22:05:00 18.9 C 62 % 11.47 C
1131 12-08-2018 22:10:00 18.8 C 61 % 11.13 C
1132 12-08-2018 22:15:00 18.7 C 60 % 10.78 C
1133 12-08-2018 22:20:00 18.5 C 62 % 11.09 C
1134 12-08-2018 22:25:00 18.3 C 63 % 11.14 C
1135 12-08-2018 22:30:00 18.1 C 63 % 10.95 C
1136 12-08-2018 22:35:00 17.9 C 65 % 11.23 C
1137 12-08-2018 22:40:00 17.8 C 65 % 11.14 C
1138 12-08-2018 22:45:00 17.7 C 65 % 11.04 C
1139 12-08-2018 22:50:00 17.6 C 65 % 10.95 C
1140 12-08-2018 22:55:00 17.6 C 63 % 10.48 C
1141 12-08-2018 23:00:00 17.6 C 65 % 10.95 C
1142 12-08-2018 23:05:00 17.6 C 66 % 11.18 C
1143 12-08-2018 23:10:00 17.4 C 66 % 10.99 C
1144 12-08-2018 23:15:00 17.4 C 64 % 10.53 C
1145 12-08-2018 23:20:00 17.4 C 66 % 10.99 C
1146 12-08-2018 23:25:00 17.3 C 67 % 11.12 C
1147 12-08-2018 23:30:00 17.1 C 67 % 10.93 C
1148 12-08-2018 23:35:00 16.9 C 67 % 10.74 C
1149 12-08-2018 23:40:00 16.8 C 68 % 10.87 C
1150 12-08-2018 23:45:00 16.8 C 69 % 11.09 C
Sensor: Nr:Datum:Temp:Feuchte:Taupunkt:
Aussen-T/F 1151 12-08-2018 23:50:00 16.6 C 70 % 11.11 C
1152 12-08-2018 23:55:00 16.4 C 71 % 11.13 C
1153 13-08-2018 00:00:00 16.3 C 72 % 11.25 C
1154 13-08-2018 00:05:00 16.1 C 72 % 11.06 C
1155 13-08-2018 00:10:00 16 C 73 % 11.17 C
1156 13-08-2018 00:15:00 15.8 C 73 % 10.97 C
1157 13-08-2018 00:20:00 15.7 C 72 % 10.67 C
1158 13-08-2018 00:25:00 15.7 C 74 % 11.08 C
1159 13-08-2018 00:30:00 15.6 C 74 % 10.99 C
1160 13-08-2018 00:35:00 15.5 C 74 % 10.89 C
1161 13-08-2018 00:40:00 15.4 C 74 % 10.79 C
1162 13-08-2018 00:45:00 15.3 C 75 % 10.9 C
1163 13-08-2018 00:50:00 15.3 C 74 % 10.7 C
1164 13-08-2018 00:55:00 15.3 C 74 % 10.7 C
1165 13-08-2018 01:00:00 15.3 C 74 % 10.7 C
1166 13-08-2018 01:05:00 15.2 C 74 % 10.6 C
1167 13-08-2018 01:10:00 15.3 C 74 % 10.7 C
1168 13-08-2018 01:15:00 15.3 C 74 % 10.7 C
1169 13-08-2018 01:20:00 15.2 C 74 % 10.6 C
1170 13-08-2018 01:25:00 15.2 C 75 % 10.8 C
1171 13-08-2018 01:30:00 15.1 C 75 % 10.71 C
1172 13-08-2018 01:35:00 15 C 75 % 10.61 C
1173 13-08-2018 01:40:00 14.9 C 76 % 10.71 C
1174 13-08-2018 01:45:00 14.8 C 76 % 10.61 C
1175 13-08-2018 01:50:00 14.7 C 76 % 10.52 C
Sensor: Nr:Datum:Temp:Feuchte:Taupunkt:
Aussen-T/F 1176 13-08-2018 01:55:00 14.7 C 77 % 10.71 C
1177 13-08-2018 02:00:00 14.6 C 77 % 10.62 C
1178 13-08-2018 02:05:00 14.5 C 77 % 10.52 C
1179 13-08-2018 02:10:00 14.4 C 78 % 10.62 C
1180 13-08-2018 02:15:00 14.3 C 78 % 10.52 C
1181 13-08-2018 02:20:00 14.2 C 78 % 10.42 C
1182 13-08-2018 02:25:00 14.2 C 78 % 10.42 C
1183 13-08-2018 02:30:00 14.2 C 78 % 10.42 C
1184 13-08-2018 02:35:00 14.2 C 79 % 10.61 C
1185 13-08-2018 02:40:00 14.3 C 80 % 10.9 C
1186 13-08-2018 02:45:00 14.3 C 79 % 10.71 C
1187 13-08-2018 02:50:00 14.3 C 79 % 10.71 C
1188 13-08-2018 02:55:00 14.3 C 79 % 10.71 C
1189 13-08-2018 03:00:00 14.3 C 79 % 10.71 C
1190 13-08-2018 03:05:00 14.2 C 79 % 10.61 C
1191 13-08-2018 03:10:00 14.2 C 79 % 10.61 C
1192 13-08-2018 03:15:00 14.1 C 79 % 10.52 C
1193 13-08-2018 03:20:00 14.1 C 80 % 10.71 C
1194 13-08-2018 03:25:00 14 C 80 % 10.61 C
1195 13-08-2018 03:30:00 14 C 80 % 10.61 C
1196 13-08-2018 03:35:00 14 C 80 % 10.61 C
1197 13-08-2018 03:40:00 13.9 C 80 % 10.51 C
1198 13-08-2018 03:45:00 13.8 C 80 % 10.41 C
1199 13-08-2018 03:50:00 13.8 C 80 % 10.41 C
1200 13-08-2018 03:55:00 13.7 C 80 % 10.32 C
Sensor: Nr:Datum:Temp:Feuchte:Taupunkt:
Aussen-T/F 1201 13-08-2018 04:00:00 13.6 C 81 % 10.4 C
1202 13-08-2018 04:05:00 13.6 C 81 % 10.4 C
1203 13-08-2018 04:10:00 13.6 C 81 % 10.4 C
1204 13-08-2018 04:15:00 13.5 C 82 % 10.49 C
1205 13-08-2018 04:20:00 13.5 C 81 % 10.31 C
1206 13-08-2018 04:25:00 13.5 C 82 % 10.49 C
1207 13-08-2018 04:30:00 13.5 C 82 % 10.49 C
1208 13-08-2018 04:35:00 13.4 C 82 % 10.39 C
1209 13-08-2018 04:40:00 13.4 C 82 % 10.39 C
1210 13-08-2018 04:45:00 13.4 C 82 % 10.39 C
1211 13-08-2018 04:50:00 13.3 C 82 % 10.3 C
1212 13-08-2018 04:55:00 13.3 C 82 % 10.3 C
1213 13-08-2018 05:00:00 13.2 C 82 % 10.2 C
1214 13-08-2018 05:05:00 13.2 C 82 % 10.2 C
1215 13-08-2018 05:10:00 13.2 C 83 % 10.38 C
1216 13-08-2018 05:15:00 13.2 C 83 % 10.38 C
1217 13-08-2018 05:20:00 13.2 C 84 % 10.56 C
1218 13-08-2018 05:25:00 13.2 C 84 % 10.56 C
1219 13-08-2018 05:30:00 13.2 C 84 % 10.56 C
1220 13-08-2018 05:35:00 13.1 C 83 % 10.28 C
1221 13-08-2018 05:40:00 13.2 C 84 % 10.56 C
1222 13-08-2018 05:45:00 13.3 C 85 % 10.83 C
1223 13-08-2018 05:50:00 13.4 C 84 % 10.75 C
1224 13-08-2018 05:55:00 13.6 C 84 % 10.95 C
1225 13-08-2018 06:00:00 13.8 C 84 % 11.15 C
Sensor: Nr:Datum:Temp:Feuchte:Taupunkt:
Aussen-T/F 1226 13-08-2018 06:05:00 14.1 C 85 % 11.62 C
1227 13-08-2018 06:10:00 14.2 C 86 % 11.89 C
1228 13-08-2018 06:15:00 14.2 C 86 % 11.89 C
1229 13-08-2018 06:20:00 14.3 C 87 % 12.17 C
1230 13-08-2018 06:25:00 14.3 C 87 % 12.17 C
1231 13-08-2018 06:30:00 14.3 C 88 % 12.34 C
1232 13-08-2018 06:35:00 14.3 C 88 % 12.34 C
1233 13-08-2018 06:40:00 14.3 C 89 % 12.51 C
1234 13-08-2018 06:45:00 14.3 C 89 % 12.51 C
1235 13-08-2018 06:50:00 14.4 C 90 % 12.78 C
1236 13-08-2018 06:55:00 14.5 C 90 % 12.88 C
1237 13-08-2018 07:00:00 14.5 C 90 % 12.88 C
1238 13-08-2018 07:05:00 14.6 C 90 % 12.98 C
1239 13-08-2018 07:10:00 14.6 C 90 % 12.98 C
1240 13-08-2018 07:15:00 14.6 C 90 % 12.98 C
1241 13-08-2018 07:20:00 14.7 C 91 % 13.25 C
1242 13-08-2018 07:25:00 14.7 C 91 % 13.25 C
1243 13-08-2018 07:30:00 14.4 C 90 % 12.78 C
1244 13-08-2018 07:35:00 14.3 C 90 % 12.68 C
1245 13-08-2018 07:40:00 14.3 C 91 % 12.85 C
1246 13-08-2018 07:45:00 14.4 C 91 % 12.95 C
1247 13-08-2018 07:50:00 14.4 C 91 % 12.95 C
1248 13-08-2018 07:55:00 14.5 C 91 % 13.05 C
1249 13-08-2018 08:00:00 14.6 C 92 % 13.32 C
1250 13-08-2018 08:05:00 14.6 C 92 % 13.32 C
Sensor: Nr:Datum:Temp:Feuchte:Taupunkt:
Aussen-T/F 1251 13-08-2018 08:10:00 14.6 C 92 % 13.32 C
1252 13-08-2018 08:15:00 14.6 C 92 % 13.32 C
1253 13-08-2018 08:20:00 14.6 C 92 % 13.32 C
1254 13-08-2018 08:25:00 14.7 C 93 % 13.58 C
1255 13-08-2018 08:30:00 14.7 C 93 % 13.58 C
1256 13-08-2018 08:35:00 14.8 C 93 % 13.68 C
1257 13-08-2018 08:40:00 14.8 C 93 % 13.68 C
1258 13-08-2018 08:45:00 14.8 C 93 % 13.68 C
1259 13-08-2018 08:50:00 14.8 C 93 % 13.68 C
1260 13-08-2018 08:55:00 14.8 C 93 % 13.68 C
1261 13-08-2018 09:00:00 15 C 93 % 13.88 C
1262 13-08-2018 09:05:00 15.1 C 94 % 14.14 C
1263 13-08-2018 09:10:00 15.1 C 93 % 13.98 C
1264 13-08-2018 09:15:00 15.1 C 93 % 13.98 C
1265 13-08-2018 09:20:00 15.2 C 93 % 14.08 C
1266 13-08-2018 09:25:00 15.2 C 94 % 14.24 C
1267 13-08-2018 09:30:00 15.3 C 94 % 14.34 C
1268 13-08-2018 09:35:00 15.3 C 94 % 14.34 C
1269 13-08-2018 09:40:00 15.4 C 94 % 14.44 C
1270 13-08-2018 09:45:00 15.5 C 94 % 14.54 C
1271 13-08-2018 09:50:00 15.6 C 94 % 14.64 C
1272 13-08-2018 09:55:00 15.6 C 94 % 14.64 C
1273 13-08-2018 10:00:00 15.7 C 94 % 14.74 C
1274 13-08-2018 10:05:00 15.8 C 94 % 14.84 C
1275 13-08-2018 10:10:00 15.9 C 94 % 14.94 C
Sensor: Nr:Datum:Temp:Feuchte:Taupunkt:
Aussen-T/F 1276 13-08-2018 10:15:00 16 C 94 % 15.03 C
1277 13-08-2018 10:20:00 16.1 C 94 % 15.13 C
1278 13-08-2018 10:25:00 16.2 C 94 % 15.23 C
1279 13-08-2018 10:30:00 16.3 C 94 % 15.33 C
1280 13-08-2018 10:35:00 16.3 C 94 % 15.33 C
1281 13-08-2018 10:40:00 16.4 C 94 % 15.43 C
1282 13-08-2018 10:45:00 16.4 C 94 % 15.43 C
1283 13-08-2018 10:50:00 16.4 C 94 % 15.43 C
1284 13-08-2018 10:55:00 16.5 C 94 % 15.53 C
1285 13-08-2018 11:00:00 16.6 C 94 % 15.63 C
1286 13-08-2018 11:05:00 16.6 C 94 % 15.63 C
1287 13-08-2018 11:10:00 16.7 C 94 % 15.73 C
1288 13-08-2018 11:15:00 16.8 C 95 % 15.99 C
1289 13-08-2018 11:20:00 16.9 C 95 % 16.09 C
1290 13-08-2018 11:25:00 17 C 94 % 16.03 C
1291 13-08-2018 11:30:00 17.2 C 95 % 16.39 C
1292 13-08-2018 11:35:00 17.3 C 95 % 16.49 C
1293 13-08-2018 11:40:00 17.4 C 95 % 16.59 C
1294 13-08-2018 11:45:00 17.6 C 95 % 16.79 C
1295 13-08-2018 11:50:00 17.8 C 95 % 16.99 C
1296 13-08-2018 11:55:00 18 C 95 % 17.19 C
1297 13-08-2018 12:00:00 18.2 C 95 % 17.39 C
1298 13-08-2018 12:05:00 18.3 C 95 % 17.48 C
1299 13-08-2018 12:10:00 18.6 C 94 % 17.62 C
1300 13-08-2018 12:15:00 18.8 C 95 % 17.98 C
Sensor: Nr:Datum:Temp:Feuchte:Taupunkt:
Aussen-T/F 1301 13-08-2018 12:20:00 18.9 C 94 % 17.91 C
1302 13-08-2018 12:25:00 19.1 C 94 % 18.11 C
1303 13-08-2018 12:30:00 19.3 C 94 % 18.31 C
1304 13-08-2018 12:35:00 19.6 C 94 % 18.61 C
1305 13-08-2018 12:40:00 19.6 C 94 % 18.61 C
1306 13-08-2018 12:45:00 19.6 C 93 % 18.44 C
1307 13-08-2018 12:50:00 19.8 C 93 % 18.63 C
1308 13-08-2018 12:55:00 19.9 C 93 % 18.73 C
1309 13-08-2018 13:00:00 19.9 C 93 % 18.73 C
1310 13-08-2018 13:05:00 19.9 C 92 % 18.56 C
1311 13-08-2018 13:10:00 19.9 C 92 % 18.56 C
1312 13-08-2018 13:15:00 19.9 C 92 % 18.56 C
1313 13-08-2018 13:20:00 19.9 C 92 % 18.56 C
1314 13-08-2018 13:25:00 19.9 C 91 % 18.39 C
1315 13-08-2018 13:30:00 20.1 C 91 % 18.58 C
1316 13-08-2018 13:35:00 20 C 88 % 17.95 C
1317 13-08-2018 13:40:00 20.2 C 89 % 18.33 C
1318 13-08-2018 13:45:00 20.3 C 89 % 18.43 C
1319 13-08-2018 13:50:00 20.4 C 88 % 18.34 C
1320 13-08-2018 13:55:00 20.7 C 87 % 18.46 C
1321 13-08-2018 14:00:00 21 C 87 % 18.75 C
1322 13-08-2018 14:05:00 21.3 C 85 % 18.67 C
1323 13-08-2018 14:10:00 21.6 C 83 % 18.59 C
1324 13-08-2018 14:15:00 21.8 C 81 % 18.39 C
1325 13-08-2018 14:20:00 22.1 C 82 % 18.88 C
Sensor: Nr:Datum:Temp:Feuchte:Taupunkt:
Aussen-T/F 1326 13-08-2018 14:25:00 22.3 C 80 % 18.68 C
1327 13-08-2018 14:30:00 22.5 C 74 % 17.63 C
1328 13-08-2018 14:35:00 22.6 C 78 % 18.57 C
1329 13-08-2018 14:40:00 22.7 C 74 % 17.83 C
1330 13-08-2018 14:45:00 22.8 C 76 % 18.35 C
1331 13-08-2018 14:50:00 22.9 C 74 % 18.02 C
1332 13-08-2018 14:55:00 23.1 C 69 % 17.1 C
1333 13-08-2018 15:00:00 23.2 C 67 % 16.73 C
1334 13-08-2018 15:05:00 23.4 C 69 % 17.39 C
1335 13-08-2018 15:10:00 23.4 C 66 % 16.69 C
1336 13-08-2018 15:15:00 23.4 C 65 % 16.45 C
1337 13-08-2018 15:20:00 23.3 C 67 % 16.83 C
1338 13-08-2018 15:25:00 23.5 C 66 % 16.78 C
1339 13-08-2018 15:30:00 23.5 C 67 % 17.02 C
1340 13-08-2018 15:35:00 23.8 C 66 % 17.07 C
1341 13-08-2018 15:40:00 24.1 C 62 % 16.37 C
1342 13-08-2018 15:45:00 24.2 C 63 % 16.71 C
1343 13-08-2018 15:50:00 24.4 C 62 % 16.65 C
1344 13-08-2018 15:55:00 24.7 C 61 % 16.67 C
1345 13-08-2018 16:00:00 25 C 61 % 16.96 C
1346 13-08-2018 16:05:00 25 C 59 % 16.43 C
1347 13-08-2018 16:10:00 24.7 C 61 % 16.67 C
1348 13-08-2018 16:15:00 24.5 C 62 % 16.74 C
1349 13-08-2018 16:20:00 24.6 C 61 % 16.58 C
1350 13-08-2018 16:25:00 24.4 C 61 % 16.39 C
Sensor: Nr:Datum:Temp:Feuchte:Taupunkt:
Aussen-T/F 1351 13-08-2018 16:30:00 24.4 C 63 % 16.9 C
1352 13-08-2018 16:35:00 24.9 C 59 % 16.34 C
1353 13-08-2018 16:40:00 24.9 C 58 % 16.07 C
1354 13-08-2018 16:45:00 24.7 C 59 % 16.15 C
1355 13-08-2018 16:50:00 25 C 59 % 16.43 C
1356 13-08-2018 16:55:00 25.3 C 58 % 16.44 C
1357 13-08-2018 17:00:00 25.4 C 58 % 16.54 C
1358 13-08-2018 17:05:00 25.6 C 61 % 17.52 C
1359 13-08-2018 17:10:00 25.6 C 54 % 15.6 C
1360 13-08-2018 17:15:00 25.4 C 57 % 16.26 C
1361 13-08-2018 17:20:00 25.7 C 56 % 16.26 C
1362 13-08-2018 17:25:00 25.8 C 56 % 16.36 C
1363 13-08-2018 17:30:00 25.6 C 55 % 15.89 C
1364 13-08-2018 17:35:00 25.2 C 56 % 15.8 C
1365 13-08-2018 17:40:00 24.8 C 57 % 15.7 C
1366 13-08-2018 17:45:00 24.8 C 56 % 15.43 C
1367 13-08-2018 17:50:00 25.1 C 56 % 15.71 C
1368 13-08-2018 17:55:00 25.2 C 56 % 15.8 C
1369 13-08-2018 18:00:00 25.3 C 56 % 15.89 C
1370 13-08-2018 18:05:00 25.6 C 55 % 15.89 C
1371 13-08-2018 18:10:00 25.4 C 55 % 15.7 C
1372 13-08-2018 18:15:00 24.9 C 56 % 15.52 C
1373 13-08-2018 18:20:00 24.3 C 58 % 15.51 C
1374 13-08-2018 18:25:00 23.9 C 58 % 15.14 C
1375 13-08-2018 18:30:00 23.3 C 60 % 15.1 C
Sensor: Nr:Datum:Temp:Feuchte:Taupunkt:
Aussen-T/F 1376 13-08-2018 18:35:00 22.7 C 62 % 15.05 C
1377 13-08-2018 18:40:00 22.3 C 63 % 14.92 C
1378 13-08-2018 18:45:00 22 C 64 % 14.88 C
1379 13-08-2018 18:50:00 21.8 C 66 % 15.17 C
1380 13-08-2018 18:55:00 21.4 C 69 % 15.48 C
1381 13-08-2018 19:00:00 20.8 C 75 % 16.21 C
1382 13-08-2018 19:05:00 20.3 C 78 % 16.34 C
1383 13-08-2018 19:10:00 19.9 C 80 % 16.35 C
1384 13-08-2018 19:15:00 19.6 C 82 % 16.44 C
1385 13-08-2018 19:20:00 19.4 C 83 % 16.44 C
1386 13-08-2018 19:25:00 19.2 C 83 % 16.24 C
1387 13-08-2018 19:30:00 19.1 C 85 % 16.52 C
1388 13-08-2018 19:35:00 19.1 C 85 % 16.52 C
1389 13-08-2018 19:40:00 19.3 C 84 % 16.53 C
1390 13-08-2018 19:45:00 19.4 C 83 % 16.44 C
1391 13-08-2018 19:50:00 19.6 C 83 % 16.63 C
1392 13-08-2018 19:55:00 19.6 C 83 % 16.63 C
1393 13-08-2018 20:00:00 19.5 C 82 % 16.35 C
1394 13-08-2018 20:05:00 19.3 C 83 % 16.34 C
1395 13-08-2018 20:10:00 19.1 C 82 % 15.96 C
1396 13-08-2018 20:15:00 18.8 C 83 % 15.85 C
1397 13-08-2018 20:20:00 18.7 C 84 % 15.94 C
1398 13-08-2018 20:25:00 18.6 C 84 % 15.84 C
1399 13-08-2018 20:30:00 18.5 C 85 % 15.93 C
1400 13-08-2018 20:35:00 18.4 C 85 % 15.83 C
Sensor: Nr:Datum:Temp:Feuchte:Taupunkt:
Aussen-T/F 1401 13-08-2018 20:40:00 18.3 C 85 % 15.74 C
1402 13-08-2018 20:45:00 18.2 C 85 % 15.64 C
1403 13-08-2018 20:50:00 18.1 C 85 % 15.54 C
1404 13-08-2018 20:55:00 17.9 C 86 % 15.53 C
1405 13-08-2018 21:00:00 17.8 C 86 % 15.43 C
1406 13-08-2018 21:05:00 17.7 C 86 % 15.33 C
1407 13-08-2018 21:10:00 17.6 C 87 % 15.41 C
1408 13-08-2018 21:15:00 17.4 C 87 % 15.21 C
1409 13-08-2018 21:20:00 17.3 C 88 % 15.29 C
1410 13-08-2018 21:25:00 17.2 C 88 % 15.2 C
1411 13-08-2018 21:30:00 17.2 C 88 % 15.2 C
1412 13-08-2018 21:35:00 17.1 C 88 % 15.1 C
1413 13-08-2018 21:40:00 16.9 C 88 % 14.9 C
1414 13-08-2018 21:45:00 16.8 C 89 % 14.98 C
1415 13-08-2018 21:50:00 16.8 C 89 % 14.98 C
1416 13-08-2018 21:55:00 16.7 C 89 % 14.88 C
1417 13-08-2018 22:00:00 16.6 C 89 % 14.78 C
1418 13-08-2018 22:05:00 16.6 C 90 % 14.95 C
1419 13-08-2018 22:10:00 16.5 C 90 % 14.85 C
1420 13-08-2018 22:15:00 16.4 C 90 % 14.76 C
1421 13-08-2018 22:20:00 16.4 C 90 % 14.76 C
1422 13-08-2018 22:25:00 16.4 C 91 % 14.93 C
1423 13-08-2018 22:30:00 16.3 C 91 % 14.83 C
1424 13-08-2018 22:35:00 16.3 C 91 % 14.83 C
1425 13-08-2018 22:40:00 16.3 C 91 % 14.83 C
Sensor: Nr:Datum:Temp:Feuchte:Taupunkt:
Aussen-T/F 1426 13-08-2018 22:45:00 16.3 C 91 % 14.83 C
1427 13-08-2018 22:50:00 16.3 C 91 % 14.83 C
1428 13-08-2018 22:55:00 16.2 C 91 % 14.73 C
1429 13-08-2018 23:00:00 16.2 C 91 % 14.73 C
1430 13-08-2018 23:05:00 16.1 C 92 % 14.8 C
1431 13-08-2018 23:10:00 16.1 C 92 % 14.8 C
1432 13-08-2018 23:15:00 16.1 C 92 % 14.8 C
1433 13-08-2018 23:20:00 16 C 92 % 14.7 C
1434 13-08-2018 23:25:00 16 C 92 % 14.7 C
1435 13-08-2018 23:30:00 15.9 C 92 % 14.6 C
1436 13-08-2018 23:35:00 15.9 C 92 % 14.6 C
1437 13-08-2018 23:40:00 15.9 C 92 % 14.6 C
1438 13-08-2018 23:45:00 15.9 C 92 % 14.6 C
1439 13-08-2018 23:50:00 15.8 C 92 % 14.5 C
1440 13-08-2018 23:55:00 15.8 C 92 % 14.5 C
1441 14-08-2018 00:00:00 15.8 C 92 % 14.5 C
1442 14-08-2018 00:05:00 15.8 C 93 % 14.67 C
1443 14-08-2018 00:10:00 15.8 C 93 % 14.67 C
1444 14-08-2018 00:15:00 15.8 C 93 % 14.67 C
1445 14-08-2018 00:20:00 15.9 C 93 % 14.77 C
1446 14-08-2018 00:25:00 15.9 C 93 % 14.77 C
1447 14-08-2018 00:30:00 15.9 C 93 % 14.77 C
1448 14-08-2018 00:35:00 15.9 C 93 % 14.77 C
1449 14-08-2018 00:40:00 15.9 C 93 % 14.77 C
1450 14-08-2018 00:45:00 16 C 93 % 14.87 C
Sensor: Nr:Datum:Temp:Feuchte:Taupunkt:
Aussen-T/F 1451 14-08-2018 00:50:00 16 C 93 % 14.87 C
1452 14-08-2018 00:55:00 16 C 93 % 14.87 C
1453 14-08-2018 01:00:00 15.9 C 93 % 14.77 C
1454 14-08-2018 01:05:00 15.9 C 93 % 14.77 C
1455 14-08-2018 01:10:00 15.9 C 93 % 14.77 C
1456 14-08-2018 01:15:00 15.9 C 93 % 14.77 C
1457 14-08-2018 01:20:00 16 C 94 % 15.03 C
1458 14-08-2018 01:25:00 16.1 C 94 % 15.13 C
1459 14-08-2018 01:30:00 16.1 C 94 % 15.13 C
1460 14-08-2018 01:35:00 16.2 C 94 % 15.23 C
1461 14-08-2018 01:40:00 16.2 C 94 % 15.23 C
1462 14-08-2018 01:45:00 16.2 C 94 % 15.23 C
1463 14-08-2018 01:50:00 16.3 C 94 % 15.33 C
1464 14-08-2018 01:55:00 16.3 C 94 % 15.33 C
1465 14-08-2018 02:00:00 16.3 C 94 % 15.33 C
1466 14-08-2018 02:05:00 16.3 C 94 % 15.33 C
1467 14-08-2018 02:10:00 16.3 C 94 % 15.33 C
1468 14-08-2018 02:15:00 16.3 C 93 % 15.17 C
1469 14-08-2018 02:20:00 16.3 C 93 % 15.17 C
1470 14-08-2018 02:25:00 16.2 C 93 % 15.07 C
1471 14-08-2018 02:30:00 16.2 C 93 % 15.07 C
1472 14-08-2018 02:35:00 16.1 C 93 % 14.97 C
1473 14-08-2018 02:40:00 16.1 C 93 % 14.97 C
1474 14-08-2018 02:45:00 16 C 93 % 14.87 C
1475 14-08-2018 02:50:00 16 C 93 % 14.87 C
Sensor: Nr:Datum:Temp:Feuchte:Taupunkt:
Aussen-T/F 1476 14-08-2018 02:55:00 16.1 C 93 % 14.97 C
1477 14-08-2018 03:00:00 16.1 C 93 % 14.97 C
1478 14-08-2018 03:05:00 16.1 C 93 % 14.97 C
1479 14-08-2018 03:10:00 16.1 C 93 % 14.97 C
1480 14-08-2018 03:15:00 16.1 C 93 % 14.97 C
1481 14-08-2018 03:20:00 16.2 C 93 % 15.07 C
1482 14-08-2018 03:25:00 16.2 C 93 % 15.07 C
1483 14-08-2018 03:30:00 16.2 C 93 % 15.07 C
1484 14-08-2018 03:35:00 16.2 C 93 % 15.07 C
1485 14-08-2018 03:40:00 16.2 C 93 % 15.07 C
1486 14-08-2018 03:45:00 16.3 C 93 % 15.17 C
1487 14-08-2018 03:50:00 16.3 C 93 % 15.17 C
1488 14-08-2018 03:55:00 16.3 C 93 % 15.17 C
1489 14-08-2018 04:00:00 16.3 C 93 % 15.17 C
1490 14-08-2018 04:05:00 16.3 C 93 % 15.17 C
1491 14-08-2018 04:10:00 16.2 C 93 % 15.07 C
1492 14-08-2018 04:15:00 16.2 C 93 % 15.07 C
1493 14-08-2018 04:20:00 16.2 C 93 % 15.07 C
1494 14-08-2018 04:25:00 16.2 C 93 % 15.07 C
1495 14-08-2018 04:30:00 16.2 C 93 % 15.07 C
1496 14-08-2018 04:35:00 16.2 C 93 % 15.07 C
1497 14-08-2018 04:40:00 16.1 C 92 % 14.8 C
1498 14-08-2018 04:45:00 16.1 C 92 % 14.8 C
1499 14-08-2018 04:50:00 16.1 C 92 % 14.8 C
1500 14-08-2018 04:55:00 16.1 C 92 % 14.8 C
Sensor: Nr:Datum:Temp:Feuchte:Taupunkt:
Aussen-T/F 1501 14-08-2018 05:00:00 16.1 C 92 % 14.8 C
1502 14-08-2018 05:05:00 16.1 C 92 % 14.8 C
1503 14-08-2018 05:10:00 16.1 C 92 % 14.8 C
1504 14-08-2018 05:15:00 16 C 92 % 14.7 C
1505 14-08-2018 05:20:00 15.9 C 92 % 14.6 C
1506 14-08-2018 05:25:00 15.9 C 91 % 14.43 C
1507 14-08-2018 05:30:00 15.9 C 91 % 14.43 C
1508 14-08-2018 05:35:00 15.9 C 91 % 14.43 C
1509 14-08-2018 05:40:00 15.9 C 91 % 14.43 C
1510 14-08-2018 05:45:00 16 C 91 % 14.53 C
1511 14-08-2018 05:50:00 16.1 C 91 % 14.63 C
1512 14-08-2018 05:55:00 16.1 C 91 % 14.63 C
1513 14-08-2018 06:00:00 16.2 C 90 % 14.56 C
1514 14-08-2018 06:05:00 16.2 C 90 % 14.56 C
1515 14-08-2018 06:10:00 16.3 C 90 % 14.66 C
1516 14-08-2018 06:15:00 16.3 C 89 % 14.48 C
1517 14-08-2018 06:20:00 16.4 C 89 % 14.58 C
1518 14-08-2018 06:25:00 16.4 C 89 % 14.58 C
1519 14-08-2018 06:30:00 16.4 C 89 % 14.58 C
1520 14-08-2018 06:35:00 16.5 C 89 % 14.68 C
1521 14-08-2018 06:40:00 16.6 C 88 % 14.6 C
1522 14-08-2018 06:45:00 16.6 C 88 % 14.6 C
1523 14-08-2018 06:50:00 16.7 C 88 % 14.7 C
1524 14-08-2018 06:55:00 16.7 C 88 % 14.7 C
1525 14-08-2018 07:00:00 16.7 C 88 % 14.7 C
Sensor: Nr:Datum:Temp:Feuchte:Taupunkt:
Aussen-T/F 1526 14-08-2018 07:05:00 16.8 C 88 % 14.8 C
1527 14-08-2018 07:10:00 16.8 C 88 % 14.8 C
1528 14-08-2018 07:15:00 16.8 C 88 % 14.8 C
1529 14-08-2018 07:20:00 16.8 C 88 % 14.8 C
1530 14-08-2018 07:25:00 16.9 C 88 % 14.9 C
1531 14-08-2018 07:30:00 16.9 C 88 % 14.9 C
1532 14-08-2018 07:35:00 17 C 88 % 15 C
1533 14-08-2018 07:40:00 16.9 C 88 % 14.9 C
1534 14-08-2018 07:45:00 16.9 C 87 % 14.72 C
1535 14-08-2018 07:50:00 17 C 87 % 14.82 C
1536 14-08-2018 07:55:00 17.1 C 87 % 14.92 C
1537 14-08-2018 08:00:00 17.2 C 87 % 15.02 C
1538 14-08-2018 08:05:00 17.3 C 86 % 14.94 C
1539 14-08-2018 08:10:00 17.5 C 86 % 15.13 C
1540 14-08-2018 08:15:00 17.6 C 85 % 15.05 C
1541 14-08-2018 08:20:00 17.7 C 85 % 15.15 C
1542 14-08-2018 08:25:00 17.8 C 85 % 15.25 C
1543 14-08-2018 08:30:00 17.8 C 85 % 15.25 C
1544 14-08-2018 08:35:00 17.8 C 85 % 15.25 C
1545 14-08-2018 08:40:00 17.9 C 85 % 15.34 C
1546 14-08-2018 08:45:00 17.9 C 84 % 15.16 C
1547 14-08-2018 08:50:00 17.9 C 84 % 15.16 C
1548 14-08-2018 08:55:00 18 C 84 % 15.26 C
1549 14-08-2018 09:00:00 18.1 C 83 % 15.17 C
1550 14-08-2018 09:05:00 18.1 C 83 % 15.17 C
Sensor: Nr:Datum:Temp:Feuchte:Taupunkt:
Aussen-T/F 1551 14-08-2018 09:10:00 18.2 C 83 % 15.27 C
1552 14-08-2018 09:15:00 18.2 C 83 % 15.27 C
1553 14-08-2018 09:20:00 18.3 C 83 % 15.36 C
1554 14-08-2018 09:25:00 18.4 C 83 % 15.46 C
1555 14-08-2018 09:30:00 18.5 C 82 % 15.37 C
1556 14-08-2018 09:35:00 18.6 C 82 % 15.47 C
1557 14-08-2018 09:40:00 18.8 C 83 % 15.85 C
1558 14-08-2018 09:45:00 18.8 C 82 % 15.66 C
1559 14-08-2018 09:50:00 18.8 C 82 % 15.66 C
1560 14-08-2018 09:55:00 18.9 C 82 % 15.76 C
1561 14-08-2018 10:00:00 18.9 C 81 % 15.57 C
1562 14-08-2018 10:05:00 18.9 C 82 % 15.76 C
1563 14-08-2018 10:10:00 18.9 C 81 % 15.57 C
1564 14-08-2018 10:15:00 18.8 C 81 % 15.47 C
1565 14-08-2018 10:20:00 18.8 C 82 % 15.66 C
1566 14-08-2018 10:25:00 18.8 C 82 % 15.66 C
1567 14-08-2018 10:30:00 18.7 C 82 % 15.57 C
1568 14-08-2018 10:35:00 18.7 C 82 % 15.57 C
1569 14-08-2018 10:40:00 18.8 C 82 % 15.66 C
1570 14-08-2018 10:45:00 18.8 C 83 % 15.85 C
1571 14-08-2018 10:50:00 18.9 C 82 % 15.76 C
1572 14-08-2018 10:55:00 19.2 C 82 % 16.05 C
1573 14-08-2018 11:00:00 19.4 C 81 % 16.06 C
1574 14-08-2018 11:05:00 19.6 C 81 % 16.25 C
1575 14-08-2018 11:10:00 19.8 C 80 % 16.25 C
Sensor: Nr:Datum:Temp:Feuchte:Taupunkt:
Aussen-T/F 1576 14-08-2018 11:15:00 19.9 C 81 % 16.54 C
1577 14-08-2018 11:20:00 20.1 C 80 % 16.54 C
1578 14-08-2018 11:25:00 20.1 C 79 % 16.34 C
1579 14-08-2018 11:30:00 20 C 79 % 16.25 C
1580 14-08-2018 11:35:00 20 C 80 % 16.44 C
1581 14-08-2018 11:40:00 20.1 C 80 % 16.54 C
1582 14-08-2018 11:45:00 20.2 C 79 % 16.44 C
1583 14-08-2018 11:50:00 20.2 C 79 % 16.44 C
1584 14-08-2018 11:55:00 20.2 C 80 % 16.64 C
1585 14-08-2018 12:00:00 20.3 C 79 % 16.54 C
1586 14-08-2018 12:05:00 20.3 C 79 % 16.54 C
1587 14-08-2018 12:10:00 20.3 C 80 % 16.74 C
1588 14-08-2018 12:15:00 20.4 C 79 % 16.64 C
1589 14-08-2018 12:20:00 20.7 C 78 % 16.73 C
1590 14-08-2018 12:25:00 20.8 C 77 % 16.62 C
1591 14-08-2018 12:30:00 21 C 77 % 16.81 C
1592 14-08-2018 12:35:00 21.1 C 77 % 16.91 C
1593 14-08-2018 12:40:00 21.1 C 76 % 16.7 C
1594 14-08-2018 12:45:00 20.8 C 76 % 16.41 C
1595 14-08-2018 12:50:00 20.7 C 77 % 16.52 C
1596 14-08-2018 12:55:00 20.6 C 78 % 16.63 C
1597 14-08-2018 13:00:00 20.5 C 79 % 16.73 C
1598 14-08-2018 13:05:00 20.4 C 81 % 17.03 C
1599 14-08-2018 13:10:00 20.4 C 81 % 17.03 C
1600 14-08-2018 13:15:00 20.6 C 81 % 17.22 C
Sensor: Nr:Datum:Temp:Feuchte:Taupunkt:
Aussen-T/F 1601 14-08-2018 13:20:00 20.9 C 79 % 17.12 C
1602 14-08-2018 13:25:00 21.3 C 77 % 17.1 C
1603 14-08-2018 13:30:00 21.6 C 75 % 16.98 C
1604 14-08-2018 13:35:00 21.8 C 74 % 16.96 C
1605 14-08-2018 13:40:00 21.7 C 75 % 17.07 C
1606 14-08-2018 13:45:00 21.8 C 74 % 16.96 C
1607 14-08-2018 13:50:00 21.8 C 73 % 16.75 C
1608 14-08-2018 13:55:00 21.8 C 73 % 16.75 C
1609 14-08-2018 14:00:00 21.7 C 73 % 16.65 C
1610 14-08-2018 14:05:00 21.5 C 75 % 16.88 C
1611 14-08-2018 14:10:00 21.4 C 75 % 16.79 C
1612 14-08-2018 14:15:00 21.3 C 75 % 16.69 C
1613 14-08-2018 14:20:00 21.3 C 76 % 16.9 C
1614 14-08-2018 14:25:00 21.3 C 76 % 16.9 C
1615 14-08-2018 14:30:00 21.3 C 75 % 16.69 C
1616 14-08-2018 14:35:00 21.3 C 73 % 16.26 C
1617 14-08-2018 14:40:00 21.3 C 75 % 16.69 C
1618 14-08-2018 14:45:00 21.5 C 75 % 16.88 C
1619 14-08-2018 14:50:00 21.6 C 74 % 16.77 C
1620 14-08-2018 14:55:00 21.7 C 75 % 17.07 C
1621 14-08-2018 15:00:00 21.7 C 77 % 17.49 C
1622 14-08-2018 15:05:00 21.7 C 77 % 17.49 C
1623 14-08-2018 15:10:00 21.6 C 75 % 16.98 C
1624 14-08-2018 15:15:00 21.6 C 76 % 17.19 C
1625 14-08-2018 15:20:00 21.7 C 75 % 17.07 C
Sensor: Nr:Datum:Temp:Feuchte:Taupunkt:
Aussen-T/F 1626 14-08-2018 15:25:00 21.8 C 73 % 16.75 C
1627 14-08-2018 15:30:00 21.9 C 73 % 16.84 C
1628 14-08-2018 15:35:00 22 C 74 % 17.15 C
1629 14-08-2018 15:40:00 22.1 C 73 % 17.03 C
1630 14-08-2018 15:45:00 22.3 C 70 % 16.56 C
1631 14-08-2018 15:50:00 22.5 C 67 % 16.07 C
1632 14-08-2018 15:55:00 22.6 C 66 % 15.93 C
1633 14-08-2018 16:00:00 22.7 C 66 % 16.02 C
1634 14-08-2018 16:05:00 22.7 C 67 % 16.26 C
1635 14-08-2018 16:10:00 22.7 C 64 % 15.54 C
1636 14-08-2018 16:15:00 22.8 C 66 % 16.12 C
1637 14-08-2018 16:20:00 23.1 C 65 % 16.16 C
1638 14-08-2018 16:25:00 23.3 C 64 % 16.11 C
1639 14-08-2018 16:30:00 23.3 C 64 % 16.11 C
1640 14-08-2018 16:35:00 23.3 C 64 % 16.11 C
1641 14-08-2018 16:40:00 23.4 C 62 % 15.71 C
1642 14-08-2018 16:45:00 23.4 C 66 % 16.69 C
1643 14-08-2018 16:50:00 23.3 C 65 % 16.35 C
1644 14-08-2018 16:55:00 23.2 C 64 % 16.01 C
1645 14-08-2018 17:00:00 23.1 C 65 % 16.16 C
1646 14-08-2018 17:05:00 23.1 C 65 % 16.16 C
1647 14-08-2018 17:10:00 23.1 C 65 % 16.16 C
1648 14-08-2018 17:15:00 23.2 C 65 % 16.26 C
1649 14-08-2018 17:20:00 23.2 C 66 % 16.5 C
1650 14-08-2018 17:25:00 23.2 C 70 % 17.42 C
Sensor: Nr:Datum:Temp:Feuchte:Taupunkt:
Aussen-T/F 1651 14-08-2018 17:30:00 23.1 C 67 % 16.64 C
1652 14-08-2018 17:35:00 22.9 C 69 % 16.91 C
1653 14-08-2018 17:40:00 22.8 C 69 % 16.82 C
1654 14-08-2018 17:45:00 22.7 C 71 % 17.17 C
1655 14-08-2018 17:50:00 22.6 C 67 % 16.16 C
1656 14-08-2018 17:55:00 22.6 C 67 % 16.16 C
1657 14-08-2018 18:00:00 22.6 C 67 % 16.16 C
1658 14-08-2018 18:05:00 22.6 C 68 % 16.39 C
1659 14-08-2018 18:10:00 22.3 C 71 % 16.79 C
1660 14-08-2018 18:15:00 21.9 C 75 % 17.27 C
1661 14-08-2018 18:20:00 21.4 C 79 % 17.61 C
1662 14-08-2018 18:25:00 20.9 C 82 % 17.71 C
1663 14-08-2018 18:30:00 20.6 C 83 % 17.61 C
1664 14-08-2018 18:35:00 20.1 C 83 % 17.12 C
1665 14-08-2018 18:40:00 19.7 C 84 % 16.92 C
1666 14-08-2018 18:45:00 19.4 C 85 % 16.81 C
1667 14-08-2018 18:50:00 19.2 C 85 % 16.62 C
1668 14-08-2018 18:55:00 19.1 C 86 % 16.7 C
1669 14-08-2018 19:00:00 18.9 C 87 % 16.69 C
1670 14-08-2018 19:05:00 18.8 C 88 % 16.77 C
1671 14-08-2018 19:10:00 18.7 C 88 % 16.67 C
1672 14-08-2018 19:15:00 18.7 C 88 % 16.67 C
1673 14-08-2018 19:20:00 18.6 C 89 % 16.75 C
1674 14-08-2018 19:25:00 18.4 C 89 % 16.55 C
1675 14-08-2018 19:30:00 18.4 C 89 % 16.55 C
Sensor: Nr:Datum:Temp:Feuchte:Taupunkt:
Aussen-T/F 1676 14-08-2018 19:35:00 18.3 C 89 % 16.46 C
1677 14-08-2018 19:40:00 18.3 C 90 % 16.63 C
1678 14-08-2018 19:45:00 18.2 C 90 % 16.53 C
1679 14-08-2018 19:50:00 18.2 C 90 % 16.53 C
1680 14-08-2018 19:55:00 18.2 C 90 % 16.53 C
1681 14-08-2018 20:00:00 18.1 C 90 % 16.43 C
1682 14-08-2018 20:05:00 18.1 C 90 % 16.43 C
1683 14-08-2018 20:10:00 18 C 90 % 16.34 C
1684 14-08-2018 20:15:00 18.1 C 91 % 16.61 C
1685 14-08-2018 20:20:00 18.1 C 91 % 16.61 C
1686 14-08-2018 20:25:00 18.2 C 91 % 16.71 C
1687 14-08-2018 20:30:00 18.1 C 90 % 16.43 C
1688 14-08-2018 20:35:00 18.1 C 90 % 16.43 C
1689 14-08-2018 20:40:00 18 C 90 % 16.34 C
1690 14-08-2018 20:45:00 17.9 C 90 % 16.24 C
1691 14-08-2018 20:50:00 17.8 C 90 % 16.14 C
1692 14-08-2018 20:55:00 17.7 C 90 % 16.04 C
1693 14-08-2018 21:00:00 17.6 C 90 % 15.94 C
1694 14-08-2018 21:05:00 17.6 C 90 % 15.94 C
1695 14-08-2018 21:10:00 17.5 C 91 % 16.01 C
1696 14-08-2018 21:15:00 17.4 C 91 % 15.92 C
1697 14-08-2018 21:20:00 17.3 C 91 % 15.82 C
1698 14-08-2018 21:25:00 17.3 C 91 % 15.82 C
1699 14-08-2018 21:30:00 17.2 C 91 % 15.72 C
1700 14-08-2018 21:35:00 17.1 C 91 % 15.62 C
Sensor: Nr:Datum:Temp:Feuchte:Taupunkt:
Aussen-T/F 1701 14-08-2018 21:40:00 17.1 C 91 % 15.62 C
1702 14-08-2018 21:45:00 17 C 91 % 15.52 C
1703 14-08-2018 21:50:00 16.9 C 91 % 15.42 C
1704 14-08-2018 21:55:00 16.9 C 91 % 15.42 C
1705 14-08-2018 22:00:00 16.9 C 92 % 15.59 C
1706 14-08-2018 22:05:00 16.9 C 92 % 15.59 C
1707 14-08-2018 22:10:00 16.9 C 92 % 15.59 C
1708 14-08-2018 22:15:00 16.9 C 92 % 15.59 C
1709 14-08-2018 22:20:00 16.9 C 92 % 15.59 C
1710 14-08-2018 22:25:00 16.9 C 92 % 15.59 C
1711 14-08-2018 22:30:00 16.9 C 93 % 15.76 C
1712 14-08-2018 22:35:00 17 C 93 % 15.86 C
1713 14-08-2018 22:40:00 17 C 93 % 15.86 C
1714 14-08-2018 22:45:00 17.1 C 93 % 15.96 C
1715 14-08-2018 22:50:00 17.1 C 93 % 15.96 C
1716 14-08-2018 22:55:00 17.1 C 93 % 15.96 C
1717 14-08-2018 23:00:00 17.1 C 93 % 15.96 C
1718 14-08-2018 23:05:00 17.2 C 93 % 16.06 C
1719 14-08-2018 23:10:00 17.2 C 93 % 16.06 C
1720 14-08-2018 23:15:00 17.2 C 93 % 16.06 C
1721 14-08-2018 23:20:00 17.2 C 93 % 16.06 C
1722 14-08-2018 23:25:00 17.2 C 93 % 16.06 C
1723 14-08-2018 23:30:00 17.2 C 93 % 16.06 C
1724 14-08-2018 23:35:00 17.3 C 93 % 16.16 C
1725 14-08-2018 23:40:00 17.3 C 93 % 16.16 C
Sensor: Nr:Datum:Temp:Feuchte:Taupunkt:
Aussen-T/F 1726 14-08-2018 23:45:00 17.3 C 93 % 16.16 C
1727 14-08-2018 23:50:00 17.3 C 93 % 16.16 C
1728 14-08-2018 23:55:00 17.3 C 93 % 16.16 C
1729 15-08-2018 00:00:00 17.3 C 93 % 16.16 C
1730 15-08-2018 00:05:00 17.2 C 93 % 16.06 C
1731 15-08-2018 00:10:00 17.1 C 93 % 15.96 C
1732 15-08-2018 00:15:00 17.1 C 93 % 15.96 C
1733 15-08-2018 00:20:00 17 C 93 % 15.86 C
1734 15-08-2018 00:25:00 16.9 C 93 % 15.76 C
1735 15-08-2018 00:30:00 16.8 C 92 % 15.49 C
1736 15-08-2018 00:35:00 16.7 C 92 % 15.39 C
1737 15-08-2018 00:40:00 16.6 C 93 % 15.46 C
1738 15-08-2018 00:45:00 16.6 C 93 % 15.46 C
1739 15-08-2018 00:50:00 16.5 C 93 % 15.36 C
1740 15-08-2018 00:55:00 16.5 C 93 % 15.36 C
1741 15-08-2018 01:00:00 16.4 C 93 % 15.27 C
1742 15-08-2018 01:05:00 16.4 C 93 % 15.27 C
1743 15-08-2018 01:10:00 16.4 C 93 % 15.27 C
1744 15-08-2018 01:15:00 16.4 C 93 % 15.27 C
1745 15-08-2018 01:20:00 16.5 C 93 % 15.36 C
1746 15-08-2018 01:25:00 16.6 C 93 % 15.46 C
1747 15-08-2018 01:30:00 16.6 C 93 % 15.46 C
1748 15-08-2018 01:35:00 16.5 C 93 % 15.36 C
1749 15-08-2018 01:40:00 16.4 C 93 % 15.27 C
1750 15-08-2018 01:45:00 16.3 C 93 % 15.17 C
Sensor: Nr:Datum:Temp:Feuchte:Taupunkt:
Aussen-T/F 1751 15-08-2018 01:50:00 16.3 C 93 % 15.17 C
1752 15-08-2018 01:55:00 16.2 C 93 % 15.07 C
1753 15-08-2018 02:00:00 16.1 C 93 % 14.97 C
1754 15-08-2018 02:05:00 16 C 93 % 14.87 C
1755 15-08-2018 02:10:00 15.9 C 93 % 14.77 C
1756 15-08-2018 02:15:00 15.9 C 93 % 14.77 C
1757 15-08-2018 02:20:00 15.9 C 93 % 14.77 C
1758 15-08-2018 02:25:00 15.9 C 94 % 14.94 C
1759 15-08-2018 02:30:00 16 C 94 % 15.03 C
1760 15-08-2018 02:35:00 16.1 C 94 % 15.13 C
1761 15-08-2018 02:40:00 16.2 C 94 % 15.23 C
1762 15-08-2018 02:45:00 16.2 C 94 % 15.23 C
1763 15-08-2018 02:50:00 16.2 C 94 % 15.23 C
1764 15-08-2018 02:55:00 16.2 C 94 % 15.23 C
1765 15-08-2018 03:00:00 16.3 C 94 % 15.33 C
1766 15-08-2018 03:05:00 16.3 C 94 % 15.33 C
1767 15-08-2018 03:10:00 16.4 C 94 % 15.43 C
1768 15-08-2018 03:15:00 16.3 C 94 % 15.33 C
1769 15-08-2018 03:20:00 16.2 C 93 % 15.07 C
1770 15-08-2018 03:25:00 16.1 C 93 % 14.97 C
1771 15-08-2018 03:30:00 15.9 C 93 % 14.77 C
1772 15-08-2018 03:35:00 15.7 C 93 % 14.57 C
1773 15-08-2018 03:40:00 15.7 C 93 % 14.57 C
1774 15-08-2018 03:45:00 15.7 C 94 % 14.74 C
1775 15-08-2018 03:50:00 15.7 C 94 % 14.74 C
Sensor: Nr:Datum:Temp:Feuchte:Taupunkt:
Aussen-T/F 1776 15-08-2018 03:55:00 15.6 C 94 % 14.64 C
1777 15-08-2018 04:00:00 15.6 C 94 % 14.64 C
1778 15-08-2018 04:05:00 15.6 C 94 % 14.64 C
1779 15-08-2018 04:10:00 15.6 C 94 % 14.64 C
1780 15-08-2018 04:15:00 15.6 C 94 % 14.64 C
1781 15-08-2018 04:20:00 15.7 C 94 % 14.74 C
1782 15-08-2018 04:25:00 15.7 C 94 % 14.74 C
1783 15-08-2018 04:30:00 15.8 C 94 % 14.84 C
1784 15-08-2018 04:35:00 15.9 C 94 % 14.94 C
1785 15-08-2018 04:40:00 15.9 C 94 % 14.94 C
1786 15-08-2018 04:45:00 16 C 94 % 15.03 C
1787 15-08-2018 04:50:00 16.1 C 94 % 15.13 C
1788 15-08-2018 04:55:00 16.1 C 94 % 15.13 C
1789 15-08-2018 05:00:00 16.1 C 94 % 15.13 C
1790 15-08-2018 05:05:00 16 C 94 % 15.03 C
1791 15-08-2018 05:10:00 16 C 94 % 15.03 C
1792 15-08-2018 05:15:00 15.9 C 94 % 14.94 C
1793 15-08-2018 05:20:00 15.9 C 94 % 14.94 C
1794 15-08-2018 05:25:00 15.9 C 94 % 14.94 C
1795 15-08-2018 05:30:00 15.9 C 94 % 14.94 C
1796 15-08-2018 05:35:00 16 C 94 % 15.03 C
1797 15-08-2018 05:40:00 16 C 94 % 15.03 C
1798 15-08-2018 05:45:00 16 C 94 % 15.03 C
1799 15-08-2018 05:50:00 16.1 C 94 % 15.13 C
1800 15-08-2018 05:55:00 16.1 C 94 % 15.13 C
Sensor: Nr:Datum:Temp:Feuchte:Taupunkt:
Aussen-T/F 1801 15-08-2018 06:00:00 16.1 C 94 % 15.13 C
1802 15-08-2018 06:05:00 16.1 C 94 % 15.13 C
1803 15-08-2018 06:10:00 16.1 C 94 % 15.13 C
1804 15-08-2018 06:15:00 16.1 C 94 % 15.13 C
1805 15-08-2018 06:20:00 16.1 C 94 % 15.13 C
1806 15-08-2018 06:25:00 16 C 94 % 15.03 C
1807 15-08-2018 06:30:00 16 C 94 % 15.03 C
1808 15-08-2018 06:35:00 16.1 C 94 % 15.13 C
1809 15-08-2018 06:40:00 16.1 C 94 % 15.13 C
1810 15-08-2018 06:45:00 16 C 94 % 15.03 C
1811 15-08-2018 06:50:00 16 C 94 % 15.03 C
1812 15-08-2018 06:55:00 16.1 C 94 % 15.13 C
1813 15-08-2018 07:00:00 16.1 C 94 % 15.13 C
1814 15-08-2018 07:05:00 16.1 C 94 % 15.13 C
1815 15-08-2018 07:10:00 16.1 C 94 % 15.13 C
1816 15-08-2018 07:15:00 16.1 C 94 % 15.13 C
1817 15-08-2018 07:20:00 16.1 C 94 % 15.13 C
1818 15-08-2018 07:25:00 16.1 C 94 % 15.13 C
1819 15-08-2018 07:30:00 16.2 C 94 % 15.23 C
1820 15-08-2018 07:35:00 16.2 C 94 % 15.23 C
1821 15-08-2018 07:40:00 16.2 C 94 % 15.23 C
1822 15-08-2018 07:45:00 16.2 C 94 % 15.23 C
1823 15-08-2018 07:50:00 16.2 C 94 % 15.23 C
1824 15-08-2018 07:55:00 16.2 C 94 % 15.23 C
1825 15-08-2018 08:00:00 16.2 C 94 % 15.23 C
Sensor: Nr:Datum:Temp:Feuchte:Taupunkt:
Aussen-T/F 1826 15-08-2018 08:05:00 16.3 C 94 % 15.33 C
1827 15-08-2018 08:10:00 16.3 C 94 % 15.33 C
1828 15-08-2018 08:15:00 16.4 C 94 % 15.43 C
1829 15-08-2018 08:20:00 16.4 C 93 % 15.27 C
1830 15-08-2018 08:25:00 16.5 C 93 % 15.36 C
1831 15-08-2018 08:30:00 16.6 C 93 % 15.46 C
1832 15-08-2018 08:35:00 16.6 C 93 % 15.46 C
1833 15-08-2018 08:40:00 16.7 C 93 % 15.56 C
1834 15-08-2018 08:45:00 16.8 C 93 % 15.66 C
1835 15-08-2018 08:50:00 16.9 C 92 % 15.59 C
1836 15-08-2018 08:55:00 17 C 92 % 15.69 C
1837 15-08-2018 09:00:00 17.1 C 91 % 15.62 C
1838 15-08-2018 09:05:00 17.2 C 91 % 15.72 C
1839 15-08-2018 09:10:00 17.3 C 91 % 15.82 C
1840 15-08-2018 09:15:00 17.4 C 90 % 15.74 C
1841 15-08-2018 09:20:00 17.6 C 90 % 15.94 C
1842 15-08-2018 09:25:00 17.7 C 90 % 16.04 C
1843 15-08-2018 09:30:00 17.8 C 90 % 16.14 C
1844 15-08-2018 09:35:00 17.9 C 88 % 15.88 C
1845 15-08-2018 09:40:00 18.1 C 89 % 16.26 C
1846 15-08-2018 09:45:00 18.2 C 88 % 16.18 C
1847 15-08-2018 09:50:00 18.3 C 87 % 16.1 C
1848 15-08-2018 09:55:00 18.4 C 86 % 16.02 C
1849 15-08-2018 10:00:00 18.6 C 86 % 16.21 C
1850 15-08-2018 10:05:00 18.7 C 84 % 15.94 C
Sensor: Nr:Datum:Temp:Feuchte:Taupunkt:
Aussen-T/F 1851 15-08-2018 10:10:00 18.7 C 84 % 15.94 C
1852 15-08-2018 10:15:00 18.8 C 83 % 15.85 C
1853 15-08-2018 10:20:00 18.8 C 83 % 15.85 C
1854 15-08-2018 10:25:00 18.8 C 83 % 15.85 C
1855 15-08-2018 10:30:00 18.9 C 83 % 15.95 C
1856 15-08-2018 10:35:00 19.1 C 82 % 15.96 C
1857 15-08-2018 10:40:00 19.1 C 79 % 15.37 C
1858 15-08-2018 10:45:00 19.3 C 79 % 15.57 C
1859 15-08-2018 10:50:00 19.4 C 80 % 15.86 C
1860 15-08-2018 10:55:00 19.5 C 77 % 15.36 C
1861 15-08-2018 11:00:00 19.6 C 77 % 15.46 C
1862 15-08-2018 11:05:00 19.5 C 76 % 15.16 C
1863 15-08-2018 11:10:00 19.5 C 76 % 15.16 C
1864 15-08-2018 11:15:00 19.6 C 75 % 15.05 C
1865 15-08-2018 11:20:00 19.6 C 74 % 14.84 C
1866 15-08-2018 11:25:00 19.6 C 74 % 14.84 C
1867 15-08-2018 11:30:00 19.7 C 74 % 14.94 C
1868 15-08-2018 11:35:00 19.8 C 68 % 13.73 C
1869 15-08-2018 11:40:00 19.9 C 68 % 13.82 C
1870 15-08-2018 11:45:00 20.1 C 69 % 14.24 C
1871 15-08-2018 11:50:00 20.3 C 64 % 13.27 C
1872 15-08-2018 11:55:00 20.5 C 67 % 14.16 C
1873 15-08-2018 12:00:00 20.7 C 69 % 14.81 C
1874 15-08-2018 12:05:00 20.8 C 67 % 14.45 C
1875 15-08-2018 12:10:00 21 C 67 % 14.64 C
Sensor: Nr:Datum:Temp:Feuchte:Taupunkt:
Aussen-T/F 1876 15-08-2018 12:15:00 21.2 C 68 % 15.06 C
1877 15-08-2018 12:20:00 21.4 C 66 % 14.79 C
1878 15-08-2018 12:25:00 21.5 C 65 % 14.65 C
1879 15-08-2018 12:30:00 21.4 C 65 % 14.55 C
1880 15-08-2018 12:35:00 21.6 C 66 % 14.98 C
1881 15-08-2018 12:40:00 21.7 C 67 % 15.31 C
1882 15-08-2018 12:45:00 21.8 C 68 % 15.63 C
1883 15-08-2018 12:50:00 21.9 C 66 % 15.26 C
1884 15-08-2018 12:55:00 22.1 C 66 % 15.45 C
1885 15-08-2018 13:00:00 22.2 C 62 % 14.58 C
1886 15-08-2018 13:05:00 22.2 C 62 % 14.58 C
1887 15-08-2018 13:10:00 22.2 C 63 % 14.82 C
1888 15-08-2018 13:15:00 22.3 C 64 % 15.16 C
1889 15-08-2018 13:20:00 22.5 C 64 % 15.35 C
1890 15-08-2018 13:25:00 22.6 C 64 % 15.45 C
1891 15-08-2018 13:30:00 22.8 C 61 % 14.89 C
1892 15-08-2018 13:35:00 22.8 C 61 % 14.89 C
1893 15-08-2018 13:40:00 22.8 C 62 % 15.14 C
1894 15-08-2018 13:45:00 22.9 C 63 % 15.48 C
1895 15-08-2018 13:50:00 23.1 C 60 % 14.91 C
1896 15-08-2018 13:55:00 23.1 C 59 % 14.65 C
1897 15-08-2018 14:00:00 23 C 59 % 14.56 C
1898 15-08-2018 14:05:00 23 C 61 % 15.08 C
1899 15-08-2018 14:10:00 22.9 C 60 % 14.73 C
1900 15-08-2018 14:15:00 22.9 C 60 % 14.73 C
Sensor: Nr:Datum:Temp:Feuchte:Taupunkt:
Aussen-T/F 1901 15-08-2018 14:20:00 22.8 C 59 % 14.37 C
1902 15-08-2018 14:25:00 22.8 C 59 % 14.37 C
1903 15-08-2018 14:30:00 22.9 C 62 % 15.23 C
1904 15-08-2018 14:35:00 23 C 63 % 15.58 C
1905 15-08-2018 14:40:00 23.1 C 59 % 14.65 C
1906 15-08-2018 14:45:00 23.2 C 59 % 14.75 C
1907 15-08-2018 14:50:00 23.3 C 60 % 15.1 C
1908 15-08-2018 14:55:00 23.4 C 60 % 15.19 C
1909 15-08-2018 15:00:00 23.5 C 58 % 14.76 C
1910 15-08-2018 15:05:00 23.4 C 57 % 14.4 C
1911 15-08-2018 15:10:00 23.4 C 58 % 14.67 C
1912 15-08-2018 15:15:00 23.5 C 59 % 15.03 C
1913 15-08-2018 15:20:00 23.6 C 59 % 15.12 C
1914 15-08-2018 15:25:00 23.7 C 57 % 14.68 C
1915 15-08-2018 15:30:00 23.7 C 57 % 14.68 C
1916 15-08-2018 15:35:00 23.8 C 56 % 14.5 C
1917 15-08-2018 15:40:00 23.9 C 57 % 14.87 C
1918 15-08-2018 15:45:00 23.9 C 56 % 14.59 C
1919 15-08-2018 15:50:00 23.9 C 58 % 15.14 C
1920 15-08-2018 15:55:00 24.1 C 56 % 14.78 C
1921 15-08-2018 16:00:00 24.2 C 55 % 14.59 C
1922 15-08-2018 16:05:00 24.2 C 56 % 14.87 C
1923 15-08-2018 16:10:00 24.3 C 56 % 14.96 C
1924 15-08-2018 16:15:00 24.4 C 56 % 15.06 C
1925 15-08-2018 16:20:00 24.6 C 54 % 14.68 C
Sensor: Nr:Datum:Temp:Feuchte:Taupunkt:
Aussen-T/F 1926 15-08-2018 16:25:00 24.6 C 55 % 14.96 C
1927 15-08-2018 16:30:00 24.5 C 55 % 14.87 C
1928 15-08-2018 16:35:00 24.4 C 54 % 14.49 C
1929 15-08-2018 16:40:00 24.4 C 56 % 15.06 C
1930 15-08-2018 16:45:00 24.3 C 55 % 14.68 C
1931 15-08-2018 16:50:00 24.2 C 58 % 15.42 C
1932 15-08-2018 16:55:00 24.1 C 56 % 14.78 C
1933 15-08-2018 17:00:00 24.1 C 56 % 14.78 C
1934 15-08-2018 17:05:00 24 C 56 % 14.68 C
1935 15-08-2018 17:10:00 23.9 C 58 % 15.14 C
1936 15-08-2018 17:15:00 23.8 C 57 % 14.77 C
1937 15-08-2018 17:20:00 23.8 C 57 % 14.77 C
1938 15-08-2018 17:25:00 23.8 C 57 % 14.77 C
1939 15-08-2018 17:30:00 23.8 C 67 % 17.3 C
1940 15-08-2018 17:35:00 23.9 C 69 % 17.87 C
1941 15-08-2018 17:40:00 23.8 C 69 % 17.77 C
1942 15-08-2018 17:45:00 23.7 C 68 % 17.44 C
1943 15-08-2018 17:50:00 23.7 C 69 % 17.67 C
1944 15-08-2018 17:55:00 23.5 C 64 % 16.3 C
1945 15-08-2018 18:00:00 23.4 C 69 % 17.39 C
1946 15-08-2018 18:05:00 23.3 C 70 % 17.52 C
1947 15-08-2018 18:10:00 23.2 C 70 % 17.42 C
1948 15-08-2018 18:15:00 23.1 C 70 % 17.33 C
1949 15-08-2018 18:20:00 22.9 C 71 % 17.36 C
1950 15-08-2018 18:25:00 22.9 C 71 % 17.36 C
Sensor: Nr:Datum:Temp:Feuchte:Taupunkt:
Aussen-T/F 1951 15-08-2018 18:30:00 22.8 C 71 % 17.27 C
1952 15-08-2018 18:35:00 22.7 C 71 % 17.17 C
1953 15-08-2018 18:40:00 22.7 C 72 % 17.39 C
1954 15-08-2018 18:45:00 22.7 C 71 % 17.17 C
1955 15-08-2018 18:50:00 22.7 C 71 % 17.17 C
1956 15-08-2018 18:55:00 22.7 C 72 % 17.39 C
1957 15-08-2018 19:00:00 22.8 C 72 % 17.49 C
1958 15-08-2018 19:05:00 22.8 C 72 % 17.49 C
1959 15-08-2018 19:10:00 22.7 C 71 % 17.17 C
1960 15-08-2018 19:15:00 22.7 C 72 % 17.39 C
1961 15-08-2018 19:20:00 22.6 C 72 % 17.3 C
1962 15-08-2018 19:25:00 22.5 C 73 % 17.42 C
1963 15-08-2018 19:30:00 22.4 C 73 % 17.32 C
1964 15-08-2018 19:35:00 22.3 C 74 % 17.44 C
1965 15-08-2018 19:40:00 22.2 C 73 % 17.13 C
1966 15-08-2018 19:45:00 22.1 C 72 % 16.82 C
1967 15-08-2018 19:50:00 22 C 73 % 16.94 C
1968 15-08-2018 19:55:00 21.9 C 73 % 16.84 C
1969 15-08-2018 20:00:00 21.8 C 73 % 16.75 C
1970 15-08-2018 20:05:00 21.6 C 73 % 16.55 C
1971 15-08-2018 20:10:00 21.5 C 74 % 16.67 C
1972 15-08-2018 20:15:00 21.4 C 74 % 16.57 C
1973 15-08-2018 20:20:00 21.3 C 73 % 16.26 C
1974 15-08-2018 20:25:00 21.2 C 74 % 16.38 C
1975 15-08-2018 20:30:00 21.1 C 74 % 16.29 C
Sensor: Nr:Datum:Temp:Feuchte:Taupunkt:
Aussen-T/F 1976 15-08-2018 20:35:00 21 C 74 % 16.19 C
1977 15-08-2018 20:40:00 20.9 C 74 % 16.09 C
1978 15-08-2018 20:45:00 20.8 C 73 % 15.78 C
1979 15-08-2018 20:50:00 20.8 C 74 % 16 C
1980 15-08-2018 20:55:00 20.7 C 74 % 15.9 C
1981 15-08-2018 21:00:00 20.6 C 74 % 15.8 C
1982 15-08-2018 21:05:00 20.5 C 74 % 15.71 C
1983 15-08-2018 21:10:00 20.4 C 75 % 15.82 C
1984 15-08-2018 21:15:00 20.4 C 75 % 15.82 C
1985 15-08-2018 21:20:00 20.3 C 75 % 15.72 C
1986 15-08-2018 21:25:00 20.2 C 76 % 15.83 C
1987 15-08-2018 21:30:00 20.2 C 76 % 15.83 C
1988 15-08-2018 21:35:00 20.1 C 76 % 15.74 C
1989 15-08-2018 21:40:00 20.1 C 77 % 15.94 C
1990 15-08-2018 21:45:00 19.9 C 77 % 15.75 C
1991 15-08-2018 21:50:00 19.9 C 77 % 15.75 C
1992 15-08-2018 21:55:00 19.8 C 78 % 15.85 C
1993 15-08-2018 22:00:00 19.8 C 78 % 15.85 C
1994 15-08-2018 22:05:00 19.7 C 77 % 15.56 C
1995 15-08-2018 22:10:00 19.6 C 78 % 15.66 C
1996 15-08-2018 22:15:00 19.6 C 78 % 15.66 C
1997 15-08-2018 22:20:00 19.4 C 77 % 15.27 C
1998 15-08-2018 22:25:00 19.3 C 78 % 15.37 C
1999 15-08-2018 22:30:00 19.2 C 78 % 15.27 C
2000 15-08-2018 22:35:00 19.1 C 79 % 15.37 C
Sensor: Nr:Datum:Temp:Feuchte:Taupunkt:
Aussen-T/F 2001 15-08-2018 22:40:00 19 C 79 % 15.28 C
2002 15-08-2018 22:45:00 18.9 C 79 % 15.18 C
2003 15-08-2018 22:50:00 18.8 C 80 % 15.28 C
2004 15-08-2018 22:55:00 18.6 C 80 % 15.08 C
2005 15-08-2018 23:00:00 18.4 C 80 % 14.89 C
2006 15-08-2018 23:05:00 18.3 C 80 % 14.79 C
2007 15-08-2018 23:10:00 18.2 C 80 % 14.69 C
2008 15-08-2018 23:15:00 18 C 81 % 14.69 C
2009 15-08-2018 23:20:00 17.8 C 81 % 14.5 C
2010 15-08-2018 23:25:00 17.7 C 81 % 14.4 C
2011 15-08-2018 23:30:00 17.6 C 82 % 14.49 C
2012 15-08-2018 23:35:00 17.4 C 82 % 14.3 C
2013 15-08-2018 23:40:00 17.3 C 83 % 14.39 C
2014 15-08-2018 23:45:00 17.3 C 83 % 14.39 C
2015 15-08-2018 23:50:00 17.1 C 83 % 14.19 C
2016 15-08-2018 23:55:00 17 C 84 % 14.28 C
2017 16-08-2018 00:00:00 16.9 C 84 % 14.18 C
2018 16-08-2018 00:05:00 16.8 C 84 % 14.08 C
2019 16-08-2018 00:10:00 16.7 C 84 % 13.98 C
2020 16-08-2018 00:15:00 16.6 C 85 % 14.07 C
2021 16-08-2018 00:20:00 16.4 C 85 % 13.87 C
2022 16-08-2018 00:25:00 16.3 C 85 % 13.77 C
2023 16-08-2018 00:30:00 16.3 C 86 % 13.95 C
2024 16-08-2018 00:35:00 16.2 C 86 % 13.86 C
2025 16-08-2018 00:40:00 16.1 C 86 % 13.76 C
Sensor: Nr:Datum:Temp:Feuchte:Taupunkt:
Aussen-T/F 2026 16-08-2018 00:45:00 16 C 86 % 13.66 C
2027 16-08-2018 00:50:00 15.9 C 87 % 13.74 C
2028 16-08-2018 00:55:00 15.8 C 87 % 13.64 C
2029 16-08-2018 01:00:00 15.8 C 87 % 13.64 C
2030 16-08-2018 01:05:00 15.7 C 87 % 13.54 C
2031 16-08-2018 01:10:00 15.7 C 87 % 13.54 C
2032 16-08-2018 01:15:00 15.6 C 88 % 13.62 C
2033 16-08-2018 01:20:00 15.6 C 88 % 13.62 C
2034 16-08-2018 01:25:00 15.5 C 88 % 13.52 C
2035 16-08-2018 01:30:00 15.4 C 87 % 13.25 C
2036 16-08-2018 01:35:00 15.4 C 88 % 13.42 C
2037 16-08-2018 01:40:00 15.3 C 88 % 13.33 C
2038 16-08-2018 01:45:00 15.3 C 88 % 13.33 C
2039 16-08-2018 01:50:00 15.2 C 88 % 13.23 C
2040 16-08-2018 01:55:00 15.1 C 88 % 13.13 C
2041 16-08-2018 02:00:00 15.1 C 88 % 13.13 C
2042 16-08-2018 02:05:00 15 C 89 % 13.2 C
2043 16-08-2018 02:10:00 14.9 C 89 % 13.1 C
2044 16-08-2018 02:15:00 14.9 C 89 % 13.1 C
2045 16-08-2018 02:20:00 14.9 C 89 % 13.1 C
2046 16-08-2018 02:25:00 14.9 C 90 % 13.28 C
2047 16-08-2018 02:30:00 14.9 C 90 % 13.28 C
2048 16-08-2018 02:35:00 14.9 C 89 % 13.1 C
2049 16-08-2018 02:40:00 14.8 C 89 % 13.01 C
2050 16-08-2018 02:45:00 14.7 C 89 % 12.91 C
Sensor: Nr:Datum:Temp:Feuchte:Taupunkt:
Aussen-T/F 2051 16-08-2018 02:50:00 14.7 C 90 % 13.08 C
2052 16-08-2018 02:55:00 14.7 C 90 % 13.08 C
2053 16-08-2018 03:00:00 14.7 C 90 % 13.08 C
2054 16-08-2018 03:05:00 14.6 C 90 % 12.98 C
2055 16-08-2018 03:10:00 14.6 C 90 % 12.98 C
2056 16-08-2018 03:15:00 14.5 C 90 % 12.88 C
2057 16-08-2018 03:20:00 14.4 C 90 % 12.78 C
2058 16-08-2018 03:25:00 14.3 C 90 % 12.68 C
2059 16-08-2018 03:30:00 14.3 C 90 % 12.68 C
2060 16-08-2018 03:35:00 14.2 C 90 % 12.58 C
2061 16-08-2018 03:40:00 14.2 C 90 % 12.58 C
2062 16-08-2018 03:45:00 14.2 C 91 % 12.75 C
2063 16-08-2018 03:50:00 14.1 C 91 % 12.65 C
2064 16-08-2018 03:55:00 14.1 C 91 % 12.65 C
2065 16-08-2018 04:00:00 14 C 91 % 12.56 C
2066 16-08-2018 04:05:00 14 C 91 % 12.56 C
2067 16-08-2018 04:10:00 14.1 C 91 % 12.65 C
2068 16-08-2018 04:15:00 14.1 C 91 % 12.65 C
2069 16-08-2018 04:20:00 14.1 C 91 % 12.65 C
2070 16-08-2018 04:25:00 14.1 C 91 % 12.65 C
2071 16-08-2018 04:30:00 14 C 91 % 12.56 C
2072 16-08-2018 04:35:00 14 C 91 % 12.56 C
2073 16-08-2018 04:40:00 13.9 C 91 % 12.46 C
2074 16-08-2018 04:45:00 13.8 C 92 % 12.52 C
2075 16-08-2018 04:50:00 13.8 C 92 % 12.52 C
Sensor: Nr:Datum:Temp:Feuchte:Taupunkt:
Aussen-T/F 2076 16-08-2018 04:55:00 13.7 C 91 % 12.26 C
2077 16-08-2018 05:00:00 13.7 C 91 % 12.26 C
2078 16-08-2018 05:05:00 13.6 C 92 % 12.33 C
2079 16-08-2018 05:10:00 13.6 C 92 % 12.33 C
2080 16-08-2018 05:15:00 13.5 C 92 % 12.23 C
2081 16-08-2018 05:20:00 13.4 C 92 % 12.13 C
2082 16-08-2018 05:25:00 13.4 C 92 % 12.13 C
2083 16-08-2018 05:30:00 13.3 C 92 % 12.03 C
2084 16-08-2018 05:35:00 13.3 C 92 % 12.03 C
2085 16-08-2018 05:40:00 13.2 C 92 % 11.93 C
2086 16-08-2018 05:45:00 13.2 C 92 % 11.93 C
2087 16-08-2018 05:50:00 13.2 C 92 % 11.93 C
2088 16-08-2018 05:55:00 13.1 C 92 % 11.83 C
2089 16-08-2018 06:00:00 13.1 C 92 % 11.83 C
2090 16-08-2018 06:05:00 13.1 C 92 % 11.83 C
2091 16-08-2018 06:10:00 13 C 92 % 11.73 C
2092 16-08-2018 06:15:00 12.9 C 92 % 11.63 C
2093 16-08-2018 06:20:00 12.9 C 92 % 11.63 C
2094 16-08-2018 06:25:00 12.9 C 93 % 11.8 C
2095 16-08-2018 06:30:00 12.8 C 92 % 11.53 C
2096 16-08-2018 06:35:00 12.8 C 93 % 11.7 C
2097 16-08-2018 06:40:00 12.8 C 93 % 11.7 C
2098 16-08-2018 06:45:00 12.8 C 93 % 11.7 C
2099 16-08-2018 06:50:00 12.8 C 93 % 11.7 C
2100 16-08-2018 06:55:00 12.8 C 93 % 11.7 C
Sensor: Nr:Datum:Temp:Feuchte:Taupunkt:
Aussen-T/F 2101 16-08-2018 07:00:00 12.8 C 93 % 11.7 C
2102 16-08-2018 07:05:00 12.8 C 93 % 11.7 C
2103 16-08-2018 07:10:00 12.8 C 93 % 11.7 C
2104 16-08-2018 07:15:00 12.8 C 93 % 11.7 C
2105 16-08-2018 07:20:00 12.9 C 93 % 11.8 C
2106 16-08-2018 07:25:00 12.9 C 93 % 11.8 C
2107 16-08-2018 07:30:00 12.9 C 93 % 11.8 C
2108 16-08-2018 07:35:00 12.9 C 93 % 11.8 C
2109 16-08-2018 07:40:00 12.9 C 93 % 11.8 C
2110 16-08-2018 07:45:00 12.9 C 93 % 11.8 C
2111 16-08-2018 07:50:00 13 C 94 % 12.06 C
2112 16-08-2018 07:55:00 13 C 94 % 12.06 C
2113 16-08-2018 08:00:00 13.1 C 94 % 12.16 C
2114 16-08-2018 08:05:00 13.2 C 94 % 12.26 C
2115 16-08-2018 08:10:00 13.2 C 94 % 12.26 C
2116 16-08-2018 08:15:00 13.3 C 94 % 12.36 C
2117 16-08-2018 08:20:00 13.3 C 94 % 12.36 C
2118 16-08-2018 08:25:00 13.4 C 94 % 12.45 C
2119 16-08-2018 08:30:00 13.4 C 94 % 12.45 C
2120 16-08-2018 08:35:00 13.5 C 94 % 12.55 C
2121 16-08-2018 08:40:00 13.6 C 94 % 12.65 C
2122 16-08-2018 08:45:00 13.7 C 94 % 12.75 C
2123 16-08-2018 08:50:00 13.7 C 94 % 12.75 C
2124 16-08-2018 08:55:00 13.8 C 94 % 12.85 C
2125 16-08-2018 09:00:00 13.9 C 94 % 12.95 C
Sensor: Nr:Datum:Temp:Feuchte:Taupunkt:
Aussen-T/F 2126 16-08-2018 09:05:00 13.9 C 94 % 12.95 C
2127 16-08-2018 09:10:00 14.1 C 94 % 13.15 C
2128 16-08-2018 09:15:00 14.2 C 94 % 13.25 C
2129 16-08-2018 09:20:00 14.3 C 94 % 13.35 C
2130 16-08-2018 09:25:00 14.3 C 94 % 13.35 C
2131 16-08-2018 09:30:00 14.4 C 94 % 13.45 C
2132 16-08-2018 09:35:00 14.6 C 94 % 13.65 C
2133 16-08-2018 09:40:00 14.7 C 94 % 13.74 C
2134 16-08-2018 09:45:00 14.8 C 94 % 13.84 C
2135 16-08-2018 09:50:00 14.9 C 95 % 14.11 C
2136 16-08-2018 09:55:00 15.1 C 94 % 14.14 C
2137 16-08-2018 10:00:00 15.3 C 95 % 14.5 C
2138 16-08-2018 10:05:00 15.4 C 95 % 14.6 C
2139 16-08-2018 10:10:00 15.6 C 94 % 14.64 C
2140 16-08-2018 10:15:00 15.8 C 94 % 14.84 C
2141 16-08-2018 10:20:00 15.9 C 94 % 14.94 C
2142 16-08-2018 10:25:00 16.1 C 94 % 15.13 C
2143 16-08-2018 10:30:00 16.3 C 94 % 15.33 C
2144 16-08-2018 10:35:00 16.5 C 94 % 15.53 C
2145 16-08-2018 10:40:00 16.7 C 93 % 15.56 C
2146 16-08-2018 10:45:00 16.9 C 93 % 15.76 C
2147 16-08-2018 10:50:00 17.1 C 92 % 15.79 C
2148 16-08-2018 10:55:00 17.3 C 91 % 15.82 C
2149 16-08-2018 11:00:00 17.6 C 89 % 15.77 C
2150 16-08-2018 11:05:00 18 C 88 % 15.98 C
Sensor: Nr:Datum:Temp:Feuchte:Taupunkt:
Aussen-T/F 2151 16-08-2018 11:10:00 18.3 C 87 % 16.1 C
2152 16-08-2018 11:15:00 18.6 C 85 % 16.03 C
2153 16-08-2018 11:20:00 19 C 84 % 16.24 C
2154 16-08-2018 11:25:00 19.4 C 84 % 16.63 C
2155 16-08-2018 11:30:00 19.6 C 80 % 16.06 C
2156 16-08-2018 11:35:00 19.9 C 80 % 16.35 C
2157 16-08-2018 11:40:00 20.2 C 77 % 16.04 C
2158 16-08-2018 11:45:00 20.6 C 75 % 16.01 C
2159 16-08-2018 11:50:00 21.1 C 73 % 16.07 C
2160 16-08-2018 11:55:00 21.4 C 73 % 16.36 C
2161 16-08-2018 12:00:00 21.6 C 71 % 16.12 C
2162 16-08-2018 12:05:00 21.8 C 71 % 16.31 C
2163 16-08-2018 12:10:00 22.1 C 69 % 16.15 C
2164 16-08-2018 12:15:00 22.3 C 68 % 16.11 C
2165 16-08-2018 12:20:00 22.7 C 66 % 16.02 C
2166 16-08-2018 12:25:00 23 C 65 % 16.07 C
2167 16-08-2018 12:30:00 23.2 C 63 % 15.77 C
2168 16-08-2018 12:35:00 23.4 C 64 % 16.2 C
2169 16-08-2018 12:40:00 23.6 C 63 % 16.14 C
2170 16-08-2018 12:45:00 23.7 C 60 % 15.48 C
2171 16-08-2018 12:50:00 23.9 C 60 % 15.66 C
2172 16-08-2018 12:55:00 24.1 C 58 % 15.32 C
2173 16-08-2018 13:00:00 24.3 C 60 % 16.04 C
2174 16-08-2018 13:05:00 24.5 C 58 % 15.7 C
2175 16-08-2018 13:10:00 24.6 C 57 % 15.52 C
Sensor: Nr:Datum:Temp:Feuchte:Taupunkt:
Aussen-T/F 2176 16-08-2018 13:15:00 24.7 C 60 % 16.41 C
2177 16-08-2018 13:20:00 24.9 C 59 % 16.34 C
2178 16-08-2018 13:25:00 24.9 C 57 % 15.8 C
2179 16-08-2018 13:30:00 25.1 C 57 % 15.98 C
2180 16-08-2018 13:35:00 25.2 C 55 % 15.52 C
2181 16-08-2018 13:40:00 25.4 C 55 % 15.7 C
2182 16-08-2018 13:45:00 25.6 C 52 % 15.02 C
2183 16-08-2018 13:50:00 25.7 C 52 % 15.11 C
2184 16-08-2018 13:55:00 25.9 C 51 % 14.99 C
2185 16-08-2018 14:00:00 26 C 53 % 15.68 C
2186 16-08-2018 14:05:00 26.1 C 51 % 15.17 C
2187 16-08-2018 14:10:00 26.2 C 50 % 14.96 C
2188 16-08-2018 14:15:00 26.4 C 49 % 14.83 C
2189 16-08-2018 14:20:00 26.6 C 51 % 15.63 C
2190 16-08-2018 14:25:00 26.8 C 49 % 15.19 C
2191 16-08-2018 14:30:00 27 C 49 % 15.38 C
2192 16-08-2018 14:35:00 27.2 C 48 % 15.24 C
2193 16-08-2018 14:40:00 27.3 C 48 % 15.33 C
2194 16-08-2018 14:45:00 27.4 C 48 % 15.42 C
2195 16-08-2018 14:50:00 27.7 C 48 % 15.69 C
2196 16-08-2018 14:55:00 27.8 C 47 % 15.45 C
2197 16-08-2018 15:00:00 27.8 C 47 % 15.45 C
2198 16-08-2018 15:05:00 28.1 C 44 % 14.7 C
2199 16-08-2018 15:10:00 28.2 C 44 % 14.79 C
2200 16-08-2018 15:15:00 28.4 C 43 % 14.62 C
Sensor: Nr:Datum:Temp:Feuchte:Taupunkt:
Aussen-T/F 2201 16-08-2018 15:20:00 28.5 C 45 % 15.41 C
2202 16-08-2018 15:25:00 28.7 C 44 % 15.24 C
2203 16-08-2018 15:30:00 28.9 C 42 % 14.7 C
2204 16-08-2018 15:35:00 29.2 C 44 % 15.69 C
2205 16-08-2018 15:40:00 29.3 C 41 % 14.68 C
2206 16-08-2018 15:45:00 29.3 C 43 % 15.42 C
2207 16-08-2018 15:50:00 29.4 C 40 % 14.39 C
2208 16-08-2018 15:55:00 29.6 C 43 % 15.69 C
2209 16-08-2018 16:00:00 29.9 C 41 % 15.22 C
2210 16-08-2018 16:05:00 30.2 C 39 % 14.71 C
2211 16-08-2018 16:10:00 30.5 C 39 % 14.98 C
2212 16-08-2018 16:15:00 30.7 C 38 % 14.75 C
2213 16-08-2018 16:20:00 30.7 C 38 % 14.75 C
2214 16-08-2018 16:25:00 30.8 C 37 % 14.43 C
2215 16-08-2018 16:30:00 31 C 36 % 14.18 C
2216 16-08-2018 16:35:00 31.1 C 36 % 14.27 C
2217 16-08-2018 16:40:00 31.3 C 39 % 15.69 C
2218 16-08-2018 16:45:00 31.3 C 36 % 14.44 C
2219 16-08-2018 16:50:00 31.4 C 36 % 14.53 C
2220 16-08-2018 16:55:00 31.7 C 35 % 14.36 C
2221 16-08-2018 17:00:00 31.7 C 34 % 13.91 C
2222 16-08-2018 17:05:00 31.8 C 33 % 13.54 C
2223 16-08-2018 17:10:00 31.8 C 35 % 14.45 C
2224 16-08-2018 17:15:00 31.9 C 34 % 14.09 C
2225 16-08-2018 17:20:00 32.1 C 33 % 13.8 C
Sensor: Nr:Datum:Temp:Feuchte:Taupunkt:
Aussen-T/F 2226 16-08-2018 17:25:00 32.2 C 34 % 14.35 C
2227 16-08-2018 17:30:00 32.3 C 34 % 14.43 C
2228 16-08-2018 17:35:00 32.4 C 33 % 14.06 C
2229 16-08-2018 17:40:00 32.6 C 34 % 14.7 C
2230 16-08-2018 17:45:00 32.6 C 33 % 14.23 C
2231 16-08-2018 17:50:00 32.6 C 33 % 14.23 C
2232 16-08-2018 17:55:00 32.7 C 35 % 15.23 C
2233 16-08-2018 18:00:00 32.7 C 36 % 15.67 C
2234 16-08-2018 18:05:00 32.7 C 33 % 14.32 C
2235 16-08-2018 18:10:00 32.8 C 33 % 14.41 C
2236 16-08-2018 18:15:00 32.8 C 38 % 16.61 C
2237 16-08-2018 18:20:00 32.8 C 33 % 14.41 C
2238 16-08-2018 18:25:00 32.7 C 33 % 14.32 C
2239 16-08-2018 18:30:00 32.7 C 32 % 13.85 C
2240 16-08-2018 18:35:00 32.7 C 34 % 14.78 C
2241 16-08-2018 18:40:00 32.8 C 38 % 16.61 C
2242 16-08-2018 18:45:00 32.9 C 39 % 17.11 C
2243 16-08-2018 18:50:00 32.9 C 41 % 17.9 C
2244 16-08-2018 18:55:00 32.8 C 37 % 16.19 C
2245 16-08-2018 19:00:00 32.8 C 40 % 17.42 C
2246 16-08-2018 19:05:00 32.7 C 40 % 17.33 C
2247 16-08-2018 19:10:00 32.5 C 42 % 17.92 C
2248 16-08-2018 19:15:00 32.2 C 42 % 17.65 C
2249 16-08-2018 19:20:00 31.8 C 43 % 17.67 C
2250 16-08-2018 19:25:00 31.3 C 44 % 17.58 C
Sensor: Nr:Datum:Temp:Feuchte:Taupunkt:
Aussen-T/F 2251 16-08-2018 19:30:00 30.8 C 45 % 17.49 C
2252 16-08-2018 19:35:00 30.3 C 46 % 17.39 C
2253 16-08-2018 19:40:00 29.8 C 46 % 16.93 C
2254 16-08-2018 19:45:00 29.3 C 48 % 17.15 C
2255 16-08-2018 19:50:00 28.8 C 48 % 16.69 C
2256 16-08-2018 19:55:00 28.5 C 49 % 16.75 C
2257 16-08-2018 20:00:00 28.2 C 50 % 16.79 C
2258 16-08-2018 20:05:00 27.9 C 51 % 16.83 C
2259 16-08-2018 20:10:00 27.6 C 52 % 16.86 C
2260 16-08-2018 20:15:00 27.2 C 52 % 16.49 C
2261 16-08-2018 20:20:00 26.8 C 53 % 16.42 C
2262 16-08-2018 20:25:00 26.4 C 54 % 16.34 C
2263 16-08-2018 20:30:00 26 C 55 % 16.26 C
2264 16-08-2018 20:35:00 25.6 C 55 % 15.89 C
2265 16-08-2018 20:40:00 25.2 C 56 % 15.8 C
2266 16-08-2018 20:45:00 24.8 C 57 % 15.7 C
2267 16-08-2018 20:50:00 24.6 C 58 % 15.79 C
2268 16-08-2018 20:55:00 24.2 C 57 % 15.14 C
2269 16-08-2018 21:00:00 23.9 C 59 % 15.4 C
2270 16-08-2018 21:05:00 23.7 C 60 % 15.48 C
2271 16-08-2018 21:10:00 23.4 C 60 % 15.19 C
2272 16-08-2018 21:15:00 23.2 C 61 % 15.26 C
2273 16-08-2018 21:20:00 22.9 C 61 % 14.98 C
2274 16-08-2018 21:25:00 22.7 C 63 % 15.3 C
2275 16-08-2018 21:30:00 22.4 C 64 % 15.26 C
Sensor: Nr:Datum:Temp:Feuchte:Taupunkt:
Aussen-T/F 2276 16-08-2018 21:35:00 22.2 C 65 % 15.31 C
2277 16-08-2018 21:40:00 21.9 C 65 % 15.02 C
2278 16-08-2018 21:45:00 21.7 C 65 % 14.84 C
2279 16-08-2018 21:50:00 21.4 C 66 % 14.79 C
2280 16-08-2018 21:55:00 21.2 C 67 % 14.83 C
2281 16-08-2018 22:00:00 21 C 68 % 14.87 C
2282 16-08-2018 22:05:00 20.8 C 69 % 14.91 C
2283 16-08-2018 22:10:00 20.7 C 67 % 14.36 C
2284 16-08-2018 22:15:00 20.6 C 67 % 14.26 C
2285 16-08-2018 22:20:00 20.6 C 69 % 14.71 C
2286 16-08-2018 22:25:00 20.6 C 67 % 14.26 C
2287 16-08-2018 22:30:00 20.7 C 67 % 14.36 C
2288 16-08-2018 22:35:00 20.8 C 69 % 14.91 C
2289 16-08-2018 22:40:00 20.8 C 70 % 15.13 C
2290 16-08-2018 22:45:00 20.8 C 70 % 15.13 C
2291 16-08-2018 22:50:00 20.8 C 71 % 15.35 C
2292 16-08-2018 22:55:00 20.8 C 71 % 15.35 C
2293 16-08-2018 23:00:00 20.8 C 73 % 15.78 C
2294 16-08-2018 23:05:00 20.7 C 73 % 15.69 C
2295 16-08-2018 23:10:00 20.7 C 74 % 15.9 C
2296 16-08-2018 23:15:00 20.6 C 75 % 16.01 C
2297 16-08-2018 23:20:00 20.4 C 75 % 15.82 C
2298 16-08-2018 23:25:00 20.3 C 75 % 15.72 C
2299 16-08-2018 23:30:00 20.2 C 76 % 15.83 C
2300 16-08-2018 23:35:00 20 C 76 % 15.64 C
Sensor: Nr:Datum:Temp:Feuchte:Taupunkt:
Aussen-T/F 2301 16-08-2018 23:40:00 19.8 C 77 % 15.65 C
2302 16-08-2018 23:45:00 19.7 C 78 % 15.76 C
2303 16-08-2018 23:50:00 19.6 C 78 % 15.66 C
2304 16-08-2018 23:55:00 19.4 C 78 % 15.47 C
2305 17-08-2018 00:00:00 19.3 C 78 % 15.37 C
2306 17-08-2018 00:05:00 19.3 C 79 % 15.57 C
2307 17-08-2018 00:10:00 19.2 C 78 % 15.27 C
2308 17-08-2018 00:15:00 19.2 C 79 % 15.47 C
2309 17-08-2018 00:20:00 19.2 C 79 % 15.47 C
2310 17-08-2018 00:25:00 19 C 79 % 15.28 C
2311 17-08-2018 00:30:00 18.9 C 79 % 15.18 C
2312 17-08-2018 00:35:00 18.7 C 80 % 15.18 C
2313 17-08-2018 00:40:00 18.6 C 81 % 15.28 C
2314 17-08-2018 00:45:00 18.4 C 81 % 15.08 C
2315 17-08-2018 00:50:00 18.4 C 82 % 15.27 C
2316 17-08-2018 00:55:00 18.2 C 82 % 15.08 C
2317 17-08-2018 01:00:00 18.1 C 82 % 14.98 C
2318 17-08-2018 01:05:00 17.9 C 82 % 14.78 C
2319 17-08-2018 01:10:00 17.8 C 83 % 14.88 C
2320 17-08-2018 01:15:00 17.8 C 83 % 14.88 C
2321 17-08-2018 01:20:00 17.7 C 83 % 14.78 C
2322 17-08-2018 01:25:00 17.7 C 84 % 14.96 C
2323 17-08-2018 01:30:00 17.6 C 84 % 14.87 C
2324 17-08-2018 01:35:00 17.6 C 84 % 14.87 C
2325 17-08-2018 01:40:00 17.5 C 84 % 14.77 C
Sensor: Nr:Datum:Temp:Feuchte:Taupunkt:
Aussen-T/F 2326 17-08-2018 01:45:00 17.4 C 84 % 14.67 C
2327 17-08-2018 01:50:00 17.4 C 84 % 14.67 C
2328 17-08-2018 01:55:00 17.3 C 85 % 14.76 C
2329 17-08-2018 02:00:00 17.3 C 85 % 14.76 C
2330 17-08-2018 02:05:00 17.3 C 85 % 14.76 C
2331 17-08-2018 02:10:00 17.2 C 85 % 14.66 C
2332 17-08-2018 02:15:00 17.2 C 85 % 14.66 C
2333 17-08-2018 02:20:00 17.1 C 85 % 14.56 C
2334 17-08-2018 02:25:00 17 C 85 % 14.46 C
2335 17-08-2018 02:30:00 16.9 C 86 % 14.54 C
2336 17-08-2018 02:35:00 16.8 C 86 % 14.45 C
2337 17-08-2018 02:40:00 16.8 C 86 % 14.45 C
2338 17-08-2018 02:45:00 16.7 C 86 % 14.35 C
2339 17-08-2018 02:50:00 16.6 C 86 % 14.25 C
2340 17-08-2018 02:55:00 16.6 C 86 % 14.25 C
2341 17-08-2018 03:00:00 16.5 C 87 % 14.33 C
2342 17-08-2018 03:05:00 16.5 C 87 % 14.33 C
2343 17-08-2018 03:10:00 16.4 C 87 % 14.23 C
2344 17-08-2018 03:15:00 16.3 C 87 % 14.13 C
2345 17-08-2018 03:20:00 16.3 C 87 % 14.13 C
2346 17-08-2018 03:25:00 16.2 C 87 % 14.03 C
2347 17-08-2018 03:30:00 16.2 C 87 % 14.03 C
2348 17-08-2018 03:35:00 16.2 C 88 % 14.21 C
2349 17-08-2018 03:40:00 16.1 C 88 % 14.11 C
2350 17-08-2018 03:45:00 16.1 C 88 % 14.11 C
Sensor: Nr:Datum:Temp:Feuchte:Taupunkt:
Aussen-T/F 2351 17-08-2018 03:50:00 16.1 C 88 % 14.11 C
2352 17-08-2018 03:55:00 16 C 88 % 14.01 C
2353 17-08-2018 04:00:00 16 C 88 % 14.01 C
2354 17-08-2018 04:05:00 16.1 C 88 % 14.11 C
2355 17-08-2018 04:10:00 16 C 88 % 14.01 C
2356 17-08-2018 04:15:00 15.9 C 88 % 13.92 C
2357 17-08-2018 04:20:00 15.9 C 88 % 13.92 C
2358 17-08-2018 04:25:00 15.9 C 88 % 13.92 C
2359 17-08-2018 04:30:00 15.9 C 88 % 13.92 C
2360 17-08-2018 04:35:00 15.8 C 88 % 13.82 C
2361 17-08-2018 04:40:00 15.9 C 89 % 14.09 C
2362 17-08-2018 04:45:00 15.9 C 89 % 14.09 C
2363 17-08-2018 04:50:00 15.9 C 88 % 13.92 C
2364 17-08-2018 04:55:00 15.9 C 88 % 13.92 C
2365 17-08-2018 05:00:00 15.8 C 88 % 13.82 C
2366 17-08-2018 05:05:00 15.8 C 89 % 13.99 C
2367 17-08-2018 05:10:00 15.8 C 89 % 13.99 C
2368 17-08-2018 05:15:00 15.8 C 89 % 13.99 C
2369 17-08-2018 05:20:00 15.8 C 89 % 13.99 C
2370 17-08-2018 05:25:00 15.8 C 89 % 13.99 C
2371 17-08-2018 05:30:00 15.9 C 90 % 14.26 C
2372 17-08-2018 05:35:00 16.1 C 90 % 14.46 C
2373 17-08-2018 05:40:00 16.2 C 90 % 14.56 C
2374 17-08-2018 05:45:00 16.3 C 89 % 14.48 C
2375 17-08-2018 05:50:00 16.4 C 89 % 14.58 C
Sensor: Nr:Datum:Temp:Feuchte:Taupunkt:
Aussen-T/F 2376 17-08-2018 05:55:00 16.6 C 89 % 14.78 C
2377 17-08-2018 06:00:00 16.8 C 88 % 14.8 C
2378 17-08-2018 06:05:00 16.9 C 87 % 14.72 C
2379 17-08-2018 06:10:00 17 C 87 % 14.82 C
2380 17-08-2018 06:15:00 17.1 C 87 % 14.92 C
2381 17-08-2018 06:20:00 17.1 C 87 % 14.92 C
2382 17-08-2018 06:25:00 17.1 C 86 % 14.74 C
2383 17-08-2018 06:30:00 17.1 C 86 % 14.74 C
2384 17-08-2018 06:35:00 17.1 C 86 % 14.74 C
2385 17-08-2018 06:40:00 17.1 C 87 % 14.92 C
2386 17-08-2018 06:45:00 17.1 C 87 % 14.92 C
2387 17-08-2018 06:50:00 17.2 C 87 % 15.02 C
2388 17-08-2018 06:55:00 17.3 C 86 % 14.94 C
2389 17-08-2018 07:00:00 17.4 C 86 % 15.03 C
2390 17-08-2018 07:05:00 17.4 C 86 % 15.03 C
2391 17-08-2018 07:10:00 17.6 C 86 % 15.23 C
2392 17-08-2018 07:15:00 17.6 C 86 % 15.23 C
2393 17-08-2018 07:20:00 17.6 C 86 % 15.23 C
2394 17-08-2018 07:25:00 17.6 C 86 % 15.23 C
2395 17-08-2018 07:30:00 17.6 C 86 % 15.23 C
2396 17-08-2018 07:35:00 17.7 C 86 % 15.33 C
2397 17-08-2018 07:40:00 17.7 C 86 % 15.33 C
2398 17-08-2018 07:45:00 17.8 C 86 % 15.43 C
2399 17-08-2018 07:50:00 17.8 C 86 % 15.43 C
2400 17-08-2018 07:55:00 17.8 C 86 % 15.43 C
Sensor: Nr:Datum:Temp:Feuchte:Taupunkt:
Aussen-T/F 2401 17-08-2018 08:00:00 17.9 C 86 % 15.53 C
2402 17-08-2018 08:05:00 17.9 C 86 % 15.53 C
2403 17-08-2018 08:10:00 18 C 86 % 15.62 C
2404 17-08-2018 08:15:00 18 C 85 % 15.44 C
2405 17-08-2018 08:20:00 18.1 C 85 % 15.54 C
2406 17-08-2018 08:25:00 18.1 C 85 % 15.54 C
2407 17-08-2018 08:30:00 18.1 C 85 % 15.54 C
2408 17-08-2018 08:35:00 18.1 C 85 % 15.54 C
2409 17-08-2018 08:40:00 18.2 C 85 % 15.64 C
2410 17-08-2018 08:45:00 18.3 C 84 % 15.55 C
2411 17-08-2018 08:50:00 18.4 C 84 % 15.65 C
2412 17-08-2018 08:55:00 18.6 C 84 % 15.84 C
2413 17-08-2018 09:00:00 18.7 C 83 % 15.75 C
2414 17-08-2018 09:05:00 18.8 C 83 % 15.85 C
2415 17-08-2018 09:10:00 18.9 C 83 % 15.95 C
2416 17-08-2018 09:15:00 19.1 C 82 % 15.96 C
2417 17-08-2018 09:20:00 19.2 C 82 % 16.05 C
2418 17-08-2018 09:25:00 19.2 C 82 % 16.05 C
2419 17-08-2018 09:30:00 19.3 C 81 % 15.96 C
2420 17-08-2018 09:35:00 19.3 C 81 % 15.96 C
2421 17-08-2018 09:40:00 19.4 C 81 % 16.06 C
2422 17-08-2018 09:45:00 19.4 C 80 % 15.86 C
2423 17-08-2018 09:50:00 19.6 C 79 % 15.86 C
2424 17-08-2018 09:55:00 19.7 C 79 % 15.96 C
2425 17-08-2018 10:00:00 19.8 C 78 % 15.85 C
Sensor: Nr:Datum:Temp:Feuchte:Taupunkt:
Aussen-T/F 2426 17-08-2018 10:05:00 20 C 78 % 16.05 C
2427 17-08-2018 10:10:00 20.2 C 77 % 16.04 C
2428 17-08-2018 10:15:00 20.2 C 77 % 16.04 C
2429 17-08-2018 10:20:00 20.3 C 77 % 16.14 C
2430 17-08-2018 10:25:00 20.3 C 77 % 16.14 C
2431 17-08-2018 10:30:00 20.2 C 77 % 16.04 C
2432 17-08-2018 10:35:00 20.2 C 77 % 16.04 C
2433 17-08-2018 10:40:00 20.3 C 78 % 16.34 C
2434 17-08-2018 10:45:00 20.6 C 76 % 16.22 C
2435 17-08-2018 10:50:00 20.8 C 75 % 16.21 C
2436 17-08-2018 10:55:00 21.1 C 74 % 16.29 C
2437 17-08-2018 11:00:00 21.2 C 74 % 16.38 C
2438 17-08-2018 11:05:00 21.3 C 73 % 16.26 C
2439 17-08-2018 11:10:00 21.4 C 73 % 16.36 C
2440 17-08-2018 11:15:00 21.5 C 72 % 16.24 C
2441 17-08-2018 11:20:00 21.7 C 72 % 16.43 C
2442 17-08-2018 11:25:00 21.8 C 72 % 16.53 C
2443 17-08-2018 11:30:00 21.9 C 72 % 16.62 C
2444 17-08-2018 11:35:00 21.9 C 71 % 16.4 C
2445 17-08-2018 11:40:00 21.9 C 72 % 16.62 C
2446 17-08-2018 11:45:00 22.1 C 71 % 16.6 C
2447 17-08-2018 11:50:00 22.2 C 71 % 16.69 C
2448 17-08-2018 11:55:00 22.4 C 70 % 16.66 C
2449 17-08-2018 12:00:00 22.7 C 69 % 16.72 C
2450 17-08-2018 12:05:00 22.9 C 69 % 16.91 C
Sensor: Nr:Datum:Temp:Feuchte:Taupunkt:
Aussen-T/F 2451 17-08-2018 12:10:00 23.2 C 68 % 16.97 C
2452 17-08-2018 12:15:00 23.3 C 67 % 16.83 C
2453 17-08-2018 12:20:00 23.5 C 66 % 16.78 C
2454 17-08-2018 12:25:00 23.6 C 68 % 17.35 C
2455 17-08-2018 12:30:00 23.7 C 66 % 16.97 C
2456 17-08-2018 12:35:00 23.7 C 66 % 16.97 C
2457 17-08-2018 12:40:00 23.7 C 65 % 16.73 C
2458 17-08-2018 12:45:00 23.6 C 65 % 16.64 C
2459 17-08-2018 12:50:00 23.6 C 66 % 16.88 C
2460 17-08-2018 12:55:00 23.6 C 66 % 16.88 C
2461 17-08-2018 13:00:00 23.6 C 64 % 16.39 C
2462 17-08-2018 13:05:00 23.6 C 65 % 16.64 C
2463 17-08-2018 13:10:00 23.6 C 65 % 16.64 C
2464 17-08-2018 13:15:00 23.6 C 64 % 16.39 C
2465 17-08-2018 13:20:00 23.7 C 65 % 16.73 C
2466 17-08-2018 13:25:00 23.7 C 65 % 16.73 C
2467 17-08-2018 13:30:00 23.7 C 66 % 16.97 C
2468 17-08-2018 13:35:00 23.6 C 67 % 17.11 C
2469 17-08-2018 13:40:00 23.6 C 68 % 17.35 C
2470 17-08-2018 13:45:00 23.7 C 68 % 17.44 C
2471 17-08-2018 13:50:00 23.8 C 68 % 17.54 C
2472 17-08-2018 13:55:00 23.8 C 67 % 17.3 C
2473 17-08-2018 14:00:00 23.9 C 66 % 17.16 C
2474 17-08-2018 14:05:00 24.1 C 67 % 17.59 C
2475 17-08-2018 14:10:00 24.1 C 66 % 17.35 C
Sensor: Nr:Datum:Temp:Feuchte:Taupunkt:
Aussen-T/F 2476 17-08-2018 14:15:00 24.1 C 65 % 17.11 C
2477 17-08-2018 14:20:00 24.1 C 66 % 17.35 C
2478 17-08-2018 14:25:00 24.1 C 65 % 17.11 C
2479 17-08-2018 14:30:00 23.9 C 65 % 16.92 C
2480 17-08-2018 14:35:00 23.8 C 66 % 17.07 C
2481 17-08-2018 14:40:00 23.9 C 66 % 17.16 C
2482 17-08-2018 14:45:00 23.9 C 65 % 16.92 C
2483 17-08-2018 14:50:00 23.8 C 65 % 16.83 C
2484 17-08-2018 14:55:00 23.6 C 66 % 16.88 C
2485 17-08-2018 15:00:00 23.6 C 67 % 17.11 C
2486 17-08-2018 15:05:00 23.6 C 66 % 16.88 C
2487 17-08-2018 15:10:00 23.7 C 66 % 16.97 C
2488 17-08-2018 15:15:00 23.8 C 65 % 16.83 C
2489 17-08-2018 15:20:00 23.8 C 64 % 16.58 C
2490 17-08-2018 15:25:00 23.6 C 65 % 16.64 C
2491 17-08-2018 15:30:00 23.6 C 65 % 16.64 C
2492 17-08-2018 15:35:00 23.6 C 65 % 16.64 C
2493 17-08-2018 15:40:00 23.6 C 64 % 16.39 C
2494 17-08-2018 15:45:00 23.7 C 64 % 16.49 C
2495 17-08-2018 15:50:00 23.7 C 64 % 16.49 C
2496 17-08-2018 15:55:00 23.8 C 65 % 16.83 C
2497 17-08-2018 16:00:00 24.1 C 64 % 16.86 C
2498 17-08-2018 16:05:00 24.2 C 63 % 16.71 C
2499 17-08-2018 16:10:00 24.2 C 63 % 16.71 C
2500 17-08-2018 16:15:00 23.9 C 62 % 16.18 C
Sensor: Nr:Datum:Temp:Feuchte:Taupunkt:
Aussen-T/F 2501 17-08-2018 16:20:00 23.6 C 64 % 16.39 C
2502 17-08-2018 16:25:00 23.2 C 65 % 16.26 C
2503 17-08-2018 16:30:00 23.1 C 65 % 16.16 C
2504 17-08-2018 16:35:00 22.9 C 66 % 16.21 C
2505 17-08-2018 16:40:00 22.8 C 66 % 16.12 C
2506 17-08-2018 16:45:00 22.7 C 66 % 16.02 C
2507 17-08-2018 16:50:00 22.6 C 66 % 15.93 C
2508 17-08-2018 16:55:00 22.4 C 66 % 15.74 C
2509 17-08-2018 17:00:00 22.3 C 68 % 16.11 C
2510 17-08-2018 17:05:00 22.3 C 69 % 16.34 C
2511 17-08-2018 17:10:00 22.3 C 68 % 16.11 C
2512 17-08-2018 17:15:00 22.4 C 69 % 16.43 C
2513 17-08-2018 17:20:00 22.8 C 67 % 16.35 C
2514 17-08-2018 17:25:00 23.1 C 65 % 16.16 C
2515 17-08-2018 17:30:00 23.1 C 65 % 16.16 C
2516 17-08-2018 17:35:00 22.9 C 66 % 16.21 C
2517 17-08-2018 17:40:00 22.7 C 67 % 16.26 C
2518 17-08-2018 17:45:00 22.4 C 68 % 16.2 C
2519 17-08-2018 17:50:00 22.3 C 68 % 16.11 C
2520 17-08-2018 17:55:00 22.3 C 69 % 16.34 C
2521 17-08-2018 18:00:00 22.3 C 69 % 16.34 C
2522 17-08-2018 18:05:00 22.4 C 69 % 16.43 C
2523 17-08-2018 18:10:00 22.4 C 69 % 16.43 C
2524 17-08-2018 18:15:00 22.4 C 68 % 16.2 C
2525 17-08-2018 18:20:00 22.4 C 68 % 16.2 C
Sensor: Nr:Datum:Temp:Feuchte:Taupunkt:
Aussen-T/F 2526 17-08-2018 18:25:00 22.4 C 69 % 16.43 C
2527 17-08-2018 18:30:00 22.4 C 68 % 16.2 C
2528 17-08-2018 18:35:00 22.2 C 68 % 16.01 C
2529 17-08-2018 18:40:00 21.9 C 69 % 15.96 C
2530 17-08-2018 18:45:00 21.7 C 69 % 15.77 C
2531 17-08-2018 18:50:00 21.7 C 70 % 15.99 C
2532 17-08-2018 18:55:00 21.7 C 70 % 15.99 C
2533 17-08-2018 19:00:00 21.7 C 70 % 15.99 C
2534 17-08-2018 19:05:00 21.7 C 69 % 15.77 C
2535 17-08-2018 19:10:00 21.7 C 69 % 15.77 C
2536 17-08-2018 19:15:00 21.7 C 69 % 15.77 C
2537 17-08-2018 19:20:00 21.6 C 69 % 15.67 C
2538 17-08-2018 19:25:00 21.6 C 69 % 15.67 C
2539 17-08-2018 19:30:00 21.6 C 69 % 15.67 C
2540 17-08-2018 19:35:00 21.7 C 68 % 15.54 C
2541 17-08-2018 19:40:00 21.7 C 68 % 15.54 C
2542 17-08-2018 19:45:00 21.7 C 68 % 15.54 C
2543 17-08-2018 19:50:00 21.7 C 68 % 15.54 C
2544 17-08-2018 19:55:00 21.7 C 68 % 15.54 C
2545 17-08-2018 20:00:00 21.7 C 68 % 15.54 C
2546 17-08-2018 20:05:00 21.6 C 68 % 15.44 C
2547 17-08-2018 20:10:00 21.4 C 69 % 15.48 C
2548 17-08-2018 20:15:00 21.3 C 69 % 15.38 C
2549 17-08-2018 20:20:00 21.2 C 68 % 15.06 C
2550 17-08-2018 20:25:00 21.2 C 69 % 15.29 C
Sensor: Nr:Datum:Temp:Feuchte:Taupunkt:
Aussen-T/F 2551 17-08-2018 20:30:00 21.1 C 68 % 14.97 C
2552 17-08-2018 20:35:00 20.9 C 67 % 14.55 C
2553 17-08-2018 20:40:00 20.8 C 68 % 14.68 C
2554 17-08-2018 20:45:00 20.6 C 70 % 14.94 C
2555 17-08-2018 20:50:00 20.4 C 70 % 14.75 C
2556 17-08-2018 20:55:00 20.2 C 70 % 14.56 C
2557 17-08-2018 21:00:00 20 C 72 % 14.8 C
2558 17-08-2018 21:05:00 19.7 C 73 % 14.73 C
2559 17-08-2018 21:10:00 19.4 C 74 % 14.65 C
2560 17-08-2018 21:15:00 19.1 C 75 % 14.57 C
2561 17-08-2018 21:20:00 18.9 C 76 % 14.58 C
2562 17-08-2018 21:25:00 18.7 C 77 % 14.59 C
2563 17-08-2018 21:30:00 18.6 C 77 % 14.49 C
2564 17-08-2018 21:35:00 18.4 C 78 % 14.5 C
2565 17-08-2018 21:40:00 18.3 C 78 % 14.4 C
2566 17-08-2018 21:45:00 18.2 C 78 % 14.3 C
2567 17-08-2018 21:50:00 18.1 C 79 % 14.4 C
2568 17-08-2018 21:55:00 17.9 C 79 % 14.21 C
2569 17-08-2018 22:00:00 17.9 C 79 % 14.21 C
2570 17-08-2018 22:05:00 17.8 C 79 % 14.11 C
2571 17-08-2018 22:10:00 17.7 C 79 % 14.01 C
2572 17-08-2018 22:15:00 17.7 C 80 % 14.21 C
2573 17-08-2018 22:20:00 17.6 C 80 % 14.11 C
2574 17-08-2018 22:25:00 17.5 C 80 % 14.01 C
2575 17-08-2018 22:30:00 17.4 C 80 % 13.92 C
Sensor: Nr:Datum:Temp:Feuchte:Taupunkt:
Aussen-T/F 2576 17-08-2018 22:35:00 17.4 C 80 % 13.92 C
2577 17-08-2018 22:40:00 17.3 C 80 % 13.82 C
2578 17-08-2018 22:45:00 17.3 C 80 % 13.82 C
2579 17-08-2018 22:50:00 17.2 C 80 % 13.72 C
2580 17-08-2018 22:55:00 17.1 C 80 % 13.62 C
2581 17-08-2018 23:00:00 17.1 C 80 % 13.62 C
2582 17-08-2018 23:05:00 17 C 80 % 13.53 C
2583 17-08-2018 23:10:00 16.9 C 80 % 13.43 C
2584 17-08-2018 23:15:00 16.9 C 80 % 13.43 C
2585 17-08-2018 23:20:00 16.8 C 80 % 13.33 C
2586 17-08-2018 23:25:00 16.7 C 81 % 13.43 C
2587 17-08-2018 23:30:00 16.7 C 81 % 13.43 C
2588 17-08-2018 23:35:00 16.5 C 81 % 13.23 C
2589 17-08-2018 23:40:00 16.4 C 82 % 13.32 C
2590 17-08-2018 23:45:00 16.3 C 82 % 13.22 C
2591 17-08-2018 23:50:00 16.3 C 82 % 13.22 C
2592 17-08-2018 23:55:00 16.2 C 82 % 13.13 C
2593 18-08-2018 00:00:00 16.2 C 82 % 13.13 C
2594 18-08-2018 00:05:00 16.1 C 82 % 13.03 C
2595 18-08-2018 00:10:00 16.1 C 83 % 13.21 C
2596 18-08-2018 00:15:00 16 C 83 % 13.12 C
2597 18-08-2018 00:20:00 15.9 C 83 % 13.02 C
2598 18-08-2018 00:25:00 15.8 C 83 % 12.92 C
2599 18-08-2018 00:30:00 15.7 C 83 % 12.82 C
2600 18-08-2018 00:35:00 15.6 C 83 % 12.72 C
Sensor: Nr:Datum:Temp:Feuchte:Taupunkt:
Aussen-T/F 2601 18-08-2018 00:40:00 15.5 C 84 % 12.81 C
2602 18-08-2018 00:45:00 15.4 C 84 % 12.71 C
2603 18-08-2018 00:50:00 15.3 C 84 % 12.61 C
2604 18-08-2018 00:55:00 15.3 C 84 % 12.61 C
2605 18-08-2018 01:00:00 15.2 C 85 % 12.7 C
2606 18-08-2018 01:05:00 15.1 C 85 % 12.6 C
2607 18-08-2018 01:10:00 15 C 85 % 12.5 C
2608 18-08-2018 01:15:00 14.9 C 86 % 12.58 C
2609 18-08-2018 01:20:00 14.8 C 86 % 12.48 C
2610 18-08-2018 01:25:00 14.7 C 86 % 12.38 C
2611 18-08-2018 01:30:00 14.7 C 86 % 12.38 C
2612 18-08-2018 01:35:00 14.7 C 87 % 12.56 C
2613 18-08-2018 01:40:00 14.7 C 87 % 12.56 C
2614 18-08-2018 01:45:00 14.7 C 87 % 12.56 C
2615 18-08-2018 01:50:00 14.6 C 87 % 12.46 C
2616 18-08-2018 01:55:00 14.6 C 87 % 12.46 C
2617 18-08-2018 02:00:00 14.4 C 87 % 12.27 C
2618 18-08-2018 02:05:00 14.3 C 87 % 12.17 C
2619 18-08-2018 02:10:00 14.3 C 87 % 12.17 C
2620 18-08-2018 02:15:00 14.2 C 87 % 12.07 C
2621 18-08-2018 02:20:00 14.2 C 87 % 12.07 C
2622 18-08-2018 02:25:00 14.1 C 88 % 12.14 C
2623 18-08-2018 02:30:00 14.1 C 88 % 12.14 C
2624 18-08-2018 02:35:00 14.1 C 88 % 12.14 C
2625 18-08-2018 02:40:00 14 C 88 % 12.05 C
Sensor: Nr:Datum:Temp:Feuchte:Taupunkt:
Aussen-T/F 2626 18-08-2018 02:45:00 14 C 88 % 12.05 C
2627 18-08-2018 02:50:00 13.9 C 88 % 11.95 C
2628 18-08-2018 02:55:00 13.9 C 88 % 11.95 C
2629 18-08-2018 03:00:00 13.8 C 88 % 11.85 C
2630 18-08-2018 03:05:00 13.8 C 89 % 12.02 C
2631 18-08-2018 03:10:00 13.7 C 89 % 11.92 C
2632 18-08-2018 03:15:00 13.7 C 88 % 11.75 C
2633 18-08-2018 03:20:00 13.6 C 89 % 11.82 C
2634 18-08-2018 03:25:00 13.5 C 89 % 11.72 C
2635 18-08-2018 03:30:00 13.5 C 89 % 11.72 C
2636 18-08-2018 03:35:00 13.4 C 89 % 11.63 C
2637 18-08-2018 03:40:00 13.4 C 89 % 11.63 C
2638 18-08-2018 03:45:00 13.2 C 89 % 11.43 C
2639 18-08-2018 03:50:00 13.2 C 89 % 11.43 C
2640 18-08-2018 03:55:00 13.2 C 90 % 11.6 C
2641 18-08-2018 04:00:00 13.1 C 90 % 11.5 C
2642 18-08-2018 04:05:00 13.1 C 89 % 11.33 C
2643 18-08-2018 04:10:00 13 C 90 % 11.4 C
2644 18-08-2018 04:15:00 12.9 C 90 % 11.3 C
2645 18-08-2018 04:20:00 12.9 C 90 % 11.3 C
2646 18-08-2018 04:25:00 12.8 C 90 % 11.2 C
2647 18-08-2018 04:30:00 12.8 C 90 % 11.2 C
2648 18-08-2018 04:35:00 12.8 C 90 % 11.2 C
2649 18-08-2018 04:40:00 12.8 C 91 % 11.37 C
2650 18-08-2018 04:45:00 12.8 C 90 % 11.2 C
Sensor: Nr:Datum:Temp:Feuchte:Taupunkt:
Aussen-T/F 2651 18-08-2018 04:50:00 12.7 C 90 % 11.1 C
2652 18-08-2018 04:55:00 12.7 C 91 % 11.27 C
2653 18-08-2018 05:00:00 12.7 C 91 % 11.27 C
2654 18-08-2018 05:05:00 12.6 C 91 % 11.17 C
2655 18-08-2018 05:10:00 12.6 C 91 % 11.17 C
2656 18-08-2018 05:15:00 12.5 C 91 % 11.07 C
2657 18-08-2018 05:20:00 12.5 C 91 % 11.07 C
2658 18-08-2018 05:25:00 12.5 C 91 % 11.07 C
2659 18-08-2018 05:30:00 12.6 C 91 % 11.17 C
2660 18-08-2018 05:35:00 12.5 C 91 % 11.07 C
2661 18-08-2018 05:40:00 12.4 C 91 % 10.97 C
2662 18-08-2018 05:45:00 12.4 C 91 % 10.97 C
2663 18-08-2018 05:50:00 12.4 C 92 % 11.14 C
2664 18-08-2018 05:55:00 12.4 C 92 % 11.14 C
2665 18-08-2018 06:00:00 12.3 C 91 % 10.87 C
2666 18-08-2018 06:05:00 12.3 C 91 % 10.87 C
2667 18-08-2018 06:10:00 12.2 C 91 % 10.78 C
2668 18-08-2018 06:15:00 12.2 C 91 % 10.78 C
2669 18-08-2018 06:20:00 12.1 C 91 % 10.68 C
2670 18-08-2018 06:25:00 12 C 92 % 10.74 C
2671 18-08-2018 06:30:00 11.9 C 92 % 10.64 C
2672 18-08-2018 06:35:00 11.9 C 92 % 10.64 C
2673 18-08-2018 06:40:00 11.9 C 92 % 10.64 C
2674 18-08-2018 06:45:00 11.9 C 92 % 10.64 C
2675 18-08-2018 06:50:00 11.8 C 92 % 10.54 C
Sensor: Nr:Datum:Temp:Feuchte:Taupunkt:
Aussen-T/F 2676 18-08-2018 06:55:00 11.8 C 92 % 10.54 C
2677 18-08-2018 07:00:00 11.9 C 92 % 10.64 C
2678 18-08-2018 07:05:00 11.9 C 92 % 10.64 C
2679 18-08-2018 07:10:00 11.9 C 92 % 10.64 C
2680 18-08-2018 07:15:00 11.9 C 92 % 10.64 C
2681 18-08-2018 07:20:00 11.9 C 92 % 10.64 C
2682 18-08-2018 07:25:00 12 C 92 % 10.74 C
2683 18-08-2018 07:30:00 12.1 C 93 % 11 C
2684 18-08-2018 07:35:00 12.1 C 93 % 11 C
2685 18-08-2018 07:40:00 12.1 C 93 % 11 C
2686 18-08-2018 07:45:00 12.2 C 93 % 11.1 C
2687 18-08-2018 07:50:00 12.2 C 93 % 11.1 C
2688 18-08-2018 07:55:00 12.2 C 93 % 11.1 C
2689 18-08-2018 08:00:00 12.3 C 93 % 11.2 C
2690 18-08-2018 08:05:00 12.3 C 93 % 11.2 C
2691 18-08-2018 08:10:00 12.3 C 93 % 11.2 C
2692 18-08-2018 08:15:00 12.3 C 93 % 11.2 C
2693 18-08-2018 08:20:00 12.4 C 93 % 11.3 C
2694 18-08-2018 08:25:00 12.4 C 93 % 11.3 C
2695 18-08-2018 08:30:00 12.5 C 93 % 11.4 C
2696 18-08-2018 08:35:00 12.6 C 93 % 11.5 C
2697 18-08-2018 08:40:00 12.6 C 93 % 11.5 C
2698 18-08-2018 08:45:00 12.7 C 93 % 11.6 C
2699 18-08-2018 08:50:00 12.7 C 93 % 11.6 C
2700 18-08-2018 08:55:00 12.8 C 93 % 11.7 C
Sensor: Nr:Datum:Temp:Feuchte:Taupunkt:
Aussen-T/F 2701 18-08-2018 09:00:00 12.9 C 93 % 11.8 C
2702 18-08-2018 09:05:00 13.1 C 93 % 11.99 C
2703 18-08-2018 09:10:00 13.2 C 93 % 12.09 C
2704 18-08-2018 09:15:00 13.3 C 93 % 12.19 C
2705 18-08-2018 09:20:00 13.4 C 93 % 12.29 C
2706 18-08-2018 09:25:00 13.5 C 93 % 12.39 C
2707 18-08-2018 09:30:00 13.7 C 93 % 12.59 C
2708 18-08-2018 09:35:00 13.8 C 93 % 12.69 C
2709 18-08-2018 09:40:00 13.9 C 93 % 12.79 C
2710 18-08-2018 09:45:00 14.1 C 93 % 12.99 C
2711 18-08-2018 09:50:00 14.2 C 93 % 13.08 C
2712 18-08-2018 09:55:00 14.3 C 93 % 13.18 C
2713 18-08-2018 10:00:00 14.4 C 92 % 13.12 C
2714 18-08-2018 10:05:00 14.6 C 92 % 13.32 C
2715 18-08-2018 10:10:00 14.8 C 91 % 13.35 C
2716 18-08-2018 10:15:00 15 C 91 % 13.54 C
2717 18-08-2018 10:20:00 15.2 C 91 % 13.74 C
2718 18-08-2018 10:25:00 15.4 C 90 % 13.77 C
2719 18-08-2018 10:30:00 15.6 C 89 % 13.79 C
2720 18-08-2018 10:35:00 15.9 C 87 % 13.74 C
2721 18-08-2018 10:40:00 16.3 C 86 % 13.95 C
2722 18-08-2018 10:45:00 16.6 C 84 % 13.89 C
2723 18-08-2018 10:50:00 16.9 C 83 % 14 C
2724 18-08-2018 10:55:00 17.2 C 82 % 14.1 C
2725 18-08-2018 11:00:00 17.4 C 81 % 14.11 C
Sensor: Nr:Datum:Temp:Feuchte:Taupunkt:
Aussen-T/F 2726 18-08-2018 11:05:00 17.7 C 80 % 14.21 C
2727 18-08-2018 11:10:00 17.9 C 79 % 14.21 C
2728 18-08-2018 11:15:00 18.1 C 77 % 14.01 C
2729 18-08-2018 11:20:00 18.4 C 77 % 14.3 C
2730 18-08-2018 11:25:00 18.6 C 76 % 14.29 C
2731 18-08-2018 11:30:00 18.8 C 73 % 13.86 C
2732 18-08-2018 11:35:00 19.1 C 72 % 13.94 C
2733 18-08-2018 11:40:00 19.2 C 72 % 14.03 C
2734 18-08-2018 11:45:00 19.5 C 70 % 13.89 C
2735 18-08-2018 11:50:00 19.7 C 65 % 12.94 C
2736 18-08-2018 11:55:00 20 C 64 % 12.99 C
2737 18-08-2018 12:00:00 20.2 C 64 % 13.18 C
2738 18-08-2018 12:05:00 20.4 C 62 % 12.88 C
2739 18-08-2018 12:10:00 20.7 C 59 % 12.41 C
2740 18-08-2018 12:15:00 20.8 C 58 % 12.24 C
2741 18-08-2018 12:20:00 20.9 C 59 % 12.59 C
2742 18-08-2018 12:25:00 21.2 C 60 % 13.13 C
2743 18-08-2018 12:30:00 21.3 C 60 % 13.22 C
2744 18-08-2018 12:35:00 21.3 C 60 % 13.22 C
2745 18-08-2018 12:40:00 21.4 C 58 % 12.8 C
2746 18-08-2018 12:45:00 21.4 C 59 % 13.06 C
2747 18-08-2018 12:50:00 21.5 C 57 % 12.63 C
2748 18-08-2018 12:55:00 21.6 C 58 % 12.99 C
2749 18-08-2018 13:00:00 21.7 C 59 % 13.34 C
2750 18-08-2018 13:05:00 21.8 C 59 % 13.44 C
Sensor: Nr:Datum:Temp:Feuchte:Taupunkt:
Aussen-T/F 2751 18-08-2018 13:10:00 21.8 C 54 % 12.08 C
2752 18-08-2018 13:15:00 21.9 C 53 % 11.89 C
2753 18-08-2018 13:20:00 21.9 C 54 % 12.18 C
2754 18-08-2018 13:25:00 22 C 53 % 11.99 C
2755 18-08-2018 13:30:00 22.3 C 51 % 11.68 C
2756 18-08-2018 13:35:00 22.5 C 53 % 12.45 C
2757 18-08-2018 13:40:00 22.7 C 52 % 12.34 C
2758 18-08-2018 13:45:00 22.8 C 51 % 12.14 C
2759 18-08-2018 13:50:00 22.8 C 50 % 11.84 C
2760 18-08-2018 13:55:00 22.9 C 50 % 11.93 C
2761 18-08-2018 14:00:00 23.1 C 50 % 12.11 C
2762 18-08-2018 14:05:00 23.1 C 49 % 11.81 C
2763 18-08-2018 14:10:00 23.3 C 48 % 11.68 C
2764 18-08-2018 14:15:00 23.4 C 48 % 11.77 C
2765 18-08-2018 14:20:00 23.6 C 47 % 11.63 C
2766 18-08-2018 14:25:00 23.6 C 46 % 11.31 C
2767 18-08-2018 14:30:00 23.7 C 45 % 11.07 C
2768 18-08-2018 14:35:00 23.8 C 46 % 11.49 C
2769 18-08-2018 14:40:00 23.8 C 47 % 11.82 C
2770 18-08-2018 14:45:00 23.9 C 45 % 11.25 C
2771 18-08-2018 14:50:00 24 C 45 % 11.34 C
2772 18-08-2018 14:55:00 24.2 C 45 % 11.52 C
2773 18-08-2018 15:00:00 24.3 C 44 % 11.27 C
2774 18-08-2018 15:05:00 24.4 C 45 % 11.7 C
2775 18-08-2018 15:10:00 24.5 C 44 % 11.45 C
Sensor: Nr:Datum:Temp:Feuchte:Taupunkt:
Aussen-T/F 2776 18-08-2018 15:15:00 24.7 C 44 % 11.63 C
2777 18-08-2018 15:20:00 24.9 C 43 % 11.47 C
2778 18-08-2018 15:25:00 25.1 C 43 % 11.65 C
2779 18-08-2018 15:30:00 25.2 C 42 % 11.38 C
2780 18-08-2018 15:35:00 25.3 C 41 % 11.11 C
2781 18-08-2018 15:40:00 25.3 C 45 % 12.52 C
2782 18-08-2018 15:45:00 25.4 C 42 % 11.56 C
2783 18-08-2018 15:50:00 25.4 C 41 % 11.2 C
2784 18-08-2018 15:55:00 25.6 C 41 % 11.38 C
2785 18-08-2018 16:00:00 26 C 41 % 11.73 C
2786 18-08-2018 16:05:00 26.3 C 39 % 11.25 C
2787 18-08-2018 16:10:00 26.4 C 41 % 12.09 C
2788 18-08-2018 16:15:00 26.8 C 41 % 12.45 C
2789 18-08-2018 16:20:00 27.2 C 39 % 12.05 C
2790 18-08-2018 16:25:00 27.4 C 36 % 11.01 C
2791 18-08-2018 16:30:00 27.6 C 39 % 12.4 C
2792 18-08-2018 16:35:00 27.8 C 37 % 11.78 C
2793 18-08-2018 16:40:00 27.8 C 37 % 11.78 C
2794 18-08-2018 16:45:00 27.7 C 37 % 11.69 C
2795 18-08-2018 16:50:00 27.3 C 36 % 10.93 C
2796 18-08-2018 16:55:00 27.3 C 36 % 10.93 C
2797 18-08-2018 17:00:00 27.4 C 37 % 11.43 C
2798 18-08-2018 17:05:00 27.6 C 38 % 12.01 C
2799 18-08-2018 17:10:00 27.7 C 37 % 11.69 C
2800 18-08-2018 17:15:00 27.6 C 37 % 11.6 C
Sensor: Nr:Datum:Temp:Feuchte:Taupunkt:
Aussen-T/F 2801 18-08-2018 17:20:00 27.6 C 36 % 11.19 C
2802 18-08-2018 17:25:00 27.6 C 36 % 11.19 C
2803 18-08-2018 17:30:00 27.6 C 36 % 11.19 C
2804 18-08-2018 17:35:00 27.7 C 36 % 11.28 C
2805 18-08-2018 17:40:00 27.8 C 35 % 10.94 C
2806 18-08-2018 17:45:00 28.1 C 35 % 11.2 C
2807 18-08-2018 17:50:00 28.1 C 35 % 11.2 C
2808 18-08-2018 17:55:00 28.2 C 34 % 10.86 C
2809 18-08-2018 18:00:00 28.1 C 34 % 10.77 C
2810 18-08-2018 18:05:00 28.2 C 35 % 11.29 C
2811 18-08-2018 18:10:00 28.2 C 35 % 11.29 C
2812 18-08-2018 18:15:00 28.2 C 36 % 11.72 C
2813 18-08-2018 18:20:00 28.2 C 35 % 11.29 C
2814 18-08-2018 18:25:00 28.2 C 35 % 11.29 C
2815 18-08-2018 18:30:00 28.2 C 35 % 11.29 C
2816 18-08-2018 18:35:00 28.2 C 35 % 11.29 C
2817 18-08-2018 18:40:00 28.1 C 35 % 11.2 C
2818 18-08-2018 18:45:00 28.3 C 34 % 10.94 C
2819 18-08-2018 18:50:00 28.4 C 34 % 11.03 C
2820 18-08-2018 18:55:00 28.5 C 33 % 10.67 C
2821 18-08-2018 19:00:00 28.6 C 33 % 10.76 C
2822 18-08-2018 19:05:00 28.6 C 33 % 10.76 C
2823 18-08-2018 19:10:00 28.4 C 33 % 10.58 C
2824 18-08-2018 19:15:00 28.3 C 33 % 10.49 C
2825 18-08-2018 19:20:00 27.9 C 36 % 11.45 C
Sensor: Nr:Datum:Temp:Feuchte:Taupunkt:
Aussen-T/F 2826 18-08-2018 19:25:00 27.5 C 35 % 10.68 C
2827 18-08-2018 19:30:00 27.3 C 37 % 11.34 C
2828 18-08-2018 19:35:00 27.1 C 39 % 11.96 C
2829 18-08-2018 19:40:00 26.8 C 43 % 13.18 C
2830 18-08-2018 19:45:00 26.4 C 45 % 13.51 C
2831 18-08-2018 19:50:00 25.8 C 46 % 13.31 C
2832 18-08-2018 19:55:00 25.2 C 48 % 13.41 C
2833 18-08-2018 20:00:00 24.9 C 43 % 11.47 C
2834 18-08-2018 20:05:00 24.9 C 42 % 11.11 C
2835 18-08-2018 20:10:00 25.1 C 43 % 11.65 C
2836 18-08-2018 20:15:00 25.2 C 44 % 12.09 C
2837 18-08-2018 20:20:00 25.1 C 43 % 11.65 C
2838 18-08-2018 20:25:00 24.8 C 44 % 11.72 C
2839 18-08-2018 20:30:00 24.7 C 48 % 12.96 C
2840 18-08-2018 20:35:00 24.4 C 50 % 13.31 C
2841 18-08-2018 20:40:00 23.8 C 49 % 12.45 C
2842 18-08-2018 20:45:00 23.3 C 49 % 11.99 C
2843 18-08-2018 20:50:00 22.9 C 54 % 13.1 C
2844 18-08-2018 20:55:00 22.5 C 54 % 12.73 C
2845 18-08-2018 21:00:00 22.1 C 54 % 12.36 C
2846 18-08-2018 21:05:00 21.8 C 55 % 12.36 C
2847 18-08-2018 21:10:00 21.6 C 56 % 12.45 C
2848 18-08-2018 21:15:00 21.4 C 56 % 12.27 C
2849 18-08-2018 21:20:00 21.3 C 58 % 12.71 C
2850 18-08-2018 21:25:00 21.2 C 59 % 12.87 C
Sensor: Nr:Datum:Temp:Feuchte:Taupunkt:
Aussen-T/F 2851 18-08-2018 21:30:00 20.9 C 59 % 12.59 C
2852 18-08-2018 21:35:00 20.7 C 60 % 12.66 C
2853 18-08-2018 21:40:00 20.5 C 61 % 12.73 C
2854 18-08-2018 21:45:00 20.2 C 62 % 12.69 C
2855 18-08-2018 21:50:00 20.1 C 63 % 12.84 C
2856 18-08-2018 21:55:00 19.9 C 62 % 12.41 C
2857 18-08-2018 22:00:00 19.8 C 63 % 12.56 C
2858 18-08-2018 22:05:00 19.7 C 64 % 12.7 C
2859 18-08-2018 22:10:00 19.6 C 65 % 12.84 C
2860 18-08-2018 22:15:00 19.6 C 65 % 12.84 C
2861 18-08-2018 22:20:00 19.5 C 64 % 12.51 C
2862 18-08-2018 22:25:00 19.4 C 66 % 12.89 C
2863 18-08-2018 22:30:00 19.3 C 66 % 12.79 C
2864 18-08-2018 22:35:00 19.2 C 66 % 12.7 C
2865 18-08-2018 22:40:00 19.1 C 67 % 12.83 C
2866 18-08-2018 22:45:00 19 C 67 % 12.74 C
2867 18-08-2018 22:50:00 18.9 C 67 % 12.64 C
2868 18-08-2018 22:55:00 18.8 C 67 % 12.55 C
2869 18-08-2018 23:00:00 18.7 C 68 % 12.68 C
2870 18-08-2018 23:05:00 18.7 C 68 % 12.68 C
2871 18-08-2018 23:10:00 18.6 C 68 % 12.58 C
2872 18-08-2018 23:15:00 18.4 C 69 % 12.61 C
2873 18-08-2018 23:20:00 18.4 C 69 % 12.61 C
2874 18-08-2018 23:25:00 18.3 C 69 % 12.52 C
2875 18-08-2018 23:30:00 18.2 C 69 % 12.42 C
Sensor: Nr:Datum:Temp:Feuchte:Taupunkt:
Aussen-T/F 2876 18-08-2018 23:35:00 18.2 C 70 % 12.64 C
2877 18-08-2018 23:40:00 18.1 C 70 % 12.55 C
2878 18-08-2018 23:45:00 17.9 C 71 % 12.57 C
2879 18-08-2018 23:50:00 17.8 C 71 % 12.47 C
2880 18-08-2018 23:55:00 17.6 C 71 % 12.28 C
2881 19-08-2018 00:00:00 17.3 C 72 % 12.21 C
2882 19-08-2018 00:05:00 17.2 C 73 % 12.32 C
2883 19-08-2018 00:10:00 17.1 C 74 % 12.43 C
2884 19-08-2018 00:15:00 16.9 C 74 % 12.24 C
2885 19-08-2018 00:20:00 16.8 C 74 % 12.14 C
2886 19-08-2018 00:25:00 16.7 C 75 % 12.25 C
2887 19-08-2018 00:30:00 16.5 C 76 % 12.26 C
2888 19-08-2018 00:35:00 16.4 C 76 % 12.16 C
2889 19-08-2018 00:40:00 16.2 C 77 % 12.17 C
2890 19-08-2018 00:45:00 16.1 C 77 % 12.07 C
2891 19-08-2018 00:50:00 15.9 C 78 % 12.07 C
2892 19-08-2018 00:55:00 15.8 C 78 % 11.97 C
2893 19-08-2018 01:00:00 15.7 C 78 % 11.88 C
2894 19-08-2018 01:05:00 15.6 C 79 % 11.97 C
2895 19-08-2018 01:10:00 15.5 C 78 % 11.68 C
2896 19-08-2018 01:15:00 15.4 C 79 % 11.78 C
2897 19-08-2018 01:20:00 15.3 C 80 % 11.87 C
2898 19-08-2018 01:25:00 15.2 C 80 % 11.78 C
2899 19-08-2018 01:30:00 15.1 C 80 % 11.68 C
2900 19-08-2018 01:35:00 15.1 C 80 % 11.68 C
Sensor: Nr:Datum:Temp:Feuchte:Taupunkt:
Aussen-T/F 2901 19-08-2018 01:40:00 15 C 81 % 11.77 C
2902 19-08-2018 01:45:00 14.9 C 81 % 11.67 C
2903 19-08-2018 01:50:00 14.8 C 81 % 11.57 C
2904 19-08-2018 01:55:00 14.8 C 82 % 11.76 C
2905 19-08-2018 02:00:00 14.7 C 82 % 11.66 C
2906 19-08-2018 02:05:00 14.6 C 82 % 11.56 C
2907 19-08-2018 02:10:00 14.5 C 82 % 11.47 C
2908 19-08-2018 02:15:00 14.4 C 83 % 11.55 C
2909 19-08-2018 02:20:00 14.4 C 83 % 11.55 C
2910 19-08-2018 02:25:00 14.3 C 83 % 11.45 C
2911 19-08-2018 02:30:00 14.3 C 83 % 11.45 C
2912 19-08-2018 02:35:00 14.2 C 83 % 11.36 C
2913 19-08-2018 02:40:00 14.2 C 84 % 11.54 C
2914 19-08-2018 02:45:00 14.2 C 84 % 11.54 C
2915 19-08-2018 02:50:00 14.2 C 84 % 11.54 C
2916 19-08-2018 02:55:00 14.2 C 84 % 11.54 C
2917 19-08-2018 03:00:00 14.2 C 85 % 11.72 C
2918 19-08-2018 03:05:00 14.2 C 85 % 11.72 C
2919 19-08-2018 03:10:00 14.2 C 85 % 11.72 C
2920 19-08-2018 03:15:00 14.1 C 85 % 11.62 C
2921 19-08-2018 03:20:00 14.1 C 85 % 11.62 C
2922 19-08-2018 03:25:00 14 C 85 % 11.52 C
2923 19-08-2018 03:30:00 13.9 C 86 % 11.6 C
2924 19-08-2018 03:35:00 13.9 C 86 % 11.6 C
2925 19-08-2018 03:40:00 13.8 C 86 % 11.5 C
Sensor: Nr:Datum:Temp:Feuchte:Taupunkt:
Aussen-T/F 2926 19-08-2018 03:45:00 13.8 C 86 % 11.5 C
2927 19-08-2018 03:50:00 13.7 C 86 % 11.4 C
2928 19-08-2018 03:55:00 13.7 C 87 % 11.58 C
2929 19-08-2018 04:00:00 13.7 C 87 % 11.58 C
2930 19-08-2018 04:05:00 13.6 C 87 % 11.48 C
2931 19-08-2018 04:10:00 13.6 C 87 % 11.48 C
2932 19-08-2018 04:15:00 13.6 C 87 % 11.48 C
2933 19-08-2018 04:20:00 13.5 C 87 % 11.38 C
2934 19-08-2018 04:25:00 13.4 C 88 % 11.45 C
2935 19-08-2018 04:30:00 13.4 C 88 % 11.45 C
2936 19-08-2018 04:35:00 13.3 C 88 % 11.36 C
2937 19-08-2018 04:40:00 13.3 C 88 % 11.36 C
2938 19-08-2018 04:45:00 13.3 C 88 % 11.36 C
2939 19-08-2018 04:50:00 13.2 C 88 % 11.26 C
2940 19-08-2018 04:55:00 13.2 C 88 % 11.26 C
2941 19-08-2018 05:00:00 13.2 C 89 % 11.43 C
2942 19-08-2018 05:05:00 13.2 C 89 % 11.43 C
2943 19-08-2018 05:10:00 13.2 C 89 % 11.43 C
2944 19-08-2018 05:15:00 13.2 C 89 % 11.43 C
2945 19-08-2018 05:20:00 13.2 C 89 % 11.43 C
2946 19-08-2018 05:25:00 13.1 C 89 % 11.33 C
2947 19-08-2018 05:30:00 13.1 C 89 % 11.33 C
2948 19-08-2018 05:35:00 13.1 C 89 % 11.33 C
2949 19-08-2018 05:40:00 13 C 89 % 11.23 C
2950 19-08-2018 05:45:00 12.9 C 89 % 11.13 C
Sensor: Nr:Datum:Temp:Feuchte:Taupunkt:
Aussen-T/F 2951 19-08-2018 05:50:00 12.9 C 89 % 11.13 C
2952 19-08-2018 05:55:00 12.8 C 89 % 11.03 C
2953 19-08-2018 06:00:00 12.7 C 89 % 10.94 C
2954 19-08-2018 06:05:00 12.7 C 89 % 10.94 C
2955 19-08-2018 06:10:00 12.6 C 90 % 11 C
2956 19-08-2018 06:15:00 12.6 C 89 % 10.84 C
2957 19-08-2018 06:20:00 12.6 C 90 % 11 C
2958 19-08-2018 06:25:00 12.5 C 90 % 10.91 C
2959 19-08-2018 06:30:00 12.5 C 90 % 10.91 C
2960 19-08-2018 06:35:00 12.5 C 90 % 10.91 C
2961 19-08-2018 06:40:00 12.5 C 90 % 10.91 C
2962 19-08-2018 06:45:00 12.5 C 91 % 11.07 C
2963 19-08-2018 06:50:00 12.5 C 91 % 11.07 C
2964 19-08-2018 06:55:00 12.6 C 91 % 11.17 C
2965 19-08-2018 07:00:00 12.5 C 91 % 11.07 C
2966 19-08-2018 07:05:00 12.5 C 91 % 11.07 C
2967 19-08-2018 07:10:00 12.6 C 91 % 11.17 C
2968 19-08-2018 07:15:00 12.6 C 91 % 11.17 C
2969 19-08-2018 07:20:00 12.6 C 91 % 11.17 C
2970 19-08-2018 07:25:00 12.6 C 91 % 11.17 C
2971 19-08-2018 07:30:00 12.7 C 91 % 11.27 C
2972 19-08-2018 07:35:00 12.7 C 91 % 11.27 C
2973 19-08-2018 07:40:00 12.7 C 91 % 11.27 C
2974 19-08-2018 07:45:00 12.8 C 91 % 11.37 C
2975 19-08-2018 07:50:00 12.8 C 91 % 11.37 C
Sensor: Nr:Datum:Temp:Feuchte:Taupunkt:
Aussen-T/F 2976 19-08-2018 07:55:00 12.8 C 91 % 11.37 C
2977 19-08-2018 08:00:00 12.8 C 91 % 11.37 C
2978 19-08-2018 08:05:00 12.9 C 91 % 11.47 C
2979 19-08-2018 08:10:00 12.9 C 91 % 11.47 C
2980 19-08-2018 08:15:00 13 C 91 % 11.57 C
2981 19-08-2018 08:20:00 13 C 91 % 11.57 C
2982 19-08-2018 08:25:00 13.1 C 91 % 11.67 C
2983 19-08-2018 08:30:00 13.1 C 91 % 11.67 C
2984 19-08-2018 08:35:00 13.2 C 91 % 11.76 C
2985 19-08-2018 08:40:00 13.3 C 91 % 11.86 C
2986 19-08-2018 08:45:00 13.4 C 91 % 11.96 C
2987 19-08-2018 08:50:00 13.4 C 91 % 11.96 C
2988 19-08-2018 08:55:00 13.6 C 91 % 12.16 C
2989 19-08-2018 09:00:00 13.7 C 91 % 12.26 C
2990 19-08-2018 09:05:00 13.8 C 92 % 12.52 C
2991 19-08-2018 09:10:00 14 C 91 % 12.56 C
2992 19-08-2018 09:15:00 14.2 C 91 % 12.75 C
2993 19-08-2018 09:20:00 14.3 C 91 % 12.85 C
2994 19-08-2018 09:25:00 14.5 C 91 % 13.05 C
2995 19-08-2018 09:30:00 14.7 C 90 % 13.08 C
2996 19-08-2018 09:35:00 15 C 90 % 13.37 C
2997 19-08-2018 09:40:00 15.2 C 89 % 13.4 C
2998 19-08-2018 09:45:00 15.4 C 89 % 13.6 C
2999 19-08-2018 09:50:00 15.6 C 88 % 13.62 C
3000 19-08-2018 09:55:00 15.8 C 88 % 13.82 C
Sensor: Nr:Datum:Temp:Feuchte:Taupunkt:
Aussen-T/F 3001 19-08-2018 10:00:00 15.9 C 87 % 13.74 C
3002 19-08-2018 10:05:00 16.3 C 86 % 13.95 C
3003 19-08-2018 10:10:00 16.6 C 86 % 14.25 C
3004 19-08-2018 10:15:00 16.8 C 85 % 14.26 C
3005 19-08-2018 10:20:00 16.9 C 84 % 14.18 C
3006 19-08-2018 10:25:00 17.2 C 84 % 14.47 C
3007 19-08-2018 10:30:00 17.3 C 84 % 14.57 C
3008 19-08-2018 10:35:00 17.5 C 83 % 14.58 C
3009 19-08-2018 10:40:00 17.6 C 83 % 14.68 C
3010 19-08-2018 10:45:00 17.8 C 82 % 14.69 C
3011 19-08-2018 10:50:00 17.9 C 80 % 14.4 C
3012 19-08-2018 10:55:00 18.2 C 81 % 14.89 C
3013 19-08-2018 11:00:00 18.4 C 79 % 14.69 C
3014 19-08-2018 11:05:00 18.8 C 77 % 14.68 C
3015 19-08-2018 11:10:00 19.1 C 76 % 14.77 C
3016 19-08-2018 11:15:00 19.4 C 75 % 14.86 C
3017 19-08-2018 11:20:00 19.7 C 74 % 14.94 C
3018 19-08-2018 11:25:00 20 C 72 % 14.8 C
3019 19-08-2018 11:30:00 20.2 C 72 % 14.99 C
3020 19-08-2018 11:35:00 20.4 C 69 % 14.52 C
3021 19-08-2018 11:40:00 20.7 C 69 % 14.81 C
3022 19-08-2018 11:45:00 20.9 C 68 % 14.77 C
3023 19-08-2018 11:50:00 21.2 C 66 % 14.6 C
3024 19-08-2018 11:55:00 21.6 C 65 % 14.74 C
3025 19-08-2018 12:00:00 21.9 C 63 % 14.54 C
Sensor: Nr:Datum:Temp:Feuchte:Taupunkt:
Aussen-T/F 3026 19-08-2018 12:05:00 22.2 C 62 % 14.58 C
3027 19-08-2018 12:10:00 22.4 C 61 % 14.51 C
3028 19-08-2018 12:15:00 22.6 C 60 % 14.44 C
3029 19-08-2018 12:20:00 22.8 C 59 % 14.37 C
3030 19-08-2018 12:25:00 23.1 C 59 % 14.65 C
3031 19-08-2018 12:30:00 23.3 C 57 % 14.31 C
3032 19-08-2018 12:35:00 23.4 C 57 % 14.4 C
3033 19-08-2018 12:40:00 23.6 C 57 % 14.59 C
3034 19-08-2018 12:45:00 23.7 C 57 % 14.68 C
3035 19-08-2018 12:50:00 23.8 C 56 % 14.5 C
3036 19-08-2018 12:55:00 23.9 C 55 % 14.31 C
3037 19-08-2018 13:00:00 24.2 C 55 % 14.59 C
3038 19-08-2018 13:05:00 24.3 C 53 % 14.11 C
3039 19-08-2018 13:10:00 24.5 C 52 % 14 C
3040 19-08-2018 13:15:00 24.7 C 52 % 14.19 C
3041 19-08-2018 13:20:00 24.8 C 50 % 13.67 C
3042 19-08-2018 13:25:00 25.1 C 50 % 13.95 C
3043 19-08-2018 13:30:00 25.1 C 50 % 13.95 C
3044 19-08-2018 13:35:00 25.2 C 50 % 14.04 C
3045 19-08-2018 13:40:00 25.3 C 48 % 13.5 C
3046 19-08-2018 13:45:00 25.4 C 48 % 13.6 C
3047 19-08-2018 13:50:00 25.6 C 48 % 13.78 C
3048 19-08-2018 13:55:00 25.7 C 47 % 13.55 C
3049 19-08-2018 14:00:00 25.7 C 47 % 13.55 C
3050 19-08-2018 14:05:00 25.7 C 48 % 13.87 C
Sensor: Nr:Datum:Temp:Feuchte:Taupunkt:
Aussen-T/F 3051 19-08-2018 14:10:00 25.8 C 48 % 13.96 C
3052 19-08-2018 14:15:00 26 C 47 % 13.82 C
3053 19-08-2018 14:20:00 26.2 C 46 % 13.67 C
3054 19-08-2018 14:25:00 26.3 C 45 % 13.42 C
3055 19-08-2018 14:30:00 26.4 C 45 % 13.51 C
3056 19-08-2018 14:35:00 26.5 C 45 % 13.6 C
3057 19-08-2018 14:40:00 26.7 C 46 % 14.12 C
3058 19-08-2018 14:45:00 26.8 C 45 % 13.87 C
3059 19-08-2018 14:50:00 26.8 C 45 % 13.87 C
3060 19-08-2018 14:55:00 26.9 C 43 % 13.27 C
3061 19-08-2018 15:00:00 27.1 C 44 % 13.8 C
3062 19-08-2018 15:05:00 27.3 C 44 % 13.98 C
3063 19-08-2018 15:10:00 27.5 C 43 % 13.81 C
3064 19-08-2018 15:15:00 27.7 C 43 % 13.99 C
3065 19-08-2018 15:20:00 27.8 C 44 % 14.43 C
3066 19-08-2018 15:25:00 27.9 C 44 % 14.52 C
3067 19-08-2018 15:30:00 28 C 44 % 14.61 C
3068 19-08-2018 15:35:00 28.1 C 43 % 14.35 C
3069 19-08-2018 15:40:00 28.2 C 44 % 14.79 C
3070 19-08-2018 15:45:00 28.4 C 43 % 14.62 C
3071 19-08-2018 15:50:00 28.4 C 43 % 14.62 C
3072 19-08-2018 15:55:00 28.7 C 43 % 14.88 C
3073 19-08-2018 16:00:00 29 C 41 % 14.42 C
3074 19-08-2018 16:05:00 29.2 C 42 % 14.97 C
3075 19-08-2018 16:10:00 29.3 C 41 % 14.68 C
Sensor: Nr:Datum:Temp:Feuchte:Taupunkt:
Aussen-T/F 3076 19-08-2018 16:15:00 29.4 C 41 % 14.77 C
3077 19-08-2018 16:20:00 29.6 C 41 % 14.95 C
3078 19-08-2018 16:25:00 29.8 C 41 % 15.13 C
3079 19-08-2018 16:30:00 30.2 C 41 % 15.49 C
3080 19-08-2018 16:35:00 30.4 C 39 % 14.89 C
3081 19-08-2018 16:40:00 30.6 C 39 % 15.07 C
3082 19-08-2018 16:45:00 30.6 C 39 % 15.07 C
3083 19-08-2018 16:50:00 30.6 C 38 % 14.66 C
3084 19-08-2018 16:55:00 30.7 C 38 % 14.75 C
3085 19-08-2018 17:00:00 30.7 C 37 % 14.34 C
3086 19-08-2018 17:05:00 30.6 C 39 % 15.07 C
3087 19-08-2018 17:10:00 30.6 C 39 % 15.07 C
3088 19-08-2018 17:15:00 30.7 C 39 % 15.15 C
3089 19-08-2018 17:20:00 30.9 C 37 % 14.51 C
3090 19-08-2018 17:25:00 30.9 C 37 % 14.51 C
3091 19-08-2018 17:30:00 31.1 C 36 % 14.27 C
3092 19-08-2018 17:35:00 31.1 C 33 % 12.93 C
3093 19-08-2018 17:40:00 30.9 C 35 % 13.66 C
3094 19-08-2018 17:45:00 30.6 C 35 % 13.39 C
3095 19-08-2018 17:50:00 30.7 C 37 % 14.34 C
3096 19-08-2018 17:55:00 30.8 C 35 % 13.57 C
3097 19-08-2018 18:00:00 30.8 C 36 % 14 C
3098 19-08-2018 18:05:00 30.8 C 36 % 14 C
3099 19-08-2018 18:10:00 30.8 C 35 % 13.57 C
3100 19-08-2018 18:15:00 30.8 C 37 % 14.43 C
Sensor: Nr:Datum:Temp:Feuchte:Taupunkt:
Aussen-T/F 3101 19-08-2018 18:20:00 30.7 C 36 % 13.92 C
3102 19-08-2018 18:25:00 30.4 C 37 % 14.07 C
3103 19-08-2018 18:30:00 30.3 C 37 % 13.99 C
3104 19-08-2018 18:35:00 30.1 C 37 % 13.81 C
3105 19-08-2018 18:40:00 30.2 C 38 % 14.31 C
3106 19-08-2018 18:45:00 30.3 C 37 % 13.99 C
3107 19-08-2018 18:50:00 30.3 C 36 % 13.56 C
3108 19-08-2018 18:55:00 30.3 C 37 % 13.99 C
3109 19-08-2018 19:00:00 30.2 C 38 % 14.31 C
3110 19-08-2018 19:05:00 30 C 39 % 14.53 C
3111 19-08-2018 19:10:00 29.6 C 42 % 15.33 C
3112 19-08-2018 19:15:00 28.9 C 42 % 14.7 C
3113 19-08-2018 19:20:00 28.6 C 41 % 14.06 C
3114 19-08-2018 19:25:00 28.3 C 42 % 14.16 C
3115 19-08-2018 19:30:00 28.2 C 42 % 14.07 C
3116 19-08-2018 19:35:00 28.1 C 42 % 13.98 C
3117 19-08-2018 19:40:00 27.9 C 44 % 14.52 C
3118 19-08-2018 19:45:00 27.9 C 44 % 14.52 C
3119 19-08-2018 19:50:00 27.8 C 42 % 13.71 C
3120 19-08-2018 19:55:00 27.8 C 43 % 14.08 C
3121 19-08-2018 20:00:00 27.7 C 45 % 14.69 C
3122 19-08-2018 20:05:00 27.4 C 47 % 15.09 C
3123 19-08-2018 20:10:00 27.2 C 47 % 14.91 C
3124 19-08-2018 20:15:00 26.8 C 46 % 14.21 C
3125 19-08-2018 20:20:00 26.4 C 47 % 14.18 C
Sensor: Nr:Datum:Temp:Feuchte:Taupunkt:
Aussen-T/F 3126 19-08-2018 20:25:00 25.9 C 48 % 14.05 C
3127 19-08-2018 20:30:00 25.6 C 49 % 14.1 C
3128 19-08-2018 20:35:00 25.2 C 50 % 14.04 C
3129 19-08-2018 20:40:00 24.8 C 50 % 13.67 C
3130 19-08-2018 20:45:00 24.6 C 52 % 14.09 C
3131 19-08-2018 20:50:00 24.2 C 53 % 14.02 C
3132 19-08-2018 20:55:00 23.8 C 53 % 13.65 C
3133 19-08-2018 21:00:00 23.4 C 54 % 13.57 C
3134 19-08-2018 21:05:00 23.2 C 54 % 13.38 C
3135 19-08-2018 21:10:00 23 C 55 % 13.48 C
3136 19-08-2018 21:15:00 22.8 C 56 % 13.57 C
3137 19-08-2018 21:20:00 22.7 C 57 % 13.75 C
3138 19-08-2018 21:25:00 22.5 C 58 % 13.83 C
3139 19-08-2018 21:30:00 22.3 C 58 % 13.64 C
3140 19-08-2018 21:35:00 22.2 C 59 % 13.81 C
3141 19-08-2018 21:40:00 22.1 C 58 % 13.45 C
3142 19-08-2018 21:45:00 22 C 59 % 13.62 C
3143 19-08-2018 21:50:00 21.9 C 60 % 13.79 C
3144 19-08-2018 21:55:00 21.8 C 60 % 13.69 C
3145 19-08-2018 22:00:00 21.7 C 61 % 13.85 C
3146 19-08-2018 22:05:00 21.7 C 62 % 14.1 C
3147 19-08-2018 22:10:00 21.6 C 63 % 14.26 C
3148 19-08-2018 22:15:00 21.4 C 64 % 14.31 C
3149 19-08-2018 22:20:00 21.2 C 65 % 14.36 C
3150 19-08-2018 22:25:00 21 C 66 % 14.41 C
Sensor: Nr:Datum:Temp:Feuchte:Taupunkt:
Aussen-T/F 3151 19-08-2018 22:30:00 20.8 C 67 % 14.45 C
3152 19-08-2018 22:35:00 20.6 C 68 % 14.49 C
3153 19-08-2018 22:40:00 20.4 C 68 % 14.3 C
3154 19-08-2018 22:45:00 20.2 C 70 % 14.56 C
3155 19-08-2018 22:50:00 20.1 C 70 % 14.46 C
3156 19-08-2018 22:55:00 19.9 C 71 % 14.49 C
3157 19-08-2018 23:00:00 19.8 C 72 % 14.61 C
3158 19-08-2018 23:05:00 19.6 C 72 % 14.42 C
3159 19-08-2018 23:10:00 19.4 C 73 % 14.44 C
3160 19-08-2018 23:15:00 19.4 C 73 % 14.44 C
3161 19-08-2018 23:20:00 19.3 C 74 % 14.55 C
3162 19-08-2018 23:25:00 19.2 C 74 % 14.46 C
3163 19-08-2018 23:30:00 19.1 C 74 % 14.36 C
3164 19-08-2018 23:35:00 19.1 C 75 % 14.57 C
3165 19-08-2018 23:40:00 18.9 C 75 % 14.37 C
3166 19-08-2018 23:45:00 18.9 C 75 % 14.37 C
3167 19-08-2018 23:50:00 18.8 C 76 % 14.48 C
3168 19-08-2018 23:55:00 18.6 C 76 % 14.29 C
3169 20-08-2018 00:00:00 18.5 C 76 % 14.19 C
3170 20-08-2018 00:05:00 18.4 C 77 % 14.3 C
3171 20-08-2018 00:10:00 18.3 C 76 % 14 C
3172 20-08-2018 00:15:00 18.2 C 76 % 13.9 C
3173 20-08-2018 00:20:00 18.2 C 77 % 14.1 C
3174 20-08-2018 00:25:00 18.1 C 77 % 14.01 C
3175 20-08-2018 00:30:00 18.1 C 77 % 14.01 C
Sensor: Nr:Datum:Temp:Feuchte:Taupunkt:
Aussen-T/F 3176 20-08-2018 00:35:00 18 C 77 % 13.91 C
3177 20-08-2018 00:40:00 17.9 C 77 % 13.81 C
3178 20-08-2018 00:45:00 17.8 C 77 % 13.72 C
3179 20-08-2018 00:50:00 17.8 C 78 % 13.91 C
3180 20-08-2018 00:55:00 17.7 C 78 % 13.82 C
3181 20-08-2018 01:00:00 17.7 C 78 % 13.82 C
3182 20-08-2018 01:05:00 17.7 C 78 % 13.82 C
3183 20-08-2018 01:10:00 17.7 C 78 % 13.82 C
3184 20-08-2018 01:15:00 17.6 C 79 % 13.92 C
3185 20-08-2018 01:20:00 17.6 C 79 % 13.92 C
3186 20-08-2018 01:25:00 17.6 C 79 % 13.92 C
3187 20-08-2018 01:30:00 17.6 C 79 % 13.92 C
3188 20-08-2018 01:35:00 17.5 C 79 % 13.82 C
3189 20-08-2018 01:40:00 17.4 C 79 % 13.72 C
3190 20-08-2018 01:45:00 17.4 C 79 % 13.72 C
3191 20-08-2018 01:50:00 17.4 C 79 % 13.72 C
3192 20-08-2018 01:55:00 17.3 C 79 % 13.63 C
3193 20-08-2018 02:00:00 17.3 C 79 % 13.63 C
3194 20-08-2018 02:05:00 17.3 C 80 % 13.82 C
3195 20-08-2018 02:10:00 17.2 C 79 % 13.53 C
3196 20-08-2018 02:15:00 17.2 C 80 % 13.72 C
3197 20-08-2018 02:20:00 17.2 C 80 % 13.72 C
3198 20-08-2018 02:25:00 17.2 C 80 % 13.72 C
3199 20-08-2018 02:30:00 17.2 C 80 % 13.72 C
3200 20-08-2018 02:35:00 17.2 C 80 % 13.72 C
Sensor: Nr:Datum:Temp:Feuchte:Taupunkt:
Aussen-T/F 3201 20-08-2018 02:40:00 17.2 C 80 % 13.72 C
3202 20-08-2018 02:45:00 17.2 C 80 % 13.72 C
3203 20-08-2018 02:50:00 17.2 C 80 % 13.72 C
3204 20-08-2018 02:55:00 17.1 C 80 % 13.62 C
3205 20-08-2018 03:00:00 17 C 81 % 13.72 C
3206 20-08-2018 03:05:00 16.9 C 81 % 13.62 C
3207 20-08-2018 03:10:00 16.9 C 81 % 13.62 C
3208 20-08-2018 03:15:00 16.8 C 82 % 13.71 C
3209 20-08-2018 03:20:00 16.8 C 82 % 13.71 C
3210 20-08-2018 03:25:00 16.8 C 81 % 13.52 C
3211 20-08-2018 03:30:00 16.9 C 81 % 13.62 C
3212 20-08-2018 03:35:00 16.9 C 81 % 13.62 C
3213 20-08-2018 03:40:00 17 C 81 % 13.72 C
3214 20-08-2018 03:45:00 16.9 C 81 % 13.62 C
3215 20-08-2018 03:50:00 16.9 C 81 % 13.62 C
3216 20-08-2018 03:55:00 16.8 C 81 % 13.52 C
3217 20-08-2018 04:00:00 16.7 C 81 % 13.43 C
3218 20-08-2018 04:05:00 16.5 C 82 % 13.42 C
3219 20-08-2018 04:10:00 16.3 C 82 % 13.22 C
3220 20-08-2018 04:15:00 16.2 C 83 % 13.31 C
3221 20-08-2018 04:20:00 16.1 C 84 % 13.4 C
3222 20-08-2018 04:25:00 16.1 C 84 % 13.4 C
3223 20-08-2018 04:30:00 16 C 84 % 13.3 C
3224 20-08-2018 04:35:00 16 C 85 % 13.48 C
3225 20-08-2018 04:40:00 16 C 85 % 13.48 C
Sensor: Nr:Datum:Temp:Feuchte:Taupunkt:
Aussen-T/F 3226 20-08-2018 04:45:00 15.9 C 85 % 13.38 C
3227 20-08-2018 04:50:00 15.9 C 85 % 13.38 C
3228 20-08-2018 04:55:00 15.8 C 85 % 13.28 C
3229 20-08-2018 05:00:00 15.8 C 85 % 13.28 C
3230 20-08-2018 05:05:00 15.8 C 86 % 13.46 C
3231 20-08-2018 05:10:00 15.7 C 86 % 13.37 C
3232 20-08-2018 05:15:00 15.7 C 86 % 13.37 C
3233 20-08-2018 05:20:00 15.8 C 86 % 13.46 C
3234 20-08-2018 05:25:00 15.8 C 86 % 13.46 C
3235 20-08-2018 05:30:00 15.8 C 86 % 13.46 C
3236 20-08-2018 05:35:00 15.9 C 86 % 13.56 C
3237 20-08-2018 05:40:00 16.1 C 85 % 13.58 C
3238 20-08-2018 05:45:00 16.2 C 85 % 13.68 C
3239 20-08-2018 05:50:00 16.2 C 85 % 13.68 C
3240 20-08-2018 05:55:00 16.1 C 85 % 13.58 C
3241 20-08-2018 06:00:00 16.1 C 84 % 13.4 C
3242 20-08-2018 06:05:00 16 C 85 % 13.48 C
3243 20-08-2018 06:10:00 15.9 C 85 % 13.38 C
3244 20-08-2018 06:15:00 15.8 C 85 % 13.28 C
3245 20-08-2018 06:20:00 15.8 C 85 % 13.28 C
3246 20-08-2018 06:25:00 15.7 C 86 % 13.37 C
3247 20-08-2018 06:30:00 15.6 C 86 % 13.27 C
3248 20-08-2018 06:35:00 15.6 C 86 % 13.27 C
3249 20-08-2018 06:40:00 15.6 C 87 % 13.45 C
3250 20-08-2018 06:45:00 15.6 C 87 % 13.45 C
Sensor: Nr:Datum:Temp:Feuchte:Taupunkt:
Aussen-T/F 3251 20-08-2018 06:50:00 15.7 C 87 % 13.54 C
3252 20-08-2018 06:55:00 15.8 C 87 % 13.64 C
3253 20-08-2018 07:00:00 15.8 C 87 % 13.64 C
3254 20-08-2018 07:05:00 15.9 C 87 % 13.74 C
3255 20-08-2018 07:10:00 16.1 C 86 % 13.76 C
3256 20-08-2018 07:15:00 16.2 C 86 % 13.86 C
3257 20-08-2018 07:20:00 16.4 C 85 % 13.87 C
3258 20-08-2018 07:25:00 16.6 C 85 % 14.07 C
3259 20-08-2018 07:30:00 16.8 C 85 % 14.26 C
3260 20-08-2018 07:35:00 16.8 C 84 % 14.08 C
3261 20-08-2018 07:40:00 16.9 C 84 % 14.18 C
3262 20-08-2018 07:45:00 17 C 84 % 14.28 C
3263 20-08-2018 07:50:00 17.1 C 84 % 14.38 C
3264 20-08-2018 07:55:00 17.2 C 84 % 14.47 C
3265 20-08-2018 08:00:00 17.2 C 84 % 14.47 C
3266 20-08-2018 08:05:00 17.3 C 84 % 14.57 C
3267 20-08-2018 08:10:00 17.4 C 83 % 14.48 C
3268 20-08-2018 08:15:00 17.5 C 83 % 14.58 C
3269 20-08-2018 08:20:00 17.6 C 83 % 14.68 C
3270 20-08-2018 08:25:00 17.7 C 83 % 14.78 C
3271 20-08-2018 08:30:00 17.8 C 83 % 14.88 C
3272 20-08-2018 08:35:00 17.8 C 83 % 14.88 C
3273 20-08-2018 08:40:00 17.9 C 82 % 14.78 C
3274 20-08-2018 08:45:00 17.9 C 83 % 14.97 C
3275 20-08-2018 08:50:00 17.9 C 83 % 14.97 C
Sensor: Nr:Datum:Temp:Feuchte:Taupunkt:
Aussen-T/F 3276 20-08-2018 08:55:00 17.9 C 83 % 14.97 C
3277 20-08-2018 09:00:00 17.9 C 83 % 14.97 C
3278 20-08-2018 09:05:00 18 C 83 % 15.07 C
3279 20-08-2018 09:10:00 18.1 C 84 % 15.35 C
3280 20-08-2018 09:15:00 18.1 C 84 % 15.35 C
3281 20-08-2018 09:20:00 18.1 C 84 % 15.35 C
3282 20-08-2018 09:25:00 18.2 C 84 % 15.45 C
3283 20-08-2018 09:30:00 18.3 C 84 % 15.55 C
3284 20-08-2018 09:35:00 18.4 C 84 % 15.65 C
3285 20-08-2018 09:40:00 18.7 C 83 % 15.75 C
3286 20-08-2018 09:45:00 19 C 83 % 16.05 C
3287 20-08-2018 09:50:00 19.3 C 82 % 16.15 C
3288 20-08-2018 09:55:00 19.5 C 81 % 16.15 C
3289 20-08-2018 10:00:00 19.8 C 81 % 16.45 C
3290 20-08-2018 10:05:00 20.1 C 80 % 16.54 C
3291 20-08-2018 10:10:00 20.4 C 79 % 16.64 C
3292 20-08-2018 10:15:00 20.7 C 78 % 16.73 C
3293 20-08-2018 10:20:00 20.8 C 77 % 16.62 C
3294 20-08-2018 10:25:00 20.9 C 76 % 16.51 C
3295 20-08-2018 10:30:00 21 C 75 % 16.4 C
3296 20-08-2018 10:35:00 21.1 C 75 % 16.5 C
3297 20-08-2018 10:40:00 21.2 C 76 % 16.8 C
3298 20-08-2018 10:45:00 21.2 C 75 % 16.59 C
3299 20-08-2018 10:50:00 21.3 C 75 % 16.69 C
3300 20-08-2018 10:55:00 21.4 C 74 % 16.57 C
Sensor: Nr:Datum:Temp:Feuchte:Taupunkt:
Aussen-T/F 3301 20-08-2018 11:00:00 21.6 C 75 % 16.98 C
3302 20-08-2018 11:05:00 21.8 C 74 % 16.96 C
3303 20-08-2018 11:10:00 22.2 C 73 % 17.13 C
3304 20-08-2018 11:15:00 22.5 C 71 % 16.98 C
3305 20-08-2018 11:20:00 22.7 C 70 % 16.95 C
3306 20-08-2018 11:25:00 22.8 C 71 % 17.27 C
3307 20-08-2018 11:30:00 23 C 69 % 17.01 C
3308 20-08-2018 11:35:00 23.1 C 68 % 16.87 C
3309 20-08-2018 11:40:00 23.2 C 68 % 16.97 C
3310 20-08-2018 11:45:00 23.3 C 68 % 17.06 C
3311 20-08-2018 11:50:00 23.4 C 68 % 17.16 C
3312 20-08-2018 11:55:00 23.5 C 67 % 17.02 C
3313 20-08-2018 12:00:00 23.5 C 68 % 17.25 C
3314 20-08-2018 12:05:00 23.6 C 67 % 17.11 C
3315 20-08-2018 12:10:00 23.7 C 66 % 16.97 C
3316 20-08-2018 12:15:00 23.8 C 66 % 17.07 C
3317 20-08-2018 12:20:00 23.9 C 66 % 17.16 C
3318 20-08-2018 12:25:00 24.1 C 65 % 17.11 C
3319 20-08-2018 12:30:00 24.1 C 65 % 17.11 C
3320 20-08-2018 12:35:00 24.2 C 65 % 17.2 C
3321 20-08-2018 12:40:00 24.3 C 64 % 17.05 C
3322 20-08-2018 12:45:00 24.3 C 63 % 16.81 C
3323 20-08-2018 12:50:00 24.4 C 65 % 17.39 C
3324 20-08-2018 12:55:00 24.4 C 62 % 16.65 C
3325 20-08-2018 13:00:00 24.4 C 62 % 16.65 C
Sensor: Nr:Datum:Temp:Feuchte:Taupunkt:
Aussen-T/F 3326 20-08-2018 13:05:00 24.3 C 63 % 16.81 C
3327 20-08-2018 13:10:00 24.3 C 63 % 16.81 C
3328 20-08-2018 13:15:00 24.4 C 60 % 16.13 C
3329 20-08-2018 13:20:00 24.6 C 61 % 16.58 C
3330 20-08-2018 13:25:00 24.8 C 60 % 16.51 C
3331 20-08-2018 13:30:00 24.9 C 59 % 16.34 C
3332 20-08-2018 13:35:00 24.9 C 59 % 16.34 C
3333 20-08-2018 13:40:00 24.9 C 60 % 16.6 C
3334 20-08-2018 13:45:00 24.9 C 59 % 16.34 C
3335 20-08-2018 13:50:00 24.9 C 59 % 16.34 C
3336 20-08-2018 13:55:00 24.8 C 59 % 16.24 C
3337 20-08-2018 14:00:00 24.8 C 58 % 15.98 C
3338 20-08-2018 14:05:00 24.8 C 59 % 16.24 C
3339 20-08-2018 14:10:00 24.9 C 59 % 16.34 C
3340 20-08-2018 14:15:00 25 C 59 % 16.43 C
3341 20-08-2018 14:20:00 25.1 C 59 % 16.52 C
3342 20-08-2018 14:25:00 25.2 C 58 % 16.35 C
3343 20-08-2018 14:30:00 25.3 C 58 % 16.44 C
3344 20-08-2018 14:35:00 25.3 C 58 % 16.44 C
3345 20-08-2018 14:40:00 25.4 C 58 % 16.54 C
3346 20-08-2018 14:45:00 25.6 C 58 % 16.72 C
3347 20-08-2018 14:50:00 25.6 C 58 % 16.72 C
3348 20-08-2018 14:55:00 25.6 C 58 % 16.72 C
3349 20-08-2018 15:00:00 25.6 C 59 % 16.99 C
3350 20-08-2018 15:05:00 25.7 C 59 % 17.09 C
Sensor: Nr:Datum:Temp:Feuchte:Taupunkt:
Aussen-T/F 3351 20-08-2018 15:10:00 25.9 C 60 % 17.54 C
3352 20-08-2018 15:15:00 26.1 C 58 % 17.19 C
3353 20-08-2018 15:20:00 26.2 C 57 % 17.01 C
3354 20-08-2018 15:25:00 26 C 58 % 17.1 C
3355 20-08-2018 15:30:00 26 C 58 % 17.1 C
3356 20-08-2018 15:35:00 26 C 59 % 17.37 C
3357 20-08-2018 15:40:00 26.1 C 58 % 17.19 C
3358 20-08-2018 15:45:00 26.1 C 58 % 17.19 C
3359 20-08-2018 15:50:00 26.2 C 58 % 17.28 C
3360 20-08-2018 15:55:00 26.1 C 58 % 17.19 C
3361 20-08-2018 16:00:00 26 C 59 % 17.37 C
3362 20-08-2018 16:05:00 25.8 C 59 % 17.18 C
3363 20-08-2018 16:10:00 25.7 C 60 % 17.35 C
3364 20-08-2018 16:15:00 25.5 C 60 % 17.16 C
3365 20-08-2018 16:20:00 25.5 C 61 % 17.43 C
3366 20-08-2018 16:25:00 25.4 C 61 % 17.33 C
3367 20-08-2018 16:30:00 25.4 C 61 % 17.33 C
3368 20-08-2018 16:35:00 25.4 C 61 % 17.33 C
3369 20-08-2018 16:40:00 25.5 C 62 % 17.68 C
3370 20-08-2018 16:45:00 25.6 C 62 % 17.78 C
3371 20-08-2018 16:50:00 25.7 C 60 % 17.35 C
3372 20-08-2018 16:55:00 25.7 C 61 % 17.61 C
3373 20-08-2018 17:00:00 25.8 C 61 % 17.71 C
3374 20-08-2018 17:05:00 26.1 C 60 % 17.73 C
3375 20-08-2018 17:10:00 26.1 C 59 % 17.46 C
Sensor: Nr:Datum:Temp:Feuchte:Taupunkt:
Aussen-T/F 3376 20-08-2018 17:15:00 25.8 C 60 % 17.45 C
3377 20-08-2018 17:20:00 25.7 C 61 % 17.61 C
3378 20-08-2018 17:25:00 25.6 C 61 % 17.52 C
3379 20-08-2018 17:30:00 25.4 C 61 % 17.33 C
3380 20-08-2018 17:35:00 25.3 C 62 % 17.5 C
3381 20-08-2018 17:40:00 25.2 C 62 % 17.4 C
3382 20-08-2018 17:45:00 25.1 C 63 % 17.56 C
3383 20-08-2018 17:50:00 25.1 C 64 % 17.81 C
3384 20-08-2018 17:55:00 24.9 C 64 % 17.62 C
3385 20-08-2018 18:00:00 24.8 C 65 % 17.77 C
3386 20-08-2018 18:05:00 24.7 C 65 % 17.68 C
3387 20-08-2018 18:10:00 24.6 C 66 % 17.83 C
3388 20-08-2018 18:15:00 24.6 C 66 % 17.83 C
3389 20-08-2018 18:20:00 24.5 C 66 % 17.73 C
3390 20-08-2018 18:25:00 24.4 C 66 % 17.64 C
3391 20-08-2018 18:30:00 24.4 C 67 % 17.87 C
3392 20-08-2018 18:35:00 24.4 C 66 % 17.64 C
3393 20-08-2018 18:40:00 24.4 C 67 % 17.87 C
3394 20-08-2018 18:45:00 24.4 C 67 % 17.87 C
3395 20-08-2018 18:50:00 24.4 C 67 % 17.87 C
3396 20-08-2018 18:55:00 24.3 C 67 % 17.78 C
3397 20-08-2018 19:00:00 24.2 C 67 % 17.68 C
3398 20-08-2018 19:05:00 24.2 C 67 % 17.68 C
3399 20-08-2018 19:10:00 24.1 C 67 % 17.59 C
3400 20-08-2018 19:15:00 24.1 C 67 % 17.59 C
Sensor: Nr:Datum:Temp:Feuchte:Taupunkt:
Aussen-T/F 3401 20-08-2018 19:20:00 24.1 C 66 % 17.35 C
3402 20-08-2018 19:25:00 24 C 66 % 17.26 C
3403 20-08-2018 19:30:00 23.9 C 67 % 17.4 C
3404 20-08-2018 19:35:00 23.8 C 68 % 17.54 C
3405 20-08-2018 19:40:00 23.8 C 67 % 17.3 C
3406 20-08-2018 19:45:00 23.8 C 68 % 17.54 C
3407 20-08-2018 19:50:00 23.8 C 68 % 17.54 C
3408 20-08-2018 19:55:00 23.7 C 67 % 17.21 C
3409 20-08-2018 20:00:00 23.7 C 67 % 17.21 C
3410 20-08-2018 20:05:00 23.6 C 67 % 17.11 C
3411 20-08-2018 20:10:00 23.6 C 68 % 17.35 C
3412 20-08-2018 20:15:00 23.4 C 69 % 17.39 C
3413 20-08-2018 20:20:00 23.3 C 69 % 17.29 C
3414 20-08-2018 20:25:00 23.1 C 71 % 17.55 C
3415 20-08-2018 20:30:00 22.7 C 71 % 17.17 C
3416 20-08-2018 20:35:00 22.4 C 71 % 16.88 C
3417 20-08-2018 20:40:00 22.2 C 72 % 16.91 C
3418 20-08-2018 20:45:00 22.1 C 71 % 16.6 C
3419 20-08-2018 20:50:00 22.1 C 72 % 16.82 C
3420 20-08-2018 20:55:00 22.1 C 72 % 16.82 C
3421 20-08-2018 21:00:00 22.1 C 73 % 17.03 C
3422 20-08-2018 21:05:00 22.1 C 73 % 17.03 C
3423 20-08-2018 21:10:00 22.1 C 73 % 17.03 C
3424 20-08-2018 21:15:00 22.1 C 71 % 16.6 C
3425 20-08-2018 21:20:00 22.2 C 73 % 17.13 C
Sensor: Nr:Datum:Temp:Feuchte:Taupunkt:
Aussen-T/F 3426 20-08-2018 21:25:00 22.2 C 73 % 17.13 C
3427 20-08-2018 21:30:00 22.1 C 73 % 17.03 C
3428 20-08-2018 21:35:00 21.9 C 73 % 16.84 C
3429 20-08-2018 21:40:00 21.9 C 74 % 17.06 C
3430 20-08-2018 21:45:00 21.8 C 73 % 16.75 C
3431 20-08-2018 21:50:00 21.7 C 74 % 16.86 C
3432 20-08-2018 21:55:00 21.6 C 75 % 16.98 C
3433 20-08-2018 22:00:00 21.6 C 75 % 16.98 C
3434 20-08-2018 22:05:00 21.5 C 76 % 17.09 C
3435 20-08-2018 22:10:00 21.4 C 76 % 16.99 C
3436 20-08-2018 22:15:00 21.4 C 76 % 16.99 C
3437 20-08-2018 22:20:00 21.3 C 76 % 16.9 C
3438 20-08-2018 22:25:00 21.3 C 76 % 16.9 C
3439 20-08-2018 22:30:00 21.3 C 76 % 16.9 C
3440 20-08-2018 22:35:00 21.2 C 77 % 17.01 C
3441 20-08-2018 22:40:00 21.2 C 77 % 17.01 C
3442 20-08-2018 22:45:00 21.3 C 77 % 17.1 C
3443 20-08-2018 22:50:00 21.3 C 77 % 17.1 C
3444 20-08-2018 22:55:00 21.3 C 77 % 17.1 C
3445 20-08-2018 23:00:00 21.4 C 77 % 17.2 C
3446 20-08-2018 23:05:00 21.4 C 78 % 17.4 C
3447 20-08-2018 23:10:00 21.4 C 77 % 17.2 C
3448 20-08-2018 23:15:00 21.3 C 78 % 17.31 C
3449 20-08-2018 23:20:00 21.2 C 78 % 17.21 C
3450 20-08-2018 23:25:00 21.1 C 78 % 17.11 C
Sensor: Nr:Datum:Temp:Feuchte:Taupunkt:
Aussen-T/F 3451 20-08-2018 23:30:00 20.8 C 79 % 17.02 C
3452 20-08-2018 23:35:00 20.6 C 79 % 16.83 C
3453 20-08-2018 23:40:00 20.4 C 80 % 16.83 C
3454 20-08-2018 23:45:00 20.2 C 81 % 16.84 C
3455 20-08-2018 23:50:00 20.1 C 81 % 16.74 C
3456 20-08-2018 23:55:00 19.9 C 82 % 16.74 C
3457 21-08-2018 00:00:00 19.8 C 82 % 16.64 C
3458 21-08-2018 00:05:00 19.8 C 83 % 16.83 C
3459 21-08-2018 00:10:00 19.7 C 83 % 16.73 C
3460 21-08-2018 00:15:00 19.7 C 83 % 16.73 C
3461 21-08-2018 00:20:00 19.7 C 84 % 16.92 C
3462 21-08-2018 00:25:00 19.6 C 84 % 16.82 C
3463 21-08-2018 00:30:00 19.6 C 84 % 16.82 C
3464 21-08-2018 00:35:00 19.6 C 84 % 16.82 C
3465 21-08-2018 00:40:00 19.6 C 84 % 16.82 C
3466 21-08-2018 00:45:00 19.6 C 84 % 16.82 C
3467 21-08-2018 00:50:00 19.6 C 84 % 16.82 C
3468 21-08-2018 00:55:00 19.7 C 84 % 16.92 C
3469 21-08-2018 01:00:00 19.7 C 83 % 16.73 C
3470 21-08-2018 01:05:00 19.7 C 83 % 16.73 C
3471 21-08-2018 01:10:00 19.6 C 83 % 16.63 C
3472 21-08-2018 01:15:00 19.6 C 83 % 16.63 C
3473 21-08-2018 01:20:00 19.6 C 82 % 16.44 C
3474 21-08-2018 01:25:00 19.5 C 82 % 16.35 C
3475 21-08-2018 01:30:00 19.5 C 82 % 16.35 C
Sensor: Nr:Datum:Temp:Feuchte:Taupunkt:
Aussen-T/F 3476 21-08-2018 01:35:00 19.4 C 81 % 16.06 C
3477 21-08-2018 01:40:00 19.4 C 81 % 16.06 C
3478 21-08-2018 01:45:00 19.4 C 81 % 16.06 C
3479 21-08-2018 01:50:00 19.3 C 81 % 15.96 C
3480 21-08-2018 01:55:00 19.3 C 81 % 15.96 C
3481 21-08-2018 02:00:00 19.3 C 81 % 15.96 C
3482 21-08-2018 02:05:00 19.3 C 81 % 15.96 C
3483 21-08-2018 02:10:00 19.2 C 81 % 15.86 C
3484 21-08-2018 02:15:00 19.2 C 81 % 15.86 C
3485 21-08-2018 02:20:00 19.1 C 82 % 15.96 C
3486 21-08-2018 02:25:00 19 C 82 % 15.86 C
3487 21-08-2018 02:30:00 18.9 C 83 % 15.95 C
3488 21-08-2018 02:35:00 18.9 C 83 % 15.95 C
3489 21-08-2018 02:40:00 18.8 C 83 % 15.85 C
3490 21-08-2018 02:45:00 18.8 C 84 % 16.04 C
3491 21-08-2018 02:50:00 18.8 C 84 % 16.04 C
3492 21-08-2018 02:55:00 18.7 C 84 % 15.94 C
3493 21-08-2018 03:00:00 18.7 C 84 % 15.94 C
3494 21-08-2018 03:05:00 18.7 C 84 % 15.94 C
3495 21-08-2018 03:10:00 18.6 C 84 % 15.84 C
3496 21-08-2018 03:15:00 18.6 C 84 % 15.84 C
3497 21-08-2018 03:20:00 18.4 C 85 % 15.83 C
3498 21-08-2018 03:25:00 18.4 C 85 % 15.83 C
3499 21-08-2018 03:30:00 18.4 C 85 % 15.83 C
3500 21-08-2018 03:35:00 18.3 C 85 % 15.74 C
Sensor: Nr:Datum:Temp:Feuchte:Taupunkt:
Aussen-T/F 3501 21-08-2018 03:40:00 18.3 C 85 % 15.74 C
3502 21-08-2018 03:45:00 18.3 C 85 % 15.74 C
3503 21-08-2018 03:50:00 18.2 C 86 % 15.82 C
3504 21-08-2018 03:55:00 18.2 C 86 % 15.82 C
3505 21-08-2018 04:00:00 18.2 C 86 % 15.82 C
3506 21-08-2018 04:05:00 18.1 C 86 % 15.72 C
3507 21-08-2018 04:10:00 18.1 C 86 % 15.72 C
3508 21-08-2018 04:15:00 18 C 86 % 15.62 C
3509 21-08-2018 04:20:00 17.9 C 86 % 15.53 C
3510 21-08-2018 04:25:00 17.8 C 87 % 15.61 C
3511 21-08-2018 04:30:00 17.8 C 87 % 15.61 C
3512 21-08-2018 04:35:00 17.7 C 87 % 15.51 C
3513 21-08-2018 04:40:00 17.7 C 87 % 15.51 C
3514 21-08-2018 04:45:00 17.6 C 87 % 15.41 C
3515 21-08-2018 04:50:00 17.6 C 88 % 15.59 C
3516 21-08-2018 04:55:00 17.5 C 88 % 15.49 C
3517 21-08-2018 05:00:00 17.4 C 88 % 15.39 C
3518 21-08-2018 05:05:00 17.3 C 88 % 15.29 C
3519 21-08-2018 05:10:00 17.3 C 88 % 15.29 C
3520 21-08-2018 05:15:00 17.2 C 88 % 15.2 C
3521 21-08-2018 05:20:00 17.1 C 88 % 15.1 C
3522 21-08-2018 05:25:00 16.9 C 88 % 14.9 C
3523 21-08-2018 05:30:00 16.8 C 89 % 14.98 C
3524 21-08-2018 05:35:00 16.8 C 88 % 14.8 C
3525 21-08-2018 05:40:00 16.7 C 89 % 14.88 C
Sensor: Nr:Datum:Temp:Feuchte:Taupunkt:
Aussen-T/F 3526 21-08-2018 05:45:00 16.6 C 89 % 14.78 C
3527 21-08-2018 05:50:00 16.4 C 89 % 14.58 C
3528 21-08-2018 05:55:00 16.4 C 89 % 14.58 C
3529 21-08-2018 06:00:00 16.3 C 89 % 14.48 C
3530 21-08-2018 06:05:00 16.3 C 90 % 14.66 C
3531 21-08-2018 06:10:00 16.2 C 90 % 14.56 C
3532 21-08-2018 06:15:00 16.2 C 90 % 14.56 C
3533 21-08-2018 06:20:00 16.1 C 90 % 14.46 C
3534 21-08-2018 06:25:00 16 C 90 % 14.36 C
3535 21-08-2018 06:30:00 16 C 91 % 14.53 C
3536 21-08-2018 06:35:00 16.1 C 91 % 14.63 C
3537 21-08-2018 06:40:00 16 C 91 % 14.53 C
3538 21-08-2018 06:45:00 16 C 91 % 14.53 C
3539 21-08-2018 06:50:00 16 C 91 % 14.53 C
3540 21-08-2018 06:55:00 16.1 C 91 % 14.63 C
3541 21-08-2018 07:00:00 16.1 C 91 % 14.63 C
3542 21-08-2018 07:05:00 16.1 C 91 % 14.63 C
3543 21-08-2018 07:10:00 16 C 91 % 14.53 C
3544 21-08-2018 07:15:00 16 C 92 % 14.7 C
3545 21-08-2018 07:20:00 16.1 C 92 % 14.8 C
3546 21-08-2018 07:25:00 16.1 C 92 % 14.8 C
3547 21-08-2018 07:30:00 16.1 C 92 % 14.8 C
3548 21-08-2018 07:35:00 16.1 C 92 % 14.8 C
3549 21-08-2018 07:40:00 16.1 C 92 % 14.8 C
3550 21-08-2018 07:45:00 16.2 C 92 % 14.9 C
Sensor: Nr:Datum:Temp:Feuchte:Taupunkt:
Aussen-T/F 3551 21-08-2018 07:50:00 16.2 C 92 % 14.9 C
3552 21-08-2018 07:55:00 16.3 C 92 % 15 C
3553 21-08-2018 08:00:00 16.4 C 92 % 15.1 C
3554 21-08-2018 08:05:00 16.4 C 92 % 15.1 C
3555 21-08-2018 08:10:00 16.5 C 92 % 15.2 C
3556 21-08-2018 08:15:00 16.6 C 92 % 15.3 C
3557 21-08-2018 08:20:00 16.7 C 92 % 15.39 C
3558 21-08-2018 08:25:00 16.8 C 92 % 15.49 C
3559 21-08-2018 08:30:00 16.9 C 93 % 15.76 C
3560 21-08-2018 08:35:00 17 C 92 % 15.69 C
3561 21-08-2018 08:40:00 17.1 C 92 % 15.79 C
3562 21-08-2018 08:45:00 17.2 C 92 % 15.89 C
3563 21-08-2018 08:50:00 17.3 C 93 % 16.16 C
3564 21-08-2018 08:55:00 17.5 C 92 % 16.19 C
3565 21-08-2018 09:00:00 17.6 C 92 % 16.28 C
3566 21-08-2018 09:05:00 17.7 C 92 % 16.38 C
3567 21-08-2018 09:10:00 17.9 C 92 % 16.58 C
3568 21-08-2018 09:15:00 18.1 C 92 % 16.78 C
3569 21-08-2018 09:20:00 18.2 C 92 % 16.88 C
3570 21-08-2018 09:25:00 18.4 C 91 % 16.9 C
3571 21-08-2018 09:30:00 18.5 C 90 % 16.83 C
3572 21-08-2018 09:35:00 18.7 C 90 % 17.03 C
3573 21-08-2018 09:40:00 18.8 C 90 % 17.12 C
3574 21-08-2018 09:45:00 18.9 C 89 % 17.05 C
3575 21-08-2018 09:50:00 19 C 89 % 17.15 C
Sensor: Nr:Datum:Temp:Feuchte:Taupunkt:
Aussen-T/F 3576 21-08-2018 09:55:00 19.2 C 88 % 17.16 C
3577 21-08-2018 10:00:00 19.3 C 88 % 17.26 C
3578 21-08-2018 10:05:00 19.4 C 87 % 17.18 C
3579 21-08-2018 10:10:00 19.6 C 87 % 17.38 C
3580 21-08-2018 10:15:00 19.8 C 86 % 17.39 C
3581 21-08-2018 10:20:00 19.9 C 84 % 17.12 C
3582 21-08-2018 10:25:00 20.2 C 84 % 17.41 C
3583 21-08-2018 10:30:00 20.5 C 82 % 17.32 C
3584 21-08-2018 10:35:00 20.8 C 81 % 17.42 C
3585 21-08-2018 10:40:00 21.1 C 79 % 17.32 C
3586 21-08-2018 10:45:00 21.3 C 78 % 17.31 C
3587 21-08-2018 10:50:00 21.5 C 78 % 17.5 C
3588 21-08-2018 10:55:00 21.7 C 77 % 17.49 C
3589 21-08-2018 11:00:00 22 C 76 % 17.57 C
3590 21-08-2018 11:05:00 22.2 C 74 % 17.34 C
3591 21-08-2018 11:10:00 22.4 C 74 % 17.54 C
3592 21-08-2018 11:15:00 22.7 C 73 % 17.61 C
3593 21-08-2018 11:20:00 22.8 C 71 % 17.27 C
3594 21-08-2018 11:25:00 22.9 C 70 % 17.14 C
3595 21-08-2018 11:30:00 23.1 C 68 % 16.87 C
3596 21-08-2018 11:35:00 23.1 C 67 % 16.64 C
3597 21-08-2018 11:40:00 23.2 C 67 % 16.73 C
3598 21-08-2018 11:45:00 23.3 C 68 % 17.06 C
3599 21-08-2018 11:50:00 23.4 C 67 % 16.92 C
3600 21-08-2018 11:55:00 23.6 C 66 % 16.88 C
Sensor: Nr:Datum:Temp:Feuchte:Taupunkt:
Aussen-T/F 3601 21-08-2018 12:00:00 23.6 C 66 % 16.88 C
3602 21-08-2018 12:05:00 23.6 C 65 % 16.64 C
3603 21-08-2018 12:10:00 23.7 C 64 % 16.49 C
3604 21-08-2018 12:15:00 23.7 C 62 % 15.99 C
3605 21-08-2018 12:20:00 23.8 C 62 % 16.08 C
3606 21-08-2018 12:25:00 24 C 61 % 16.02 C
3607 21-08-2018 12:30:00 24.2 C 61 % 16.2 C
3608 21-08-2018 12:35:00 24.4 C 60 % 16.13 C
3609 21-08-2018 12:40:00 24.6 C 61 % 16.58 C
3610 21-08-2018 12:45:00 24.7 C 60 % 16.41 C
3611 21-08-2018 12:50:00 24.8 C 59 % 16.24 C
3612 21-08-2018 12:55:00 24.8 C 59 % 16.24 C
3613 21-08-2018 13:00:00 24.8 C 58 % 15.98 C
3614 21-08-2018 13:05:00 24.8 C 58 % 15.98 C
3615 21-08-2018 13:10:00 24.8 C 58 % 15.98 C
3616 21-08-2018 13:15:00 24.8 C 58 % 15.98 C
3617 21-08-2018 13:20:00 24.9 C 58 % 16.07 C
3618 21-08-2018 13:25:00 25.2 C 58 % 16.35 C
3619 21-08-2018 13:30:00 25.4 C 56 % 15.99 C
3620 21-08-2018 13:35:00 25.5 C 57 % 16.36 C
3621 21-08-2018 13:40:00 25.6 C 57 % 16.45 C
3622 21-08-2018 13:45:00 25.6 C 56 % 16.17 C
3623 21-08-2018 13:50:00 25.6 C 55 % 15.89 C
3624 21-08-2018 13:55:00 25.7 C 56 % 16.26 C
3625 21-08-2018 14:00:00 25.7 C 55 % 15.98 C
Sensor: Nr:Datum:Temp:Feuchte:Taupunkt:
Aussen-T/F 3626 21-08-2018 14:05:00 25.8 C 54 % 15.79 C
3627 21-08-2018 14:10:00 26 C 55 % 16.26 C
3628 21-08-2018 14:15:00 26.2 C 54 % 16.16 C
3629 21-08-2018 14:20:00 26.3 C 52 % 15.66 C
3630 21-08-2018 14:25:00 26.4 C 52 % 15.75 C
3631 21-08-2018 14:30:00 26.6 C 52 % 15.94 C
3632 21-08-2018 14:35:00 26.7 C 52 % 16.03 C
3633 21-08-2018 14:40:00 26.9 C 51 % 15.91 C
3634 21-08-2018 14:45:00 27.1 C 50 % 15.78 C
3635 21-08-2018 14:50:00 27.3 C 47 % 15 C
3636 21-08-2018 14:55:00 27.4 C 48 % 15.42 C
3637 21-08-2018 15:00:00 27.3 C 47 % 15 C
3638 21-08-2018 15:05:00 27.2 C 47 % 14.91 C
3639 21-08-2018 15:10:00 27.2 C 47 % 14.91 C
3640 21-08-2018 15:15:00 27.2 C 47 % 14.91 C
3641 21-08-2018 15:20:00 27.2 C 48 % 15.24 C
3642 21-08-2018 15:25:00 27.4 C 46 % 14.76 C
3643 21-08-2018 15:30:00 27.4 C 46 % 14.76 C
3644 21-08-2018 15:35:00 27.4 C 48 % 15.42 C
3645 21-08-2018 15:40:00 27.4 C 47 % 15.09 C
3646 21-08-2018 15:45:00 27.5 C 47 % 15.18 C
3647 21-08-2018 15:50:00 27.5 C 47 % 15.18 C
3648 21-08-2018 15:55:00 27.6 C 47 % 15.27 C
3649 21-08-2018 16:00:00 27.6 C 46 % 14.94 C
3650 21-08-2018 16:05:00 27.6 C 47 % 15.27 C
Sensor: Nr:Datum:Temp:Feuchte:Taupunkt:
Aussen-T/F 3651 21-08-2018 16:10:00 27.7 C 47 % 15.36 C
3652 21-08-2018 16:15:00 27.7 C 47 % 15.36 C
3653 21-08-2018 16:20:00 27.7 C 46 % 15.03 C
3654 21-08-2018 16:25:00 27.7 C 46 % 15.03 C
3655 21-08-2018 16:30:00 27.7 C 46 % 15.03 C
3656 21-08-2018 16:35:00 27.7 C 46 % 15.03 C
3657 21-08-2018 16:40:00 27.7 C 46 % 15.03 C
3658 21-08-2018 16:45:00 27.8 C 46 % 15.12 C
3659 21-08-2018 16:50:00 28.2 C 44 % 14.79 C
3660 21-08-2018 16:55:00 28.2 C 45 % 15.14 C
3661 21-08-2018 17:00:00 28.1 C 45 % 15.05 C
3662 21-08-2018 17:05:00 28.1 C 46 % 15.39 C
3663 21-08-2018 17:10:00 28.1 C 45 % 15.05 C
3664 21-08-2018 17:15:00 28 C 46 % 15.3 C
3665 21-08-2018 17:20:00 27.9 C 45 % 14.87 C
3666 21-08-2018 17:25:00 27.9 C 44 % 14.52 C
3667 21-08-2018 17:30:00 27.8 C 45 % 14.78 C
3668 21-08-2018 17:35:00 27.8 C 45 % 14.78 C
3669 21-08-2018 17:40:00 27.8 C 46 % 15.12 C
3670 21-08-2018 17:45:00 27.8 C 45 % 14.78 C
3671 21-08-2018 17:50:00 27.9 C 45 % 14.87 C
3672 21-08-2018 17:55:00 28.4 C 44 % 14.97 C
3673 21-08-2018 18:00:00 28.9 C 45 % 15.77 C
3674 21-08-2018 18:05:00 29.4 C 44 % 15.87 C
3675 21-08-2018 18:10:00 29.8 C 42 % 15.51 C
Sensor: Nr:Datum:Temp:Feuchte:Taupunkt:
Aussen-T/F 3676 21-08-2018 18:15:00 29.9 C 42 % 15.6 C
3677 21-08-2018 18:20:00 29.9 C 43 % 15.96 C
3678 21-08-2018 18:25:00 30 C 43 % 16.05 C
3679 21-08-2018 18:30:00 29.9 C 43 % 15.96 C
3680 21-08-2018 18:35:00 29.6 C 44 % 16.05 C
3681 21-08-2018 18:40:00 29.4 C 44 % 15.87 C
3682 21-08-2018 18:45:00 29.3 C 44 % 15.78 C
3683 21-08-2018 18:50:00 29.1 C 45 % 15.95 C
3684 21-08-2018 18:55:00 28.8 C 45 % 15.68 C
3685 21-08-2018 19:00:00 28.6 C 46 % 15.85 C
3686 21-08-2018 19:05:00 28.5 C 46 % 15.75 C
3687 21-08-2018 19:10:00 28.3 C 47 % 15.91 C
3688 21-08-2018 19:15:00 28.2 C 47 % 15.82 C
3689 21-08-2018 19:20:00 27.9 C 48 % 15.87 C
3690 21-08-2018 19:25:00 27.6 C 48 % 15.6 C
3691 21-08-2018 19:30:00 27.3 C 50 % 15.97 C
3692 21-08-2018 19:35:00 27 C 51 % 16 C
3693 21-08-2018 19:40:00 26.7 C 52 % 16.03 C
3694 21-08-2018 19:45:00 26.4 C 55 % 16.63 C
3695 21-08-2018 19:50:00 26.2 C 55 % 16.45 C
3696 21-08-2018 19:55:00 26 C 56 % 16.54 C
3697 21-08-2018 20:00:00 25.8 C 58 % 16.91 C
3698 21-08-2018 20:05:00 25.6 C 57 % 16.45 C
3699 21-08-2018 20:10:00 25.3 C 58 % 16.44 C
3700 21-08-2018 20:15:00 25.1 C 59 % 16.52 C
Sensor: Nr:Datum:Temp:Feuchte:Taupunkt:
Aussen-T/F 3701 21-08-2018 20:20:00 24.9 C 59 % 16.34 C
3702 21-08-2018 20:25:00 24.7 C 60 % 16.41 C
3703 21-08-2018 20:30:00 24.5 C 61 % 16.49 C
3704 21-08-2018 20:35:00 24.3 C 61 % 16.3 C
3705 21-08-2018 20:40:00 24.2 C 61 % 16.2 C
3706 21-08-2018 20:45:00 24 C 62 % 16.27 C
3707 21-08-2018 20:50:00 23.8 C 62 % 16.08 C
3708 21-08-2018 20:55:00 23.6 C 62 % 15.89 C
3709 21-08-2018 21:00:00 23.3 C 63 % 15.86 C
3710 21-08-2018 21:05:00 23.2 C 64 % 16.01 C
3711 21-08-2018 21:10:00 22.9 C 65 % 15.97 C
3712 21-08-2018 21:15:00 22.7 C 65 % 15.78 C
3713 21-08-2018 21:20:00 22.6 C 66 % 15.93 C
3714 21-08-2018 21:25:00 22.4 C 67 % 15.97 C
3715 21-08-2018 21:30:00 22.3 C 68 % 16.11 C
3716 21-08-2018 21:35:00 22.3 C 68 % 16.11 C
3717 21-08-2018 21:40:00 22.2 C 68 % 16.01 C
3718 21-08-2018 21:45:00 22.2 C 68 % 16.01 C
3719 21-08-2018 21:50:00 22.2 C 68 % 16.01 C
3720 21-08-2018 21:55:00 22.2 C 68 % 16.01 C
3721 21-08-2018 22:00:00 22.2 C 68 % 16.01 C
3722 21-08-2018 22:05:00 22.1 C 68 % 15.92 C
3723 21-08-2018 22:10:00 22 C 69 % 16.05 C
3724 21-08-2018 22:15:00 21.9 C 69 % 15.96 C
3725 21-08-2018 22:20:00 21.8 C 69 % 15.86 C
Sensor: Nr:Datum:Temp:Feuchte:Taupunkt:
Aussen-T/F 3726 21-08-2018 22:25:00 21.7 C 69 % 15.77 C
3727 21-08-2018 22:30:00 21.6 C 69 % 15.67 C
3728 21-08-2018 22:35:00 21.6 C 69 % 15.67 C
3729 21-08-2018 22:40:00 21.4 C 69 % 15.48 C
3730 21-08-2018 22:45:00 21.3 C 70 % 15.61 C
3731 21-08-2018 22:50:00 21.2 C 70 % 15.51 C
3732 21-08-2018 22:55:00 21.1 C 70 % 15.42 C
3733 21-08-2018 23:00:00 20.9 C 70 % 15.23 C
3734 21-08-2018 23:05:00 20.8 C 71 % 15.35 C
3735 21-08-2018 23:10:00 20.7 C 71 % 15.25 C
3736 21-08-2018 23:15:00 20.6 C 71 % 15.16 C
3737 21-08-2018 23:20:00 20.5 C 72 % 15.28 C
3738 21-08-2018 23:25:00 20.3 C 72 % 15.09 C
3739 21-08-2018 23:30:00 20.2 C 72 % 14.99 C
3740 21-08-2018 23:35:00 20.2 C 72 % 14.99 C
3741 21-08-2018 23:40:00 20.1 C 73 % 15.11 C
3742 21-08-2018 23:45:00 20 C 74 % 15.23 C
3743 21-08-2018 23:50:00 20 C 74 % 15.23 C
3744 21-08-2018 23:55:00 20 C 74 % 15.23 C
3745 22-08-2018 00:00:00 20.1 C 74 % 15.32 C
3746 22-08-2018 00:05:00 20.1 C 74 % 15.32 C
3747 22-08-2018 00:10:00 20.1 C 74 % 15.32 C
3748 22-08-2018 00:15:00 20.1 C 74 % 15.32 C
3749 22-08-2018 00:20:00 20.1 C 74 % 15.32 C
3750 22-08-2018 00:25:00 20 C 74 % 15.23 C
Sensor: Nr:Datum:Temp:Feuchte:Taupunkt:
Aussen-T/F 3751 22-08-2018 00:30:00 19.9 C 75 % 15.34 C
3752 22-08-2018 00:35:00 19.9 C 74 % 15.13 C
3753 22-08-2018 00:40:00 19.8 C 74 % 15.03 C
3754 22-08-2018 00:45:00 19.8 C 74 % 15.03 C
3755 22-08-2018 00:50:00 19.7 C 75 % 15.15 C
3756 22-08-2018 00:55:00 19.7 C 75 % 15.15 C
3757 22-08-2018 01:00:00 19.6 C 75 % 15.05 C
3758 22-08-2018 01:05:00 19.4 C 75 % 14.86 C
3759 22-08-2018 01:10:00 19.3 C 75 % 14.76 C
3760 22-08-2018 01:15:00 19.2 C 76 % 14.87 C
3761 22-08-2018 01:20:00 19.2 C 76 % 14.87 C
3762 22-08-2018 01:25:00 19.1 C 76 % 14.77 C
3763 22-08-2018 01:30:00 18.9 C 76 % 14.58 C
3764 22-08-2018 01:35:00 18.8 C 77 % 14.68 C
3765 22-08-2018 01:40:00 18.7 C 77 % 14.59 C
3766 22-08-2018 01:45:00 18.6 C 77 % 14.49 C
3767 22-08-2018 01:50:00 18.5 C 78 % 14.59 C
3768 22-08-2018 01:55:00 18.4 C 78 % 14.5 C
3769 22-08-2018 02:00:00 18.3 C 79 % 14.6 C
3770 22-08-2018 02:05:00 18.3 C 79 % 14.6 C
3771 22-08-2018 02:10:00 18.2 C 80 % 14.69 C
3772 22-08-2018 02:15:00 18.1 C 80 % 14.6 C
3773 22-08-2018 02:20:00 18 C 80 % 14.5 C
3774 22-08-2018 02:25:00 17.9 C 80 % 14.4 C
3775 22-08-2018 02:30:00 17.8 C 81 % 14.5 C
Sensor: Nr:Datum:Temp:Feuchte:Taupunkt:
Aussen-T/F 3776 22-08-2018 02:35:00 17.7 C 81 % 14.4 C
3777 22-08-2018 02:40:00 17.5 C 81 % 14.2 C
3778 22-08-2018 02:45:00 17.4 C 82 % 14.3 C
3779 22-08-2018 02:50:00 17.3 C 82 % 14.2 C
3780 22-08-2018 02:55:00 17.3 C 82 % 14.2 C
3781 22-08-2018 03:00:00 17.2 C 82 % 14.1 C
3782 22-08-2018 03:05:00 17.1 C 83 % 14.19 C
3783 22-08-2018 03:10:00 17.1 C 83 % 14.19 C
3784 22-08-2018 03:15:00 17 C 83 % 14.09 C
3785 22-08-2018 03:20:00 16.9 C 83 % 14 C
3786 22-08-2018 03:25:00 16.9 C 84 % 14.18 C
3787 22-08-2018 03:30:00 16.8 C 85 % 14.26 C
3788 22-08-2018 03:35:00 16.8 C 85 % 14.26 C
3789 22-08-2018 03:40:00 16.7 C 85 % 14.17 C
3790 22-08-2018 03:45:00 16.6 C 85 % 14.07 C
3791 22-08-2018 03:50:00 16.6 C 85 % 14.07 C
3792 22-08-2018 03:55:00 16.5 C 85 % 13.97 C
3793 22-08-2018 04:00:00 16.4 C 86 % 14.05 C
3794 22-08-2018 04:05:00 16.4 C 85 % 13.87 C
3795 22-08-2018 04:10:00 16.3 C 86 % 13.95 C
3796 22-08-2018 04:15:00 16.2 C 86 % 13.86 C
3797 22-08-2018 04:20:00 16.1 C 86 % 13.76 C
3798 22-08-2018 04:25:00 16.1 C 86 % 13.76 C
3799 22-08-2018 04:30:00 16 C 86 % 13.66 C
3800 22-08-2018 04:35:00 15.9 C 86 % 13.56 C
Sensor: Nr:Datum:Temp:Feuchte:Taupunkt:
Aussen-T/F 3801 22-08-2018 04:40:00 15.8 C 86 % 13.46 C
3802 22-08-2018 04:45:00 15.8 C 87 % 13.64 C
3803 22-08-2018 04:50:00 15.7 C 87 % 13.54 C
3804 22-08-2018 04:55:00 15.7 C 87 % 13.54 C
3805 22-08-2018 05:00:00 15.7 C 87 % 13.54 C
3806 22-08-2018 05:05:00 15.6 C 87 % 13.45 C
3807 22-08-2018 05:10:00 15.6 C 87 % 13.45 C
3808 22-08-2018 05:15:00 15.6 C 87 % 13.45 C
3809 22-08-2018 05:20:00 15.6 C 87 % 13.45 C
3810 22-08-2018 05:25:00 15.5 C 87 % 13.35 C
3811 22-08-2018 05:30:00 15.4 C 87 % 13.25 C
3812 22-08-2018 05:35:00 15.4 C 87 % 13.25 C
3813 22-08-2018 05:40:00 15.3 C 88 % 13.33 C
3814 22-08-2018 05:45:00 15.4 C 88 % 13.42 C
3815 22-08-2018 05:50:00 15.4 C 88 % 13.42 C
3816 22-08-2018 05:55:00 15.3 C 88 % 13.33 C
3817 22-08-2018 06:00:00 15.3 C 88 % 13.33 C
3818 22-08-2018 06:05:00 15.3 C 88 % 13.33 C
3819 22-08-2018 06:10:00 15.3 C 88 % 13.33 C
3820 22-08-2018 06:15:00 15.3 C 88 % 13.33 C
3821 22-08-2018 06:20:00 15.3 C 88 % 13.33 C
3822 22-08-2018 06:25:00 15.3 C 89 % 13.5 C
3823 22-08-2018 06:30:00 15.3 C 89 % 13.5 C
3824 22-08-2018 06:35:00 15.2 C 89 % 13.4 C
3825 22-08-2018 06:40:00 15.1 C 88 % 13.13 C
Sensor: Nr:Datum:Temp:Feuchte:Taupunkt:
Aussen-T/F 3826 22-08-2018 06:45:00 15.1 C 89 % 13.3 C
3827 22-08-2018 06:50:00 15.1 C 89 % 13.3 C
3828 22-08-2018 06:55:00 15.1 C 89 % 13.3 C
3829 22-08-2018 07:00:00 15.1 C 89 % 13.3 C
3830 22-08-2018 07:05:00 15.1 C 89 % 13.3 C
3831 22-08-2018 07:10:00 15.1 C 90 % 13.47 C
3832 22-08-2018 07:15:00 15.2 C 90 % 13.57 C
3833 22-08-2018 07:20:00 15.2 C 90 % 13.57 C
3834 22-08-2018 07:25:00 15.2 C 90 % 13.57 C
3835 22-08-2018 07:30:00 15.3 C 90 % 13.67 C
3836 22-08-2018 07:35:00 15.4 C 90 % 13.77 C
3837 22-08-2018 07:40:00 15.4 C 90 % 13.77 C
3838 22-08-2018 07:45:00 15.5 C 90 % 13.87 C
3839 22-08-2018 07:50:00 15.6 C 90 % 13.97 C
3840 22-08-2018 07:55:00 15.6 C 90 % 13.97 C
3841 22-08-2018 08:00:00 15.6 C 90 % 13.97 C
3842 22-08-2018 08:05:00 15.7 C 90 % 14.06 C
3843 22-08-2018 08:10:00 15.7 C 90 % 14.06 C
3844 22-08-2018 08:15:00 15.8 C 90 % 14.16 C
3845 22-08-2018 08:20:00 15.9 C 90 % 14.26 C
3846 22-08-2018 08:25:00 16 C 90 % 14.36 C
3847 22-08-2018 08:30:00 16.1 C 90 % 14.46 C
3848 22-08-2018 08:35:00 16.2 C 90 % 14.56 C
3849 22-08-2018 08:40:00 16.3 C 90 % 14.66 C
3850 22-08-2018 08:45:00 16.4 C 90 % 14.76 C
Sensor: Nr:Datum:Temp:Feuchte:Taupunkt:
Aussen-T/F 3851 22-08-2018 08:50:00 16.6 C 90 % 14.95 C
3852 22-08-2018 08:55:00 16.7 C 90 % 15.05 C
3853 22-08-2018 09:00:00 16.8 C 89 % 14.98 C
3854 22-08-2018 09:05:00 16.9 C 89 % 15.08 C
3855 22-08-2018 09:10:00 17 C 89 % 15.17 C
3856 22-08-2018 09:15:00 17.1 C 89 % 15.27 C
3857 22-08-2018 09:20:00 17.2 C 89 % 15.37 C
3858 22-08-2018 09:25:00 17.3 C 89 % 15.47 C
3859 22-08-2018 09:30:00 17.5 C 89 % 15.67 C
3860 22-08-2018 09:35:00 17.7 C 89 % 15.86 C
3861 22-08-2018 09:40:00 17.8 C 88 % 15.79 C
3862 22-08-2018 09:45:00 18.1 C 88 % 16.08 C
3863 22-08-2018 09:50:00 18.3 C 87 % 16.1 C
3864 22-08-2018 09:55:00 18.5 C 87 % 16.3 C
3865 22-08-2018 10:00:00 18.8 C 85 % 16.23 C
3866 22-08-2018 10:05:00 18.9 C 84 % 16.14 C
3867 22-08-2018 10:10:00 19.2 C 84 % 16.43 C
3868 22-08-2018 10:15:00 19.4 C 84 % 16.63 C
3869 22-08-2018 10:20:00 19.7 C 83 % 16.73 C
3870 22-08-2018 10:25:00 19.8 C 82 % 16.64 C
3871 22-08-2018 10:30:00 20 C 82 % 16.83 C
3872 22-08-2018 10:35:00 20.2 C 80 % 16.64 C
3873 22-08-2018 10:40:00 20.4 C 78 % 16.44 C
3874 22-08-2018 10:45:00 20.7 C 79 % 16.93 C
3875 22-08-2018 10:50:00 20.9 C 79 % 17.12 C
Sensor: Nr:Datum:Temp:Feuchte:Taupunkt:
Aussen-T/F 3876 22-08-2018 10:55:00 21.1 C 78 % 17.11 C